<?xml version="1.0" encoding="UTF-8" standalone="no" ?>
<gpx xmlns="http://www.topografix.com/GPX/1/1" xmlns:xsi="http://www.w3.org/2001/XMLSchema-instance" xsi:schemaLocation="http://www.topografix.com/GPX/1/1 http://www.topografix.com/GPX/1/1/gpx.xsd" version="1.1" creator="VisuGPX - https://www.visugpx.com">
  <metadata>
    <name>St clair35km</name>
  </metadata>
  <trk>
    <name><![CDATA[St clair35km_1]]></name>
    <trkseg>
      <trkpt lat="48.74707" lon="-0.57352">
        <ele>111</ele>
        <time>2014-08-20T14:13:40Z</time>
      </trkpt>
      <trkpt lat="48.74707" lon="-0.57352">
        <ele>111</ele>
        <time>2014-08-20T14:13:41Z</time>
      </trkpt>
      <trkpt lat="48.74711" lon="-0.57342">
        <ele>110.6</ele>
        <time>2014-08-20T14:13:52Z</time>
      </trkpt>
      <trkpt lat="48.74704" lon="-0.57355">
        <ele>109.8</ele>
        <time>2014-08-20T14:13:56Z</time>
      </trkpt>
      <trkpt lat="48.74698" lon="-0.57361">
        <ele>108.4</ele>
        <time>2014-08-20T14:14:08Z</time>
      </trkpt>
      <trkpt lat="48.7469" lon="-0.57379">
        <ele>108.2</ele>
        <time>2014-08-20T14:14:34Z</time>
      </trkpt>
      <trkpt lat="48.74779" lon="-0.57199">
        <ele>110</ele>
        <time>2014-08-20T14:20:00Z</time>
      </trkpt>
      <trkpt lat="48.74775" lon="-0.57203">
        <ele>110.2</ele>
        <time>2014-08-20T14:20:16Z</time>
      </trkpt>
      <trkpt lat="48.7477" lon="-0.57215">
        <ele>110.4</ele>
        <time>2014-08-20T14:20:21Z</time>
      </trkpt>
      <trkpt lat="48.74746" lon="-0.5728">
        <ele>110.4</ele>
        <time>2014-08-20T14:20:37Z</time>
      </trkpt>
      <trkpt lat="48.74719" lon="-0.57355">
        <ele>112.2</ele>
        <time>2014-08-20T14:20:54Z</time>
      </trkpt>
      <trkpt lat="48.74701" lon="-0.57407">
        <ele>113.2</ele>
        <time>2014-08-20T14:21:11Z</time>
      </trkpt>
      <trkpt lat="48.747" lon="-0.57408">
        <ele>113.4</ele>
        <time>2014-08-20T14:21:12Z</time>
      </trkpt>
      <trkpt lat="48.74697" lon="-0.5742">
        <ele>114</ele>
        <time>2014-08-20T14:21:23Z</time>
      </trkpt>
      <trkpt lat="48.7469" lon="-0.57435">
        <ele>114.4</ele>
        <time>2014-08-20T14:21:35Z</time>
      </trkpt>
      <trkpt lat="48.74668" lon="-0.57486">
        <ele>114.8</ele>
        <time>2014-08-20T14:21:47Z</time>
      </trkpt>
      <trkpt lat="48.74652" lon="-0.57536">
        <ele>115.4</ele>
        <time>2014-08-20T14:21:57Z</time>
      </trkpt>
      <trkpt lat="48.74621" lon="-0.57615">
        <ele>117</ele>
        <time>2014-08-20T14:22:13Z</time>
      </trkpt>
      <trkpt lat="48.74599" lon="-0.57679">
        <ele>118.2</ele>
        <time>2014-08-20T14:22:25Z</time>
      </trkpt>
      <trkpt lat="48.74551" lon="-0.57801">
        <ele>117</ele>
        <time>2014-08-20T14:22:45Z</time>
      </trkpt>
      <trkpt lat="48.74516" lon="-0.57895">
        <ele>117.2</ele>
        <time>2014-08-20T14:23:00Z</time>
      </trkpt>
      <trkpt lat="48.74479" lon="-0.57986">
        <ele>117.6</ele>
        <time>2014-08-20T14:23:15Z</time>
      </trkpt>
      <trkpt lat="48.74431" lon="-0.58098">
        <ele>118</ele>
        <time>2014-08-20T14:23:35Z</time>
      </trkpt>
      <trkpt lat="48.74429" lon="-0.58104">
        <ele>118</ele>
        <time>2014-08-20T14:23:36Z</time>
      </trkpt>
      <trkpt lat="48.74426" lon="-0.5811">
        <ele>118</ele>
        <time>2014-08-20T14:23:37Z</time>
      </trkpt>
      <trkpt lat="48.74423" lon="-0.58115">
        <ele>118</ele>
        <time>2014-08-20T14:23:38Z</time>
      </trkpt>
      <trkpt lat="48.74421" lon="-0.5812">
        <ele>118</ele>
        <time>2014-08-20T14:23:39Z</time>
      </trkpt>
      <trkpt lat="48.74418" lon="-0.58127">
        <ele>118</ele>
        <time>2014-08-20T14:23:40Z</time>
      </trkpt>
      <trkpt lat="48.7438" lon="-0.58211">
        <ele>118.4</ele>
        <time>2014-08-20T14:23:54Z</time>
      </trkpt>
      <trkpt lat="48.74338" lon="-0.58303">
        <ele>118.8</ele>
        <time>2014-08-20T14:24:10Z</time>
      </trkpt>
      <trkpt lat="48.74284" lon="-0.58419">
        <ele>120.4</ele>
        <time>2014-08-20T14:24:31Z</time>
      </trkpt>
      <trkpt lat="48.74239" lon="-0.58516">
        <ele>121</ele>
        <time>2014-08-20T14:24:50Z</time>
      </trkpt>
      <trkpt lat="48.74176" lon="-0.58614">
        <ele>121.6</ele>
        <time>2014-08-20T14:25:09Z</time>
      </trkpt>
      <trkpt lat="48.74094" lon="-0.5872">
        <ele>121.6</ele>
        <time>2014-08-20T14:25:30Z</time>
      </trkpt>
      <trkpt lat="48.74032" lon="-0.588">
        <ele>121</ele>
        <time>2014-08-20T14:25:47Z</time>
      </trkpt>
      <trkpt lat="48.74015" lon="-0.58856">
        <ele>120.8</ele>
        <time>2014-08-20T14:25:57Z</time>
      </trkpt>
      <trkpt lat="48.74007" lon="-0.58894">
        <ele>120.6</ele>
        <time>2014-08-20T14:26:02Z</time>
      </trkpt>
      <trkpt lat="48.73992" lon="-0.58969">
        <ele>120.4</ele>
        <time>2014-08-20T14:26:12Z</time>
      </trkpt>
      <trkpt lat="48.73985" lon="-0.59005">
        <ele>120.8</ele>
        <time>2014-08-20T14:26:17Z</time>
      </trkpt>
      <trkpt lat="48.73968" lon="-0.59077">
        <ele>121.4</ele>
        <time>2014-08-20T14:26:28Z</time>
      </trkpt>
      <trkpt lat="48.73943" lon="-0.59164">
        <ele>122.2</ele>
        <time>2014-08-20T14:26:42Z</time>
      </trkpt>
      <trkpt lat="48.7392" lon="-0.5923">
        <ele>123.4</ele>
        <time>2014-08-20T14:26:54Z</time>
      </trkpt>
      <trkpt lat="48.73918" lon="-0.59236">
        <ele>123.4</ele>
        <time>2014-08-20T14:26:55Z</time>
      </trkpt>
      <trkpt lat="48.73915" lon="-0.5924">
        <ele>123.4</ele>
        <time>2014-08-20T14:26:56Z</time>
      </trkpt>
      <trkpt lat="48.73912" lon="-0.59244">
        <ele>123.6</ele>
        <time>2014-08-20T14:26:57Z</time>
      </trkpt>
      <trkpt lat="48.73908" lon="-0.59247">
        <ele>123.6</ele>
        <time>2014-08-20T14:26:58Z</time>
      </trkpt>
      <trkpt lat="48.73905" lon="-0.59252">
        <ele>123.6</ele>
        <time>2014-08-20T14:26:59Z</time>
      </trkpt>
      <trkpt lat="48.73902" lon="-0.59257">
        <ele>123.6</ele>
        <time>2014-08-20T14:27:00Z</time>
      </trkpt>
      <trkpt lat="48.739" lon="-0.59263">
        <ele>123.6</ele>
        <time>2014-08-20T14:27:01Z</time>
      </trkpt>
      <trkpt lat="48.7385" lon="-0.59375">
        <ele>124.6</ele>
        <time>2014-08-20T14:27:21Z</time>
      </trkpt>
      <trkpt lat="48.73808" lon="-0.59481">
        <ele>125.6</ele>
        <time>2014-08-20T14:27:39Z</time>
      </trkpt>
      <trkpt lat="48.73757" lon="-0.59608">
        <ele>126</ele>
        <time>2014-08-20T14:28:00Z</time>
      </trkpt>
      <trkpt lat="48.73708" lon="-0.59706">
        <ele>126.4</ele>
        <time>2014-08-20T14:28:17Z</time>
      </trkpt>
      <trkpt lat="48.73647" lon="-0.59817">
        <ele>126.8</ele>
        <time>2014-08-20T14:28:38Z</time>
      </trkpt>
      <trkpt lat="48.73604" lon="-0.59884">
        <ele>127.4</ele>
        <time>2014-08-20T14:28:52Z</time>
      </trkpt>
      <trkpt lat="48.73603" lon="-0.5989">
        <ele>127.4</ele>
        <time>2014-08-20T14:28:53Z</time>
      </trkpt>
      <trkpt lat="48.73603" lon="-0.59896">
        <ele>127.4</ele>
        <time>2014-08-20T14:28:54Z</time>
      </trkpt>
      <trkpt lat="48.73606" lon="-0.59901">
        <ele>127.4</ele>
        <time>2014-08-20T14:28:55Z</time>
      </trkpt>
      <trkpt lat="48.73609" lon="-0.59906">
        <ele>127.4</ele>
        <time>2014-08-20T14:28:56Z</time>
      </trkpt>
      <trkpt lat="48.73612" lon="-0.59911">
        <ele>127.4</ele>
        <time>2014-08-20T14:28:57Z</time>
      </trkpt>
      <trkpt lat="48.73616" lon="-0.59915">
        <ele>127.2</ele>
        <time>2014-08-20T14:28:58Z</time>
      </trkpt>
      <trkpt lat="48.73619" lon="-0.5992">
        <ele>127</ele>
        <time>2014-08-20T14:28:59Z</time>
      </trkpt>
      <trkpt lat="48.73622" lon="-0.59926">
        <ele>126.8</ele>
        <time>2014-08-20T14:29:00Z</time>
      </trkpt>
      <trkpt lat="48.73623" lon="-0.59932">
        <ele>126.6</ele>
        <time>2014-08-20T14:29:01Z</time>
      </trkpt>
      <trkpt lat="48.73622" lon="-0.59937">
        <ele>126.4</ele>
        <time>2014-08-20T14:29:02Z</time>
      </trkpt>
      <trkpt lat="48.7362" lon="-0.59941">
        <ele>126</ele>
        <time>2014-08-20T14:29:03Z</time>
      </trkpt>
      <trkpt lat="48.73617" lon="-0.59946">
        <ele>126</ele>
        <time>2014-08-20T14:29:04Z</time>
      </trkpt>
      <trkpt lat="48.73615" lon="-0.5995">
        <ele>126.2</ele>
        <time>2014-08-20T14:29:05Z</time>
      </trkpt>
      <trkpt lat="48.7358" lon="-0.6001">
        <ele>128</ele>
        <time>2014-08-20T14:29:17Z</time>
      </trkpt>
      <trkpt lat="48.73549" lon="-0.601">
        <ele>129.2</ele>
        <time>2014-08-20T14:29:33Z</time>
      </trkpt>
      <trkpt lat="48.73512" lon="-0.60181">
        <ele>130</ele>
        <time>2014-08-20T14:29:50Z</time>
      </trkpt>
      <trkpt lat="48.73497" lon="-0.60255">
        <ele>130</ele>
        <time>2014-08-20T14:30:03Z</time>
      </trkpt>
      <trkpt lat="48.73482" lon="-0.60358">
        <ele>129.6</ele>
        <time>2014-08-20T14:30:19Z</time>
      </trkpt>
      <trkpt lat="48.73478" lon="-0.60377">
        <ele>129.4</ele>
        <time>2014-08-20T14:30:22Z</time>
      </trkpt>
      <trkpt lat="48.73469" lon="-0.60454">
        <ele>128.8</ele>
        <time>2014-08-20T14:30:35Z</time>
      </trkpt>
      <trkpt lat="48.73436" lon="-0.60538">
        <ele>128.6</ele>
        <time>2014-08-20T14:30:48Z</time>
      </trkpt>
      <trkpt lat="48.73419" lon="-0.60599">
        <ele>128.8</ele>
        <time>2014-08-20T14:31:00Z</time>
      </trkpt>
      <trkpt lat="48.73414" lon="-0.60616">
        <ele>128.8</ele>
        <time>2014-08-20T14:31:03Z</time>
      </trkpt>
      <trkpt lat="48.73399" lon="-0.60669">
        <ele>128.4</ele>
        <time>2014-08-20T14:31:11Z</time>
      </trkpt>
      <trkpt lat="48.73373" lon="-0.60751">
        <ele>127</ele>
        <time>2014-08-20T14:31:23Z</time>
      </trkpt>
      <trkpt lat="48.73369" lon="-0.60757">
        <ele>127</ele>
        <time>2014-08-20T14:31:24Z</time>
      </trkpt>
      <trkpt lat="48.73353" lon="-0.60778">
        <ele>126.6</ele>
        <time>2014-08-20T14:31:28Z</time>
      </trkpt>
      <trkpt lat="48.73349" lon="-0.60783">
        <ele>126.4</ele>
        <time>2014-08-20T14:31:29Z</time>
      </trkpt>
      <trkpt lat="48.73344" lon="-0.60787">
        <ele>126.4</ele>
        <time>2014-08-20T14:31:30Z</time>
      </trkpt>
      <trkpt lat="48.73329" lon="-0.60804">
        <ele>126.4</ele>
        <time>2014-08-20T14:31:34Z</time>
      </trkpt>
      <trkpt lat="48.73326" lon="-0.60809">
        <ele>126.4</ele>
        <time>2014-08-20T14:31:35Z</time>
      </trkpt>
      <trkpt lat="48.73315" lon="-0.60832">
        <ele>126.6</ele>
        <time>2014-08-20T14:31:39Z</time>
      </trkpt>
      <trkpt lat="48.73295" lon="-0.60877">
        <ele>126.4</ele>
        <time>2014-08-20T14:31:46Z</time>
      </trkpt>
      <trkpt lat="48.73293" lon="-0.6091">
        <ele>126.2</ele>
        <time>2014-08-20T14:31:52Z</time>
      </trkpt>
      <trkpt lat="48.73294" lon="-0.60923">
        <ele>126</ele>
        <time>2014-08-20T14:31:54Z</time>
      </trkpt>
      <trkpt lat="48.73297" lon="-0.60935">
        <ele>125.8</ele>
        <time>2014-08-20T14:31:56Z</time>
      </trkpt>
      <trkpt lat="48.73302" lon="-0.60962">
        <ele>125.6</ele>
        <time>2014-08-20T14:32:00Z</time>
      </trkpt>
      <trkpt lat="48.73297" lon="-0.61002">
        <ele>125.8</ele>
        <time>2014-08-20T14:32:06Z</time>
      </trkpt>
      <trkpt lat="48.73297" lon="-0.6101">
        <ele>125.8</ele>
        <time>2014-08-20T14:32:07Z</time>
      </trkpt>
      <trkpt lat="48.73297" lon="-0.61019">
        <ele>125.8</ele>
        <time>2014-08-20T14:32:08Z</time>
      </trkpt>
      <trkpt lat="48.73297" lon="-0.61027">
        <ele>125.8</ele>
        <time>2014-08-20T14:32:09Z</time>
      </trkpt>
      <trkpt lat="48.73296" lon="-0.61035">
        <ele>125.6</ele>
        <time>2014-08-20T14:32:10Z</time>
      </trkpt>
      <trkpt lat="48.73295" lon="-0.61043">
        <ele>125.6</ele>
        <time>2014-08-20T14:32:11Z</time>
      </trkpt>
      <trkpt lat="48.73293" lon="-0.6105">
        <ele>125.6</ele>
        <time>2014-08-20T14:32:12Z</time>
      </trkpt>
      <trkpt lat="48.73255" lon="-0.61148">
        <ele>125.6</ele>
        <time>2014-08-20T14:32:27Z</time>
      </trkpt>
      <trkpt lat="48.73232" lon="-0.6121">
        <ele>128</ele>
        <time>2014-08-20T14:32:41Z</time>
      </trkpt>
      <trkpt lat="48.73233" lon="-0.61223">
        <ele>128.8</ele>
        <time>2014-08-20T14:32:46Z</time>
      </trkpt>
      <trkpt lat="48.73235" lon="-0.61224">
        <ele>128.8</ele>
        <time>2014-08-20T14:32:47Z</time>
      </trkpt>
      <trkpt lat="48.73237" lon="-0.61227">
        <ele>128.8</ele>
        <time>2014-08-20T14:32:49Z</time>
      </trkpt>
      <trkpt lat="48.73238" lon="-0.6123">
        <ele>128.8</ele>
        <time>2014-08-20T14:32:50Z</time>
      </trkpt>
      <trkpt lat="48.73239" lon="-0.61234">
        <ele>128.6</ele>
        <time>2014-08-20T14:32:51Z</time>
      </trkpt>
      <trkpt lat="48.73238" lon="-0.61238">
        <ele>128.6</ele>
        <time>2014-08-20T14:32:52Z</time>
      </trkpt>
      <trkpt lat="48.73238" lon="-0.61242">
        <ele>128.4</ele>
        <time>2014-08-20T14:32:53Z</time>
      </trkpt>
      <trkpt lat="48.73222" lon="-0.61323">
        <ele>128.2</ele>
        <time>2014-08-20T14:33:08Z</time>
      </trkpt>
      <trkpt lat="48.73211" lon="-0.61395">
        <ele>128.2</ele>
        <time>2014-08-20T14:33:20Z</time>
      </trkpt>
      <trkpt lat="48.73207" lon="-0.61413">
        <ele>128.4</ele>
        <time>2014-08-20T14:33:23Z</time>
      </trkpt>
      <trkpt lat="48.73186" lon="-0.61505">
        <ele>128.4</ele>
        <time>2014-08-20T14:33:38Z</time>
      </trkpt>
      <trkpt lat="48.73174" lon="-0.61571">
        <ele>128.4</ele>
        <time>2014-08-20T14:33:48Z</time>
      </trkpt>
      <trkpt lat="48.7316" lon="-0.6163">
        <ele>128</ele>
        <time>2014-08-20T14:33:57Z</time>
      </trkpt>
      <trkpt lat="48.73146" lon="-0.61655">
        <ele>128.2</ele>
        <time>2014-08-20T14:34:01Z</time>
      </trkpt>
      <trkpt lat="48.73126" lon="-0.61676">
        <ele>128.4</ele>
        <time>2014-08-20T14:34:05Z</time>
      </trkpt>
      <trkpt lat="48.73103" lon="-0.61691">
        <ele>128.6</ele>
        <time>2014-08-20T14:34:09Z</time>
      </trkpt>
      <trkpt lat="48.7309" lon="-0.61701">
        <ele>128.6</ele>
        <time>2014-08-20T14:34:12Z</time>
      </trkpt>
      <trkpt lat="48.73053" lon="-0.61725">
        <ele>128.6</ele>
        <time>2014-08-20T14:34:22Z</time>
      </trkpt>
      <trkpt lat="48.73038" lon="-0.61732">
        <ele>128.2</ele>
        <time>2014-08-20T14:34:28Z</time>
      </trkpt>
      <trkpt lat="48.73018" lon="-0.61757">
        <ele>128.4</ele>
        <time>2014-08-20T14:34:40Z</time>
      </trkpt>
      <trkpt lat="48.73011" lon="-0.61767">
        <ele>129</ele>
        <time>2014-08-20T14:34:45Z</time>
      </trkpt>
      <trkpt lat="48.73003" lon="-0.61786">
        <ele>130.6</ele>
        <time>2014-08-20T14:34:52Z</time>
      </trkpt>
      <trkpt lat="48.72999" lon="-0.61799">
        <ele>131.4</ele>
        <time>2014-08-20T14:34:56Z</time>
      </trkpt>
      <trkpt lat="48.72994" lon="-0.61808">
        <ele>132</ele>
        <time>2014-08-20T14:34:59Z</time>
      </trkpt>
      <trkpt lat="48.72981" lon="-0.61864">
        <ele>132.6</ele>
        <time>2014-08-20T14:35:11Z</time>
      </trkpt>
      <trkpt lat="48.72979" lon="-0.61873">
        <ele>132.4</ele>
        <time>2014-08-20T14:35:12Z</time>
      </trkpt>
      <trkpt lat="48.72979" lon="-0.61883">
        <ele>132.2</ele>
        <time>2014-08-20T14:35:13Z</time>
      </trkpt>
      <trkpt lat="48.72979" lon="-0.61901">
        <ele>131.2</ele>
        <time>2014-08-20T14:35:15Z</time>
      </trkpt>
      <trkpt lat="48.7298" lon="-0.6191">
        <ele>131</ele>
        <time>2014-08-20T14:35:16Z</time>
      </trkpt>
      <trkpt lat="48.72984" lon="-0.61937">
        <ele>130</ele>
        <time>2014-08-20T14:35:19Z</time>
      </trkpt>
      <trkpt lat="48.72989" lon="-0.61954">
        <ele>129.4</ele>
        <time>2014-08-20T14:35:21Z</time>
      </trkpt>
      <trkpt lat="48.73033" lon="-0.62032">
        <ele>128.6</ele>
        <time>2014-08-20T14:35:34Z</time>
      </trkpt>
      <trkpt lat="48.7306" lon="-0.62075">
        <ele>131.6</ele>
        <time>2014-08-20T14:35:44Z</time>
      </trkpt>
      <trkpt lat="48.73069" lon="-0.62129">
        <ele>134.8</ele>
        <time>2014-08-20T14:35:55Z</time>
      </trkpt>
      <trkpt lat="48.73068" lon="-0.6218">
        <ele>137.2</ele>
        <time>2014-08-20T14:36:07Z</time>
      </trkpt>
      <trkpt lat="48.73053" lon="-0.62243">
        <ele>140.2</ele>
        <time>2014-08-20T14:36:21Z</time>
      </trkpt>
      <trkpt lat="48.73024" lon="-0.62282">
        <ele>143</ele>
        <time>2014-08-20T14:36:34Z</time>
      </trkpt>
      <trkpt lat="48.73022" lon="-0.62285">
        <ele>143.4</ele>
        <time>2014-08-20T14:36:35Z</time>
      </trkpt>
      <trkpt lat="48.73021" lon="-0.62288">
        <ele>143.6</ele>
        <time>2014-08-20T14:36:36Z</time>
      </trkpt>
      <trkpt lat="48.73019" lon="-0.62291">
        <ele>143.8</ele>
        <time>2014-08-20T14:36:37Z</time>
      </trkpt>
      <trkpt lat="48.73007" lon="-0.62307">
        <ele>145.4</ele>
        <time>2014-08-20T14:36:43Z</time>
      </trkpt>
      <trkpt lat="48.73005" lon="-0.62309">
        <ele>145.6</ele>
        <time>2014-08-20T14:36:44Z</time>
      </trkpt>
      <trkpt lat="48.73003" lon="-0.62311">
        <ele>145.8</ele>
        <time>2014-08-20T14:36:45Z</time>
      </trkpt>
      <trkpt lat="48.73001" lon="-0.62313">
        <ele>146</ele>
        <time>2014-08-20T14:36:46Z</time>
      </trkpt>
      <trkpt lat="48.73" lon="-0.62315">
        <ele>146.2</ele>
        <time>2014-08-20T14:36:47Z</time>
      </trkpt>
      <trkpt lat="48.72998" lon="-0.62318">
        <ele>146.4</ele>
        <time>2014-08-20T14:36:48Z</time>
      </trkpt>
      <trkpt lat="48.72996" lon="-0.6232">
        <ele>146.6</ele>
        <time>2014-08-20T14:36:49Z</time>
      </trkpt>
      <trkpt lat="48.72994" lon="-0.62323">
        <ele>146.8</ele>
        <time>2014-08-20T14:36:50Z</time>
      </trkpt>
      <trkpt lat="48.72992" lon="-0.62325">
        <ele>147</ele>
        <time>2014-08-20T14:36:51Z</time>
      </trkpt>
      <trkpt lat="48.7299" lon="-0.62328">
        <ele>147.4</ele>
        <time>2014-08-20T14:36:52Z</time>
      </trkpt>
      <trkpt lat="48.72957" lon="-0.62367">
        <ele>149.6</ele>
        <time>2014-08-20T14:37:04Z</time>
      </trkpt>
      <trkpt lat="48.72916" lon="-0.62414">
        <ele>150.6</ele>
        <time>2014-08-20T14:37:18Z</time>
      </trkpt>
      <trkpt lat="48.72872" lon="-0.62474">
        <ele>150.2</ele>
        <time>2014-08-20T14:37:34Z</time>
      </trkpt>
      <trkpt lat="48.72862" lon="-0.62515">
        <ele>150</ele>
        <time>2014-08-20T14:37:45Z</time>
      </trkpt>
      <trkpt lat="48.7284" lon="-0.62551">
        <ele>149.6</ele>
        <time>2014-08-20T14:37:55Z</time>
      </trkpt>
      <trkpt lat="48.72802" lon="-0.62584">
        <ele>147</ele>
        <time>2014-08-20T14:38:03Z</time>
      </trkpt>
      <trkpt lat="48.72791" lon="-0.62594">
        <ele>146.4</ele>
        <time>2014-08-20T14:38:05Z</time>
      </trkpt>
      <trkpt lat="48.7275" lon="-0.6263">
        <ele>143.6</ele>
        <time>2014-08-20T14:38:12Z</time>
      </trkpt>
      <trkpt lat="48.72747" lon="-0.62635">
        <ele>143.2</ele>
        <time>2014-08-20T14:38:13Z</time>
      </trkpt>
      <trkpt lat="48.72746" lon="-0.62641">
        <ele>142.8</ele>
        <time>2014-08-20T14:38:14Z</time>
      </trkpt>
      <trkpt lat="48.72747" lon="-0.62646">
        <ele>142.4</ele>
        <time>2014-08-20T14:38:15Z</time>
      </trkpt>
      <trkpt lat="48.72748" lon="-0.62651">
        <ele>142</ele>
        <time>2014-08-20T14:38:16Z</time>
      </trkpt>
      <trkpt lat="48.7277" lon="-0.62738">
        <ele>142.6</ele>
        <time>2014-08-20T14:38:30Z</time>
      </trkpt>
      <trkpt lat="48.72784" lon="-0.62816">
        <ele>145.8</ele>
        <time>2014-08-20T14:38:41Z</time>
      </trkpt>
      <trkpt lat="48.72793" lon="-0.62867">
        <ele>148.8</ele>
        <time>2014-08-20T14:38:48Z</time>
      </trkpt>
      <trkpt lat="48.72803" lon="-0.62917">
        <ele>152</ele>
        <time>2014-08-20T14:38:56Z</time>
      </trkpt>
      <trkpt lat="48.7281" lon="-0.62955">
        <ele>155.2</ele>
        <time>2014-08-20T14:39:03Z</time>
      </trkpt>
      <trkpt lat="48.72814" lon="-0.62986">
        <ele>157.8</ele>
        <time>2014-08-20T14:39:09Z</time>
      </trkpt>
      <trkpt lat="48.72823" lon="-0.63034">
        <ele>161</ele>
        <time>2014-08-20T14:39:18Z</time>
      </trkpt>
      <trkpt lat="48.72833" lon="-0.63091">
        <ele>164.2</ele>
        <time>2014-08-20T14:39:28Z</time>
      </trkpt>
      <trkpt lat="48.72844" lon="-0.63164">
        <ele>167.4</ele>
        <time>2014-08-20T14:39:39Z</time>
      </trkpt>
      <trkpt lat="48.72847" lon="-0.63197">
        <ele>168.2</ele>
        <time>2014-08-20T14:39:44Z</time>
      </trkpt>
      <trkpt lat="48.72847" lon="-0.63203">
        <ele>168.4</ele>
        <time>2014-08-20T14:39:45Z</time>
      </trkpt>
      <trkpt lat="48.72847" lon="-0.63209">
        <ele>168.4</ele>
        <time>2014-08-20T14:39:46Z</time>
      </trkpt>
      <trkpt lat="48.72847" lon="-0.63215">
        <ele>168.6</ele>
        <time>2014-08-20T14:39:47Z</time>
      </trkpt>
      <trkpt lat="48.72847" lon="-0.6322">
        <ele>168.8</ele>
        <time>2014-08-20T14:39:48Z</time>
      </trkpt>
      <trkpt lat="48.72848" lon="-0.63226">
        <ele>169</ele>
        <time>2014-08-20T14:39:49Z</time>
      </trkpt>
      <trkpt lat="48.72857" lon="-0.63332">
        <ele>171.2</ele>
        <time>2014-08-20T14:40:06Z</time>
      </trkpt>
      <trkpt lat="48.72856" lon="-0.63345">
        <ele>171.4</ele>
        <time>2014-08-20T14:40:08Z</time>
      </trkpt>
      <trkpt lat="48.72848" lon="-0.63382">
        <ele>172</ele>
        <time>2014-08-20T14:40:14Z</time>
      </trkpt>
      <trkpt lat="48.72848" lon="-0.63465">
        <ele>173.8</ele>
        <time>2014-08-20T14:40:27Z</time>
      </trkpt>
      <trkpt lat="48.72844" lon="-0.63499">
        <ele>174.6</ele>
        <time>2014-08-20T14:40:32Z</time>
      </trkpt>
      <trkpt lat="48.72849" lon="-0.63535">
        <ele>176.4</ele>
        <time>2014-08-20T14:40:38Z</time>
      </trkpt>
      <trkpt lat="48.72864" lon="-0.63597">
        <ele>180</ele>
        <time>2014-08-20T14:40:48Z</time>
      </trkpt>
      <trkpt lat="48.72867" lon="-0.63651">
        <ele>183.2</ele>
        <time>2014-08-20T14:40:57Z</time>
      </trkpt>
      <trkpt lat="48.72858" lon="-0.63726">
        <ele>186</ele>
        <time>2014-08-20T14:41:11Z</time>
      </trkpt>
      <trkpt lat="48.72849" lon="-0.63803">
        <ele>185.4</ele>
        <time>2014-08-20T14:41:24Z</time>
      </trkpt>
      <trkpt lat="48.72846" lon="-0.63826">
        <ele>185</ele>
        <time>2014-08-20T14:41:27Z</time>
      </trkpt>
      <trkpt lat="48.72848" lon="-0.63855">
        <ele>183.2</ele>
        <time>2014-08-20T14:41:31Z</time>
      </trkpt>
      <trkpt lat="48.72852" lon="-0.6387">
        <ele>182.6</ele>
        <time>2014-08-20T14:41:33Z</time>
      </trkpt>
      <trkpt lat="48.72864" lon="-0.63903">
        <ele>180.8</ele>
        <time>2014-08-20T14:41:38Z</time>
      </trkpt>
      <trkpt lat="48.7287" lon="-0.63966">
        <ele>180.2</ele>
        <time>2014-08-20T14:41:46Z</time>
      </trkpt>
      <trkpt lat="48.72869" lon="-0.63983">
        <ele>180.4</ele>
        <time>2014-08-20T14:41:48Z</time>
      </trkpt>
      <trkpt lat="48.72867" lon="-0.64006">
        <ele>181.2</ele>
        <time>2014-08-20T14:41:51Z</time>
      </trkpt>
      <trkpt lat="48.72854" lon="-0.64072">
        <ele>185</ele>
        <time>2014-08-20T14:42:00Z</time>
      </trkpt>
      <trkpt lat="48.7285" lon="-0.64114">
        <ele>187</ele>
        <time>2014-08-20T14:42:05Z</time>
      </trkpt>
      <trkpt lat="48.72853" lon="-0.64153">
        <ele>189.2</ele>
        <time>2014-08-20T14:42:11Z</time>
      </trkpt>
      <trkpt lat="48.72853" lon="-0.64235">
        <ele>192.4</ele>
        <time>2014-08-20T14:42:23Z</time>
      </trkpt>
      <trkpt lat="48.72847" lon="-0.64318">
        <ele>192.8</ele>
        <time>2014-08-20T14:42:36Z</time>
      </trkpt>
      <trkpt lat="48.72857" lon="-0.64381">
        <ele>193.4</ele>
        <time>2014-08-20T14:42:47Z</time>
      </trkpt>
      <trkpt lat="48.72871" lon="-0.64465">
        <ele>193.2</ele>
        <time>2014-08-20T14:43:00Z</time>
      </trkpt>
      <trkpt lat="48.72876" lon="-0.64487">
        <ele>193</ele>
        <time>2014-08-20T14:43:03Z</time>
      </trkpt>
      <trkpt lat="48.7289" lon="-0.64542">
        <ele>191.4</ele>
        <time>2014-08-20T14:43:15Z</time>
      </trkpt>
      <trkpt lat="48.729" lon="-0.64609">
        <ele>190</ele>
        <time>2014-08-20T14:43:27Z</time>
      </trkpt>
      <trkpt lat="48.72914" lon="-0.64659">
        <ele>187.8</ele>
        <time>2014-08-20T14:43:38Z</time>
      </trkpt>
      <trkpt lat="48.72914" lon="-0.64663">
        <ele>187.8</ele>
        <time>2014-08-20T14:43:39Z</time>
      </trkpt>
      <trkpt lat="48.72901" lon="-0.647">
        <ele>185.2</ele>
        <time>2014-08-20T14:43:49Z</time>
      </trkpt>
      <trkpt lat="48.7288" lon="-0.64733">
        <ele>183</ele>
        <time>2014-08-20T14:43:59Z</time>
      </trkpt>
      <trkpt lat="48.72853" lon="-0.64771">
        <ele>182.4</ele>
        <time>2014-08-20T14:44:10Z</time>
      </trkpt>
      <trkpt lat="48.72849" lon="-0.6478">
        <ele>182.8</ele>
        <time>2014-08-20T14:44:13Z</time>
      </trkpt>
      <trkpt lat="48.72841" lon="-0.64785">
        <ele>183.8</ele>
        <time>2014-08-20T14:44:17Z</time>
      </trkpt>
      <trkpt lat="48.72823" lon="-0.64781">
        <ele>183.6</ele>
        <time>2014-08-20T14:44:27Z</time>
      </trkpt>
      <trkpt lat="48.72821" lon="-0.6478">
        <ele>183.4</ele>
        <time>2014-08-20T14:44:28Z</time>
      </trkpt>
      <trkpt lat="48.72805" lon="-0.64781">
        <ele>182.8</ele>
        <time>2014-08-20T14:44:33Z</time>
      </trkpt>
      <trkpt lat="48.72767" lon="-0.64793">
        <ele>181.8</ele>
        <time>2014-08-20T14:44:44Z</time>
      </trkpt>
      <trkpt lat="48.72741" lon="-0.64808">
        <ele>183.6</ele>
        <time>2014-08-20T14:44:52Z</time>
      </trkpt>
      <trkpt lat="48.72721" lon="-0.64801">
        <ele>185</ele>
        <time>2014-08-20T14:45:00Z</time>
      </trkpt>
      <trkpt lat="48.72708" lon="-0.64798">
        <ele>185.4</ele>
        <time>2014-08-20T14:45:07Z</time>
      </trkpt>
      <trkpt lat="48.72662" lon="-0.64807">
        <ele>185.4</ele>
        <time>2014-08-20T14:45:21Z</time>
      </trkpt>
      <trkpt lat="48.72629" lon="-0.64816">
        <ele>186.8</ele>
        <time>2014-08-20T14:45:31Z</time>
      </trkpt>
      <trkpt lat="48.72605" lon="-0.64818">
        <ele>186.8</ele>
        <time>2014-08-20T14:45:37Z</time>
      </trkpt>
      <trkpt lat="48.72569" lon="-0.64826">
        <ele>187.2</ele>
        <time>2014-08-20T14:45:48Z</time>
      </trkpt>
      <trkpt lat="48.72559" lon="-0.64803">
        <ele>186.4</ele>
        <time>2014-08-20T14:45:55Z</time>
      </trkpt>
      <trkpt lat="48.72548" lon="-0.64769">
        <ele>186</ele>
        <time>2014-08-20T14:46:06Z</time>
      </trkpt>
      <trkpt lat="48.72546" lon="-0.64762">
        <ele>187.4</ele>
        <time>2014-08-20T14:46:12Z</time>
      </trkpt>
      <trkpt lat="48.72543" lon="-0.64759">
        <ele>188.6</ele>
        <time>2014-08-20T14:46:18Z</time>
      </trkpt>
      <trkpt lat="48.72538" lon="-0.64754">
        <ele>189.4</ele>
        <time>2014-08-20T14:46:23Z</time>
      </trkpt>
      <trkpt lat="48.72518" lon="-0.64736">
        <ele>191.6</ele>
        <time>2014-08-20T14:46:33Z</time>
      </trkpt>
      <trkpt lat="48.72507" lon="-0.64724">
        <ele>194.6</ele>
        <time>2014-08-20T14:46:46Z</time>
      </trkpt>
      <trkpt lat="48.72506" lon="-0.64723">
        <ele>194.8</ele>
        <time>2014-08-20T14:46:49Z</time>
      </trkpt>
      <trkpt lat="48.725" lon="-0.64715">
        <ele>195</ele>
        <time>2014-08-20T14:46:57Z</time>
      </trkpt>
      <trkpt lat="48.72475" lon="-0.64689">
        <ele>196.2</ele>
        <time>2014-08-20T14:47:09Z</time>
      </trkpt>
      <trkpt lat="48.72471" lon="-0.64676">
        <ele>197</ele>
        <time>2014-08-20T14:47:13Z</time>
      </trkpt>
      <trkpt lat="48.72469" lon="-0.64674">
        <ele>197.2</ele>
        <time>2014-08-20T14:47:14Z</time>
      </trkpt>
      <trkpt lat="48.72466" lon="-0.64672">
        <ele>197.6</ele>
        <time>2014-08-20T14:47:15Z</time>
      </trkpt>
      <trkpt lat="48.72424" lon="-0.64636">
        <ele>200.8</ele>
        <time>2014-08-20T14:47:31Z</time>
      </trkpt>
      <trkpt lat="48.72399" lon="-0.6461">
        <ele>203.8</ele>
        <time>2014-08-20T14:47:44Z</time>
      </trkpt>
      <trkpt lat="48.72367" lon="-0.64595">
        <ele>206</ele>
        <time>2014-08-20T14:47:55Z</time>
      </trkpt>
      <trkpt lat="48.72326" lon="-0.64576">
        <ele>207.2</ele>
        <time>2014-08-20T14:48:07Z</time>
      </trkpt>
      <trkpt lat="48.72259" lon="-0.64553">
        <ele>207</ele>
        <time>2014-08-20T14:48:22Z</time>
      </trkpt>
      <trkpt lat="48.72245" lon="-0.64557">
        <ele>207.2</ele>
        <time>2014-08-20T14:48:25Z</time>
      </trkpt>
      <trkpt lat="48.72241" lon="-0.64559">
        <ele>207.4</ele>
        <time>2014-08-20T14:48:26Z</time>
      </trkpt>
      <trkpt lat="48.72237" lon="-0.64562">
        <ele>207.4</ele>
        <time>2014-08-20T14:48:27Z</time>
      </trkpt>
      <trkpt lat="48.72234" lon="-0.64566">
        <ele>207.4</ele>
        <time>2014-08-20T14:48:28Z</time>
      </trkpt>
      <trkpt lat="48.72232" lon="-0.6457">
        <ele>207.6</ele>
        <time>2014-08-20T14:48:29Z</time>
      </trkpt>
      <trkpt lat="48.72229" lon="-0.64574">
        <ele>207.6</ele>
        <time>2014-08-20T14:48:30Z</time>
      </trkpt>
      <trkpt lat="48.72227" lon="-0.64579">
        <ele>207.8</ele>
        <time>2014-08-20T14:48:31Z</time>
      </trkpt>
      <trkpt lat="48.72225" lon="-0.64585">
        <ele>208</ele>
        <time>2014-08-20T14:48:32Z</time>
      </trkpt>
      <trkpt lat="48.72223" lon="-0.6459">
        <ele>208.4</ele>
        <time>2014-08-20T14:48:33Z</time>
      </trkpt>
      <trkpt lat="48.72195" lon="-0.6466">
        <ele>211.4</ele>
        <time>2014-08-20T14:48:47Z</time>
      </trkpt>
      <trkpt lat="48.72172" lon="-0.64696">
        <ele>212.6</ele>
        <time>2014-08-20T14:48:55Z</time>
      </trkpt>
      <trkpt lat="48.72168" lon="-0.64697">
        <ele>212.8</ele>
        <time>2014-08-20T14:48:56Z</time>
      </trkpt>
      <trkpt lat="48.72164" lon="-0.64699">
        <ele>212.8</ele>
        <time>2014-08-20T14:48:57Z</time>
      </trkpt>
      <trkpt lat="48.72159" lon="-0.647">
        <ele>212.8</ele>
        <time>2014-08-20T14:48:58Z</time>
      </trkpt>
      <trkpt lat="48.72154" lon="-0.647">
        <ele>213</ele>
        <time>2014-08-20T14:48:59Z</time>
      </trkpt>
      <trkpt lat="48.7215" lon="-0.647">
        <ele>213</ele>
        <time>2014-08-20T14:49:00Z</time>
      </trkpt>
      <trkpt lat="48.7214" lon="-0.64699">
        <ele>213</ele>
        <time>2014-08-20T14:49:02Z</time>
      </trkpt>
      <trkpt lat="48.72135" lon="-0.64699">
        <ele>213</ele>
        <time>2014-08-20T14:49:03Z</time>
      </trkpt>
      <trkpt lat="48.72115" lon="-0.64698">
        <ele>213</ele>
        <time>2014-08-20T14:49:07Z</time>
      </trkpt>
      <trkpt lat="48.72077" lon="-0.6471">
        <ele>213.4</ele>
        <time>2014-08-20T14:49:15Z</time>
      </trkpt>
      <trkpt lat="48.72036" lon="-0.64721">
        <ele>212.8</ele>
        <time>2014-08-20T14:49:23Z</time>
      </trkpt>
      <trkpt lat="48.72031" lon="-0.64721">
        <ele>212.8</ele>
        <time>2014-08-20T14:49:24Z</time>
      </trkpt>
      <trkpt lat="48.72025" lon="-0.64719">
        <ele>212.6</ele>
        <time>2014-08-20T14:49:25Z</time>
      </trkpt>
      <trkpt lat="48.7202" lon="-0.64716">
        <ele>212.6</ele>
        <time>2014-08-20T14:49:26Z</time>
      </trkpt>
      <trkpt lat="48.72015" lon="-0.64712">
        <ele>212.4</ele>
        <time>2014-08-20T14:49:27Z</time>
      </trkpt>
      <trkpt lat="48.72011" lon="-0.64708">
        <ele>212.2</ele>
        <time>2014-08-20T14:49:28Z</time>
      </trkpt>
      <trkpt lat="48.72006" lon="-0.64704">
        <ele>212.2</ele>
        <time>2014-08-20T14:49:29Z</time>
      </trkpt>
      <trkpt lat="48.71989" lon="-0.64682">
        <ele>211.6</ele>
        <time>2014-08-20T14:49:34Z</time>
      </trkpt>
      <trkpt lat="48.71989" lon="-0.64676">
        <ele>211.4</ele>
        <time>2014-08-20T14:49:35Z</time>
      </trkpt>
      <trkpt lat="48.71988" lon="-0.64669">
        <ele>211.2</ele>
        <time>2014-08-20T14:49:36Z</time>
      </trkpt>
      <trkpt lat="48.71988" lon="-0.64662">
        <ele>211.2</ele>
        <time>2014-08-20T14:49:37Z</time>
      </trkpt>
      <trkpt lat="48.71989" lon="-0.64656">
        <ele>211.2</ele>
        <time>2014-08-20T14:49:38Z</time>
      </trkpt>
      <trkpt lat="48.71979" lon="-0.64562">
        <ele>212.4</ele>
        <time>2014-08-20T14:49:51Z</time>
      </trkpt>
      <trkpt lat="48.71955" lon="-0.64427">
        <ele>211.4</ele>
        <time>2014-08-20T14:50:06Z</time>
      </trkpt>
      <trkpt lat="48.71942" lon="-0.64333">
        <ele>208.4</ele>
        <time>2014-08-20T14:50:14Z</time>
      </trkpt>
      <trkpt lat="48.71936" lon="-0.64255">
        <ele>205.2</ele>
        <time>2014-08-20T14:50:20Z</time>
      </trkpt>
      <trkpt lat="48.71937" lon="-0.64242">
        <ele>204.8</ele>
        <time>2014-08-20T14:50:21Z</time>
      </trkpt>
      <trkpt lat="48.71941" lon="-0.64191">
        <ele>203</ele>
        <time>2014-08-20T14:50:25Z</time>
      </trkpt>
      <trkpt lat="48.71941" lon="-0.64178">
        <ele>202.6</ele>
        <time>2014-08-20T14:50:26Z</time>
      </trkpt>
      <trkpt lat="48.71939" lon="-0.64165">
        <ele>202.2</ele>
        <time>2014-08-20T14:50:27Z</time>
      </trkpt>
      <trkpt lat="48.71936" lon="-0.64153">
        <ele>201.8</ele>
        <time>2014-08-20T14:50:28Z</time>
      </trkpt>
      <trkpt lat="48.71932" lon="-0.6414">
        <ele>201.4</ele>
        <time>2014-08-20T14:50:29Z</time>
      </trkpt>
      <trkpt lat="48.71927" lon="-0.64128">
        <ele>201</ele>
        <time>2014-08-20T14:50:30Z</time>
      </trkpt>
      <trkpt lat="48.71907" lon="-0.64056">
        <ele>197.8</ele>
        <time>2014-08-20T14:50:35Z</time>
      </trkpt>
      <trkpt lat="48.71901" lon="-0.6401">
        <ele>194.6</ele>
        <time>2014-08-20T14:50:38Z</time>
      </trkpt>
      <trkpt lat="48.71901" lon="-0.63994">
        <ele>193.8</ele>
        <time>2014-08-20T14:50:39Z</time>
      </trkpt>
      <trkpt lat="48.71902" lon="-0.63979">
        <ele>193.2</ele>
        <time>2014-08-20T14:50:40Z</time>
      </trkpt>
      <trkpt lat="48.71905" lon="-0.63964">
        <ele>192.6</ele>
        <time>2014-08-20T14:50:41Z</time>
      </trkpt>
      <trkpt lat="48.71909" lon="-0.63949">
        <ele>191.8</ele>
        <time>2014-08-20T14:50:42Z</time>
      </trkpt>
      <trkpt lat="48.71925" lon="-0.63892">
        <ele>188.8</ele>
        <time>2014-08-20T14:50:46Z</time>
      </trkpt>
      <trkpt lat="48.71946" lon="-0.63819">
        <ele>185.2</ele>
        <time>2014-08-20T14:50:51Z</time>
      </trkpt>
      <trkpt lat="48.7195" lon="-0.63805">
        <ele>184.6</ele>
        <time>2014-08-20T14:50:52Z</time>
      </trkpt>
      <trkpt lat="48.71953" lon="-0.6379">
        <ele>183.8</ele>
        <time>2014-08-20T14:50:53Z</time>
      </trkpt>
      <trkpt lat="48.71962" lon="-0.63744">
        <ele>181.6</ele>
        <time>2014-08-20T14:50:56Z</time>
      </trkpt>
      <trkpt lat="48.71966" lon="-0.6373">
        <ele>180.8</ele>
        <time>2014-08-20T14:50:57Z</time>
      </trkpt>
      <trkpt lat="48.71972" lon="-0.63717">
        <ele>180</ele>
        <time>2014-08-20T14:50:58Z</time>
      </trkpt>
      <trkpt lat="48.71984" lon="-0.63692">
        <ele>178.6</ele>
        <time>2014-08-20T14:51:00Z</time>
      </trkpt>
      <trkpt lat="48.72017" lon="-0.63624">
        <ele>175.4</ele>
        <time>2014-08-20T14:51:06Z</time>
      </trkpt>
      <trkpt lat="48.72074" lon="-0.63505">
        <ele>173.2</ele>
        <time>2014-08-20T14:51:18Z</time>
      </trkpt>
      <trkpt lat="48.72103" lon="-0.63382">
        <ele>172.8</ele>
        <time>2014-08-20T14:51:32Z</time>
      </trkpt>
      <trkpt lat="48.72107" lon="-0.63356">
        <ele>172.6</ele>
        <time>2014-08-20T14:51:35Z</time>
      </trkpt>
      <trkpt lat="48.72108" lon="-0.63347">
        <ele>172.4</ele>
        <time>2014-08-20T14:51:36Z</time>
      </trkpt>
      <trkpt lat="48.7213" lon="-0.63217">
        <ele>169</ele>
        <time>2014-08-20T14:51:50Z</time>
      </trkpt>
      <trkpt lat="48.7215" lon="-0.63115">
        <ele>165.6</ele>
        <time>2014-08-20T14:51:59Z</time>
      </trkpt>
      <trkpt lat="48.72165" lon="-0.63033">
        <ele>162.2</ele>
        <time>2014-08-20T14:52:05Z</time>
      </trkpt>
      <trkpt lat="48.72181" lon="-0.62959">
        <ele>158.6</ele>
        <time>2014-08-20T14:52:10Z</time>
      </trkpt>
      <trkpt lat="48.72197" lon="-0.62893">
        <ele>154.6</ele>
        <time>2014-08-20T14:52:14Z</time>
      </trkpt>
      <trkpt lat="48.72209" lon="-0.62861">
        <ele>150.8</ele>
        <time>2014-08-20T14:52:16Z</time>
      </trkpt>
      <trkpt lat="48.72224" lon="-0.62823">
        <ele>146.8</ele>
        <time>2014-08-20T14:52:19Z</time>
      </trkpt>
      <trkpt lat="48.72231" lon="-0.62805">
        <ele>144.8</ele>
        <time>2014-08-20T14:52:21Z</time>
      </trkpt>
      <trkpt lat="48.72231" lon="-0.62796">
        <ele>144</ele>
        <time>2014-08-20T14:52:22Z</time>
      </trkpt>
      <trkpt lat="48.72231" lon="-0.62789">
        <ele>143.6</ele>
        <time>2014-08-20T14:52:23Z</time>
      </trkpt>
      <trkpt lat="48.7223" lon="-0.62782">
        <ele>143.2</ele>
        <time>2014-08-20T14:52:24Z</time>
      </trkpt>
      <trkpt lat="48.72229" lon="-0.62775">
        <ele>143.2</ele>
        <time>2014-08-20T14:52:25Z</time>
      </trkpt>
      <trkpt lat="48.72228" lon="-0.62771">
        <ele>143</ele>
        <time>2014-08-20T14:52:26Z</time>
      </trkpt>
      <trkpt lat="48.72225" lon="-0.62767">
        <ele>143</ele>
        <time>2014-08-20T14:52:27Z</time>
      </trkpt>
      <trkpt lat="48.72223" lon="-0.62766">
        <ele>143.2</ele>
        <time>2014-08-20T14:52:28Z</time>
      </trkpt>
      <trkpt lat="48.7222" lon="-0.62766">
        <ele>143.2</ele>
        <time>2014-08-20T14:52:29Z</time>
      </trkpt>
      <trkpt lat="48.72217" lon="-0.62767">
        <ele>143.4</ele>
        <time>2014-08-20T14:52:30Z</time>
      </trkpt>
      <trkpt lat="48.7217" lon="-0.62781">
        <ele>146.4</ele>
        <time>2014-08-20T14:52:46Z</time>
      </trkpt>
      <trkpt lat="48.72125" lon="-0.62794">
        <ele>149.6</ele>
        <time>2014-08-20T14:53:01Z</time>
      </trkpt>
      <trkpt lat="48.72091" lon="-0.62804">
        <ele>152.8</ele>
        <time>2014-08-20T14:53:13Z</time>
      </trkpt>
      <trkpt lat="48.72052" lon="-0.62814">
        <ele>155.8</ele>
        <time>2014-08-20T14:53:28Z</time>
      </trkpt>
      <trkpt lat="48.72012" lon="-0.62827">
        <ele>158.8</ele>
        <time>2014-08-20T14:53:43Z</time>
      </trkpt>
      <trkpt lat="48.71977" lon="-0.62842">
        <ele>161.6</ele>
        <time>2014-08-20T14:53:56Z</time>
      </trkpt>
      <trkpt lat="48.71967" lon="-0.62838">
        <ele>162.2</ele>
        <time>2014-08-20T14:54:00Z</time>
      </trkpt>
      <trkpt lat="48.71965" lon="-0.62832">
        <ele>162.4</ele>
        <time>2014-08-20T14:54:02Z</time>
      </trkpt>
      <trkpt lat="48.71961" lon="-0.62822">
        <ele>162.4</ele>
        <time>2014-08-20T14:54:04Z</time>
      </trkpt>
      <trkpt lat="48.71957" lon="-0.6281">
        <ele>162.2</ele>
        <time>2014-08-20T14:54:06Z</time>
      </trkpt>
      <trkpt lat="48.71931" lon="-0.62778">
        <ele>158.6</ele>
        <time>2014-08-20T14:54:15Z</time>
      </trkpt>
      <trkpt lat="48.71911" lon="-0.6275">
        <ele>157.4</ele>
        <time>2014-08-20T14:54:25Z</time>
      </trkpt>
      <trkpt lat="48.71897" lon="-0.62724">
        <ele>157.4</ele>
        <time>2014-08-20T14:54:33Z</time>
      </trkpt>
      <trkpt lat="48.71891" lon="-0.62712">
        <ele>157.8</ele>
        <time>2014-08-20T14:54:36Z</time>
      </trkpt>
      <trkpt lat="48.71889" lon="-0.62708">
        <ele>157.8</ele>
        <time>2014-08-20T14:54:37Z</time>
      </trkpt>
      <trkpt lat="48.71886" lon="-0.62703">
        <ele>158</ele>
        <time>2014-08-20T14:54:38Z</time>
      </trkpt>
      <trkpt lat="48.71871" lon="-0.62674">
        <ele>158.8</ele>
        <time>2014-08-20T14:54:47Z</time>
      </trkpt>
      <trkpt lat="48.71871" lon="-0.6267">
        <ele>159</ele>
        <time>2014-08-20T14:54:48Z</time>
      </trkpt>
      <trkpt lat="48.71877" lon="-0.62615">
        <ele>159.2</ele>
        <time>2014-08-20T14:55:00Z</time>
      </trkpt>
      <trkpt lat="48.71878" lon="-0.62607">
        <ele>158.8</ele>
        <time>2014-08-20T14:55:02Z</time>
      </trkpt>
      <trkpt lat="48.71877" lon="-0.62601">
        <ele>158.8</ele>
        <time>2014-08-20T14:55:04Z</time>
      </trkpt>
      <trkpt lat="48.71874" lon="-0.626">
        <ele>158.8</ele>
        <time>2014-08-20T14:55:05Z</time>
      </trkpt>
      <trkpt lat="48.71871" lon="-0.62599">
        <ele>158.6</ele>
        <time>2014-08-20T14:55:06Z</time>
      </trkpt>
      <trkpt lat="48.71868" lon="-0.62599">
        <ele>158.6</ele>
        <time>2014-08-20T14:55:07Z</time>
      </trkpt>
      <trkpt lat="48.71864" lon="-0.626">
        <ele>158.6</ele>
        <time>2014-08-20T14:55:08Z</time>
      </trkpt>
      <trkpt lat="48.7184" lon="-0.626">
        <ele>159.4</ele>
        <time>2014-08-20T14:55:16Z</time>
      </trkpt>
      <trkpt lat="48.71837" lon="-0.62597">
        <ele>159.4</ele>
        <time>2014-08-20T14:55:17Z</time>
      </trkpt>
      <trkpt lat="48.71835" lon="-0.62594">
        <ele>159.6</ele>
        <time>2014-08-20T14:55:18Z</time>
      </trkpt>
      <trkpt lat="48.71833" lon="-0.6259">
        <ele>159.6</ele>
        <time>2014-08-20T14:55:19Z</time>
      </trkpt>
      <trkpt lat="48.71831" lon="-0.62587">
        <ele>159.6</ele>
        <time>2014-08-20T14:55:20Z</time>
      </trkpt>
      <trkpt lat="48.71828" lon="-0.62585">
        <ele>159.8</ele>
        <time>2014-08-20T14:55:21Z</time>
      </trkpt>
      <trkpt lat="48.71824" lon="-0.62584">
        <ele>159.8</ele>
        <time>2014-08-20T14:55:22Z</time>
      </trkpt>
      <trkpt lat="48.71821" lon="-0.62584">
        <ele>159.6</ele>
        <time>2014-08-20T14:55:23Z</time>
      </trkpt>
      <trkpt lat="48.71818" lon="-0.62585">
        <ele>159.6</ele>
        <time>2014-08-20T14:55:24Z</time>
      </trkpt>
      <trkpt lat="48.71816" lon="-0.62586">
        <ele>159.6</ele>
        <time>2014-08-20T14:55:25Z</time>
      </trkpt>
      <trkpt lat="48.71812" lon="-0.62587">
        <ele>159.6</ele>
        <time>2014-08-20T14:55:26Z</time>
      </trkpt>
      <trkpt lat="48.71809" lon="-0.62587">
        <ele>159.6</ele>
        <time>2014-08-20T14:55:27Z</time>
      </trkpt>
      <trkpt lat="48.71805" lon="-0.62585">
        <ele>159.8</ele>
        <time>2014-08-20T14:55:28Z</time>
      </trkpt>
      <trkpt lat="48.71801" lon="-0.62583">
        <ele>159.8</ele>
        <time>2014-08-20T14:55:29Z</time>
      </trkpt>
      <trkpt lat="48.71789" lon="-0.62579">
        <ele>160</ele>
        <time>2014-08-20T14:55:32Z</time>
      </trkpt>
      <trkpt lat="48.71764" lon="-0.62579">
        <ele>158.6</ele>
        <time>2014-08-20T14:55:41Z</time>
      </trkpt>
      <trkpt lat="48.71745" lon="-0.62542">
        <ele>158.8</ele>
        <time>2014-08-20T14:55:51Z</time>
      </trkpt>
      <trkpt lat="48.71722" lon="-0.62493">
        <ele>161.4</ele>
        <time>2014-08-20T14:56:02Z</time>
      </trkpt>
      <trkpt lat="48.71706" lon="-0.62448">
        <ele>164.6</ele>
        <time>2014-08-20T14:56:10Z</time>
      </trkpt>
      <trkpt lat="48.71698" lon="-0.62425">
        <ele>166</ele>
        <time>2014-08-20T14:56:14Z</time>
      </trkpt>
      <trkpt lat="48.71688" lon="-0.624">
        <ele>167.6</ele>
        <time>2014-08-20T14:56:18Z</time>
      </trkpt>
      <trkpt lat="48.71676" lon="-0.62365">
        <ele>171.6</ele>
        <time>2014-08-20T14:56:24Z</time>
      </trkpt>
      <trkpt lat="48.71665" lon="-0.62329">
        <ele>174.6</ele>
        <time>2014-08-20T14:56:30Z</time>
      </trkpt>
      <trkpt lat="48.71646" lon="-0.62323">
        <ele>177.2</ele>
        <time>2014-08-20T14:56:38Z</time>
      </trkpt>
      <trkpt lat="48.71609" lon="-0.62352">
        <ele>179</ele>
        <time>2014-08-20T14:56:48Z</time>
      </trkpt>
      <trkpt lat="48.71578" lon="-0.62372">
        <ele>182.2</ele>
        <time>2014-08-20T14:56:57Z</time>
      </trkpt>
      <trkpt lat="48.71544" lon="-0.62406">
        <ele>185.2</ele>
        <time>2014-08-20T14:57:06Z</time>
      </trkpt>
      <trkpt lat="48.71514" lon="-0.62436">
        <ele>186.4</ele>
        <time>2014-08-20T14:57:12Z</time>
      </trkpt>
      <trkpt lat="48.71509" lon="-0.62441">
        <ele>186.4</ele>
        <time>2014-08-20T14:57:13Z</time>
      </trkpt>
      <trkpt lat="48.71485" lon="-0.62464">
        <ele>187</ele>
        <time>2014-08-20T14:57:18Z</time>
      </trkpt>
      <trkpt lat="48.71445" lon="-0.62485">
        <ele>189.6</ele>
        <time>2014-08-20T14:57:29Z</time>
      </trkpt>
      <trkpt lat="48.71404" lon="-0.62509">
        <ele>190</ele>
        <time>2014-08-20T14:57:40Z</time>
      </trkpt>
      <trkpt lat="48.7136" lon="-0.62536">
        <ele>189.8</ele>
        <time>2014-08-20T14:57:52Z</time>
      </trkpt>
      <trkpt lat="48.71308" lon="-0.6257">
        <ele>190.2</ele>
        <time>2014-08-20T14:58:06Z</time>
      </trkpt>
      <trkpt lat="48.71258" lon="-0.62567">
        <ele>190.6</ele>
        <time>2014-08-20T14:58:21Z</time>
      </trkpt>
      <trkpt lat="48.71218" lon="-0.6255">
        <ele>193.2</ele>
        <time>2014-08-20T14:58:33Z</time>
      </trkpt>
      <trkpt lat="48.71181" lon="-0.62534">
        <ele>195.4</ele>
        <time>2014-08-20T14:58:47Z</time>
      </trkpt>
      <trkpt lat="48.71182" lon="-0.62534">
        <ele>196.2</ele>
        <time>2014-08-20T14:58:50Z</time>
      </trkpt>
      <trkpt lat="48.71178" lon="-0.62536">
        <ele>197</ele>
        <time>2014-08-20T14:59:03Z</time>
      </trkpt>
      <trkpt lat="48.71177" lon="-0.62539">
        <ele>197</ele>
        <time>2014-08-20T14:59:04Z</time>
      </trkpt>
      <trkpt lat="48.71177" lon="-0.62542">
        <ele>197.2</ele>
        <time>2014-08-20T14:59:05Z</time>
      </trkpt>
      <trkpt lat="48.71177" lon="-0.62546">
        <ele>197.2</ele>
        <time>2014-08-20T14:59:06Z</time>
      </trkpt>
      <trkpt lat="48.71177" lon="-0.62549">
        <ele>197.2</ele>
        <time>2014-08-20T14:59:07Z</time>
      </trkpt>
      <trkpt lat="48.71176" lon="-0.62553">
        <ele>197.4</ele>
        <time>2014-08-20T14:59:08Z</time>
      </trkpt>
      <trkpt lat="48.71176" lon="-0.62557">
        <ele>197.4</ele>
        <time>2014-08-20T14:59:09Z</time>
      </trkpt>
      <trkpt lat="48.71173" lon="-0.62634">
        <ele>200.2</ele>
        <time>2014-08-20T14:59:28Z</time>
      </trkpt>
      <trkpt lat="48.712" lon="-0.62683">
        <ele>201.8</ele>
        <time>2014-08-20T14:59:42Z</time>
      </trkpt>
      <trkpt lat="48.71245" lon="-0.62749">
        <ele>204.8</ele>
        <time>2014-08-20T15:00:02Z</time>
      </trkpt>
      <trkpt lat="48.71273" lon="-0.62824">
        <ele>207.8</ele>
        <time>2014-08-20T15:00:19Z</time>
      </trkpt>
      <trkpt lat="48.71277" lon="-0.62896">
        <ele>210.8</ele>
        <time>2014-08-20T15:00:34Z</time>
      </trkpt>
      <trkpt lat="48.71272" lon="-0.62912">
        <ele>211.4</ele>
        <time>2014-08-20T15:00:38Z</time>
      </trkpt>
      <trkpt lat="48.71269" lon="-0.62914">
        <ele>211.6</ele>
        <time>2014-08-20T15:00:39Z</time>
      </trkpt>
      <trkpt lat="48.71266" lon="-0.62914">
        <ele>211.6</ele>
        <time>2014-08-20T15:00:40Z</time>
      </trkpt>
      <trkpt lat="48.7121" lon="-0.6291">
        <ele>214.8</ele>
        <time>2014-08-20T15:00:56Z</time>
      </trkpt>
      <trkpt lat="48.71162" lon="-0.62919">
        <ele>218</ele>
        <time>2014-08-20T15:01:11Z</time>
      </trkpt>
      <trkpt lat="48.71139" lon="-0.62929">
        <ele>219.2</ele>
        <time>2014-08-20T15:01:25Z</time>
      </trkpt>
      <trkpt lat="48.71133" lon="-0.62921">
        <ele>220.2</ele>
        <time>2014-08-20T15:03:56Z</time>
      </trkpt>
      <trkpt lat="48.71132" lon="-0.6292">
        <ele>220.2</ele>
        <time>2014-08-20T15:03:57Z</time>
      </trkpt>
      <trkpt lat="48.7113" lon="-0.62919">
        <ele>220.2</ele>
        <time>2014-08-20T15:03:58Z</time>
      </trkpt>
      <trkpt lat="48.71128" lon="-0.62919">
        <ele>220.2</ele>
        <time>2014-08-20T15:03:59Z</time>
      </trkpt>
      <trkpt lat="48.71127" lon="-0.62918">
        <ele>220</ele>
        <time>2014-08-20T15:04:00Z</time>
      </trkpt>
      <trkpt lat="48.71125" lon="-0.62917">
        <ele>220</ele>
        <time>2014-08-20T15:04:01Z</time>
      </trkpt>
      <trkpt lat="48.71123" lon="-0.62917">
        <ele>220</ele>
        <time>2014-08-20T15:04:02Z</time>
      </trkpt>
      <trkpt lat="48.71121" lon="-0.62917">
        <ele>219.8</ele>
        <time>2014-08-20T15:04:03Z</time>
      </trkpt>
      <trkpt lat="48.7107" lon="-0.62931">
        <ele>218.4</ele>
        <time>2014-08-20T15:04:16Z</time>
      </trkpt>
      <trkpt lat="48.70991" lon="-0.62947">
        <ele>215.2</ele>
        <time>2014-08-20T15:04:30Z</time>
      </trkpt>
      <trkpt lat="48.70962" lon="-0.62955">
        <ele>214.4</ele>
        <time>2014-08-20T15:04:35Z</time>
      </trkpt>
      <trkpt lat="48.70905" lon="-0.62972">
        <ele>214.8</ele>
        <time>2014-08-20T15:04:46Z</time>
      </trkpt>
      <trkpt lat="48.70835" lon="-0.62993">
        <ele>217.8</ele>
        <time>2014-08-20T15:05:03Z</time>
      </trkpt>
      <trkpt lat="48.7076" lon="-0.63034">
        <ele>219</ele>
        <time>2014-08-20T15:05:21Z</time>
      </trkpt>
      <trkpt lat="48.7067" lon="-0.63107">
        <ele>215.8</ele>
        <time>2014-08-20T15:05:40Z</time>
      </trkpt>
      <trkpt lat="48.7061" lon="-0.63154">
        <ele>214.8</ele>
        <time>2014-08-20T15:05:51Z</time>
      </trkpt>
      <trkpt lat="48.70604" lon="-0.63157">
        <ele>214.6</ele>
        <time>2014-08-20T15:05:52Z</time>
      </trkpt>
      <trkpt lat="48.70599" lon="-0.63158">
        <ele>214.6</ele>
        <time>2014-08-20T15:05:53Z</time>
      </trkpt>
      <trkpt lat="48.70594" lon="-0.63158">
        <ele>214.6</ele>
        <time>2014-08-20T15:05:54Z</time>
      </trkpt>
      <trkpt lat="48.70589" lon="-0.63156">
        <ele>214.6</ele>
        <time>2014-08-20T15:05:55Z</time>
      </trkpt>
      <trkpt lat="48.70584" lon="-0.63154">
        <ele>214.8</ele>
        <time>2014-08-20T15:05:56Z</time>
      </trkpt>
      <trkpt lat="48.7058" lon="-0.6315">
        <ele>214.8</ele>
        <time>2014-08-20T15:05:57Z</time>
      </trkpt>
      <trkpt lat="48.70577" lon="-0.63146">
        <ele>215</ele>
        <time>2014-08-20T15:05:58Z</time>
      </trkpt>
      <trkpt lat="48.70574" lon="-0.63143">
        <ele>215</ele>
        <time>2014-08-20T15:05:59Z</time>
      </trkpt>
      <trkpt lat="48.70539" lon="-0.63106">
        <ele>218.4</ele>
        <time>2014-08-20T15:06:12Z</time>
      </trkpt>
      <trkpt lat="48.70505" lon="-0.63083">
        <ele>220.2</ele>
        <time>2014-08-20T15:06:22Z</time>
      </trkpt>
      <trkpt lat="48.70501" lon="-0.6308">
        <ele>220.4</ele>
        <time>2014-08-20T15:06:23Z</time>
      </trkpt>
      <trkpt lat="48.70497" lon="-0.63077">
        <ele>220.4</ele>
        <time>2014-08-20T15:06:24Z</time>
      </trkpt>
      <trkpt lat="48.70433" lon="-0.63038">
        <ele>222.6</ele>
        <time>2014-08-20T15:06:40Z</time>
      </trkpt>
      <trkpt lat="48.70378" lon="-0.63011">
        <ele>224.6</ele>
        <time>2014-08-20T15:06:56Z</time>
      </trkpt>
      <trkpt lat="48.70353" lon="-0.63007">
        <ele>224.4</ele>
        <time>2014-08-20T15:07:07Z</time>
      </trkpt>
      <trkpt lat="48.70351" lon="-0.63004">
        <ele>224.4</ele>
        <time>2014-08-20T15:07:08Z</time>
      </trkpt>
      <trkpt lat="48.7035" lon="-0.63">
        <ele>224.4</ele>
        <time>2014-08-20T15:07:09Z</time>
      </trkpt>
      <trkpt lat="48.70349" lon="-0.62995">
        <ele>224.4</ele>
        <time>2014-08-20T15:07:10Z</time>
      </trkpt>
      <trkpt lat="48.70347" lon="-0.6299">
        <ele>224.4</ele>
        <time>2014-08-20T15:07:11Z</time>
      </trkpt>
      <trkpt lat="48.7033" lon="-0.62936">
        <ele>223.6</ele>
        <time>2014-08-20T15:07:21Z</time>
      </trkpt>
      <trkpt lat="48.70321" lon="-0.62907">
        <ele>223.4</ele>
        <time>2014-08-20T15:07:26Z</time>
      </trkpt>
      <trkpt lat="48.70319" lon="-0.62902">
        <ele>223.4</ele>
        <time>2014-08-20T15:07:27Z</time>
      </trkpt>
      <trkpt lat="48.70317" lon="-0.62896">
        <ele>223.4</ele>
        <time>2014-08-20T15:07:28Z</time>
      </trkpt>
      <trkpt lat="48.70315" lon="-0.6289">
        <ele>223.4</ele>
        <time>2014-08-20T15:07:29Z</time>
      </trkpt>
      <trkpt lat="48.70313" lon="-0.62884">
        <ele>223.2</ele>
        <time>2014-08-20T15:07:30Z</time>
      </trkpt>
      <trkpt lat="48.70302" lon="-0.62856">
        <ele>223</ele>
        <time>2014-08-20T15:07:35Z</time>
      </trkpt>
      <trkpt lat="48.70296" lon="-0.62832">
        <ele>222.8</ele>
        <time>2014-08-20T15:07:39Z</time>
      </trkpt>
      <trkpt lat="48.7029" lon="-0.62815">
        <ele>222.8</ele>
        <time>2014-08-20T15:07:42Z</time>
      </trkpt>
      <trkpt lat="48.70283" lon="-0.62797">
        <ele>222.8</ele>
        <time>2014-08-20T15:07:45Z</time>
      </trkpt>
      <trkpt lat="48.70281" lon="-0.6279">
        <ele>222.8</ele>
        <time>2014-08-20T15:07:46Z</time>
      </trkpt>
      <trkpt lat="48.70279" lon="-0.62784">
        <ele>222.8</ele>
        <time>2014-08-20T15:07:47Z</time>
      </trkpt>
      <trkpt lat="48.70266" lon="-0.6274">
        <ele>222.4</ele>
        <time>2014-08-20T15:07:54Z</time>
      </trkpt>
      <trkpt lat="48.7025" lon="-0.62684">
        <ele>221.8</ele>
        <time>2014-08-20T15:08:03Z</time>
      </trkpt>
      <trkpt lat="48.70249" lon="-0.62678">
        <ele>221.8</ele>
        <time>2014-08-20T15:08:04Z</time>
      </trkpt>
      <trkpt lat="48.70246" lon="-0.62672">
        <ele>221.8</ele>
        <time>2014-08-20T15:08:05Z</time>
      </trkpt>
      <trkpt lat="48.70244" lon="-0.62666">
        <ele>221.6</ele>
        <time>2014-08-20T15:08:06Z</time>
      </trkpt>
      <trkpt lat="48.70242" lon="-0.6266">
        <ele>221.6</ele>
        <time>2014-08-20T15:08:07Z</time>
      </trkpt>
      <trkpt lat="48.7024" lon="-0.62654">
        <ele>221.6</ele>
        <time>2014-08-20T15:08:08Z</time>
      </trkpt>
      <trkpt lat="48.70235" lon="-0.62633">
        <ele>221.2</ele>
        <time>2014-08-20T15:08:11Z</time>
      </trkpt>
      <trkpt lat="48.70233" lon="-0.62626">
        <ele>221.2</ele>
        <time>2014-08-20T15:08:12Z</time>
      </trkpt>
      <trkpt lat="48.70225" lon="-0.62599">
        <ele>220.8</ele>
        <time>2014-08-20T15:08:16Z</time>
      </trkpt>
      <trkpt lat="48.70223" lon="-0.62593">
        <ele>220.6</ele>
        <time>2014-08-20T15:08:17Z</time>
      </trkpt>
      <trkpt lat="48.70221" lon="-0.62588">
        <ele>220.4</ele>
        <time>2014-08-20T15:08:18Z</time>
      </trkpt>
      <trkpt lat="48.70216" lon="-0.62576">
        <ele>220.4</ele>
        <time>2014-08-20T15:08:20Z</time>
      </trkpt>
      <trkpt lat="48.70214" lon="-0.62571">
        <ele>220.4</ele>
        <time>2014-08-20T15:08:21Z</time>
      </trkpt>
      <trkpt lat="48.70212" lon="-0.62565">
        <ele>220.2</ele>
        <time>2014-08-20T15:08:22Z</time>
      </trkpt>
      <trkpt lat="48.70177" lon="-0.6246">
        <ele>219.6</ele>
        <time>2014-08-20T15:08:38Z</time>
      </trkpt>
      <trkpt lat="48.70156" lon="-0.62394">
        <ele>219</ele>
        <time>2014-08-20T15:08:48Z</time>
      </trkpt>
      <trkpt lat="48.70154" lon="-0.62387">
        <ele>219</ele>
        <time>2014-08-20T15:08:49Z</time>
      </trkpt>
      <trkpt lat="48.70132" lon="-0.62317">
        <ele>218</ele>
        <time>2014-08-20T15:09:00Z</time>
      </trkpt>
      <trkpt lat="48.70125" lon="-0.62287">
        <ele>217.6</ele>
        <time>2014-08-20T15:09:05Z</time>
      </trkpt>
      <trkpt lat="48.70125" lon="-0.62281">
        <ele>217.4</ele>
        <time>2014-08-20T15:09:06Z</time>
      </trkpt>
      <trkpt lat="48.70126" lon="-0.62277">
        <ele>217.4</ele>
        <time>2014-08-20T15:09:07Z</time>
      </trkpt>
      <trkpt lat="48.70129" lon="-0.62274">
        <ele>217.2</ele>
        <time>2014-08-20T15:09:08Z</time>
      </trkpt>
      <trkpt lat="48.70167" lon="-0.62243">
        <ele>215.4</ele>
        <time>2014-08-20T15:09:21Z</time>
      </trkpt>
      <trkpt lat="48.70201" lon="-0.62217">
        <ele>213.6</ele>
        <time>2014-08-20T15:09:31Z</time>
      </trkpt>
      <trkpt lat="48.70237" lon="-0.6219">
        <ele>212</ele>
        <time>2014-08-20T15:09:42Z</time>
      </trkpt>
      <trkpt lat="48.70261" lon="-0.6217">
        <ele>211.4</ele>
        <time>2014-08-20T15:09:52Z</time>
      </trkpt>
      <trkpt lat="48.70289" lon="-0.62152">
        <ele>210.6</ele>
        <time>2014-08-20T15:10:02Z</time>
      </trkpt>
      <trkpt lat="48.70331" lon="-0.6212">
        <ele>209.2</ele>
        <time>2014-08-20T15:10:15Z</time>
      </trkpt>
      <trkpt lat="48.70345" lon="-0.62111">
        <ele>208.6</ele>
        <time>2014-08-20T15:10:18Z</time>
      </trkpt>
      <trkpt lat="48.70355" lon="-0.62104">
        <ele>208.2</ele>
        <time>2014-08-20T15:10:20Z</time>
      </trkpt>
      <trkpt lat="48.7037" lon="-0.62094">
        <ele>207</ele>
        <time>2014-08-20T15:10:23Z</time>
      </trkpt>
      <trkpt lat="48.70403" lon="-0.62071">
        <ele>203.6</ele>
        <time>2014-08-20T15:10:30Z</time>
      </trkpt>
      <trkpt lat="48.70413" lon="-0.62064">
        <ele>202.4</ele>
        <time>2014-08-20T15:10:32Z</time>
      </trkpt>
      <trkpt lat="48.70436" lon="-0.62045">
        <ele>198.4</ele>
        <time>2014-08-20T15:10:38Z</time>
      </trkpt>
      <trkpt lat="48.70452" lon="-0.62033">
        <ele>196</ele>
        <time>2014-08-20T15:10:42Z</time>
      </trkpt>
      <trkpt lat="48.70482" lon="-0.62011">
        <ele>193</ele>
        <time>2014-08-20T15:10:48Z</time>
      </trkpt>
      <trkpt lat="48.70499" lon="-0.61998">
        <ele>191</ele>
        <time>2014-08-20T15:10:52Z</time>
      </trkpt>
      <trkpt lat="48.70513" lon="-0.61989">
        <ele>189.6</ele>
        <time>2014-08-20T15:10:55Z</time>
      </trkpt>
      <trkpt lat="48.7054" lon="-0.61977">
        <ele>186.2</ele>
        <time>2014-08-20T15:11:02Z</time>
      </trkpt>
      <trkpt lat="48.70542" lon="-0.61978">
        <ele>185.4</ele>
        <time>2014-08-20T15:11:03Z</time>
      </trkpt>
      <trkpt lat="48.70544" lon="-0.61979">
        <ele>185.4</ele>
        <time>2014-08-20T15:11:04Z</time>
      </trkpt>
      <trkpt lat="48.70546" lon="-0.61979">
        <ele>184.8</ele>
        <time>2014-08-20T15:11:05Z</time>
      </trkpt>
      <trkpt lat="48.70549" lon="-0.61979">
        <ele>184.4</ele>
        <time>2014-08-20T15:11:06Z</time>
      </trkpt>
      <trkpt lat="48.70551" lon="-0.61978">
        <ele>184.2</ele>
        <time>2014-08-20T15:11:07Z</time>
      </trkpt>
      <trkpt lat="48.70553" lon="-0.61968">
        <ele>183.2</ele>
        <time>2014-08-20T15:11:11Z</time>
      </trkpt>
      <trkpt lat="48.70551" lon="-0.61965">
        <ele>183</ele>
        <time>2014-08-20T15:11:12Z</time>
      </trkpt>
      <trkpt lat="48.70548" lon="-0.61915">
        <ele>181.6</ele>
        <time>2014-08-20T15:11:23Z</time>
      </trkpt>
      <trkpt lat="48.70547" lon="-0.61858">
        <ele>180.6</ele>
        <time>2014-08-20T15:11:35Z</time>
      </trkpt>
      <trkpt lat="48.70549" lon="-0.61804">
        <ele>180.8</ele>
        <time>2014-08-20T15:11:48Z</time>
      </trkpt>
      <trkpt lat="48.7055" lon="-0.61754">
        <ele>180.4</ele>
        <time>2014-08-20T15:12:00Z</time>
      </trkpt>
      <trkpt lat="48.70561" lon="-0.61719">
        <ele>180.4</ele>
        <time>2014-08-20T15:12:10Z</time>
      </trkpt>
      <trkpt lat="48.70562" lon="-0.61712">
        <ele>180.6</ele>
        <time>2014-08-20T15:12:12Z</time>
      </trkpt>
      <trkpt lat="48.70567" lon="-0.61702">
        <ele>180.6</ele>
        <time>2014-08-20T15:12:17Z</time>
      </trkpt>
      <trkpt lat="48.70589" lon="-0.61642">
        <ele>180.8</ele>
        <time>2014-08-20T15:12:32Z</time>
      </trkpt>
      <trkpt lat="48.7061" lon="-0.61571">
        <ele>182</ele>
        <time>2014-08-20T15:12:48Z</time>
      </trkpt>
      <trkpt lat="48.70613" lon="-0.61546">
        <ele>183</ele>
        <time>2014-08-20T15:12:55Z</time>
      </trkpt>
      <trkpt lat="48.7061" lon="-0.61527">
        <ele>184</ele>
        <time>2014-08-20T15:13:02Z</time>
      </trkpt>
      <trkpt lat="48.70603" lon="-0.61501">
        <ele>184.4</ele>
        <time>2014-08-20T15:13:07Z</time>
      </trkpt>
      <trkpt lat="48.70587" lon="-0.61439">
        <ele>185.4</ele>
        <time>2014-08-20T15:13:17Z</time>
      </trkpt>
      <trkpt lat="48.7057" lon="-0.61381">
        <ele>186.8</ele>
        <time>2014-08-20T15:13:28Z</time>
      </trkpt>
      <trkpt lat="48.70568" lon="-0.61375">
        <ele>186.8</ele>
        <time>2014-08-20T15:13:29Z</time>
      </trkpt>
      <trkpt lat="48.70542" lon="-0.61294">
        <ele>184.2</ele>
        <time>2014-08-20T15:13:42Z</time>
      </trkpt>
      <trkpt lat="48.70531" lon="-0.61268">
        <ele>184.4</ele>
        <time>2014-08-20T15:13:53Z</time>
      </trkpt>
      <trkpt lat="48.7053" lon="-0.61267">
        <ele>184.6</ele>
        <time>2014-08-20T15:13:56Z</time>
      </trkpt>
      <trkpt lat="48.70526" lon="-0.61252">
        <ele>185</ele>
        <time>2014-08-20T15:14:15Z</time>
      </trkpt>
      <trkpt lat="48.70524" lon="-0.61246">
        <ele>185</ele>
        <time>2014-08-20T15:14:17Z</time>
      </trkpt>
      <trkpt lat="48.70514" lon="-0.61198">
        <ele>185</ele>
        <time>2014-08-20T15:14:31Z</time>
      </trkpt>
      <trkpt lat="48.70498" lon="-0.61147">
        <ele>185</ele>
        <time>2014-08-20T15:14:45Z</time>
      </trkpt>
      <trkpt lat="48.70484" lon="-0.61101">
        <ele>185</ele>
        <time>2014-08-20T15:14:57Z</time>
      </trkpt>
      <trkpt lat="48.70466" lon="-0.61047">
        <ele>185.2</ele>
        <time>2014-08-20T15:15:10Z</time>
      </trkpt>
      <trkpt lat="48.70449" lon="-0.60994">
        <ele>185.6</ele>
        <time>2014-08-20T15:15:25Z</time>
      </trkpt>
      <trkpt lat="48.70432" lon="-0.60941">
        <ele>184.6</ele>
        <time>2014-08-20T15:15:41Z</time>
      </trkpt>
      <trkpt lat="48.70431" lon="-0.6094">
        <ele>184.6</ele>
        <time>2014-08-20T15:15:42Z</time>
      </trkpt>
      <trkpt lat="48.70429" lon="-0.6094">
        <ele>184.6</ele>
        <time>2014-08-20T15:15:43Z</time>
      </trkpt>
      <trkpt lat="48.70387" lon="-0.60972">
        <ele>184.8</ele>
        <time>2014-08-20T15:15:55Z</time>
      </trkpt>
      <trkpt lat="48.70319" lon="-0.61022">
        <ele>188</ele>
        <time>2014-08-20T15:16:11Z</time>
      </trkpt>
      <trkpt lat="48.70289" lon="-0.61044">
        <ele>191.2</ele>
        <time>2014-08-20T15:16:20Z</time>
      </trkpt>
      <trkpt lat="48.70256" lon="-0.61066">
        <ele>194.6</ele>
        <time>2014-08-20T15:16:31Z</time>
      </trkpt>
      <trkpt lat="48.70227" lon="-0.61086">
        <ele>197.6</ele>
        <time>2014-08-20T15:16:41Z</time>
      </trkpt>
      <trkpt lat="48.70196" lon="-0.6111">
        <ele>201</ele>
        <time>2014-08-20T15:16:52Z</time>
      </trkpt>
      <trkpt lat="48.70171" lon="-0.61127">
        <ele>203.6</ele>
        <time>2014-08-20T15:17:01Z</time>
      </trkpt>
      <trkpt lat="48.70137" lon="-0.61143">
        <ele>206.8</ele>
        <time>2014-08-20T15:17:13Z</time>
      </trkpt>
      <trkpt lat="48.70135" lon="-0.61141">
        <ele>207</ele>
        <time>2014-08-20T15:17:14Z</time>
      </trkpt>
      <trkpt lat="48.70133" lon="-0.61135">
        <ele>207.6</ele>
        <time>2014-08-20T15:17:17Z</time>
      </trkpt>
      <trkpt lat="48.70116" lon="-0.61089">
        <ele>208</ele>
        <time>2014-08-20T15:17:32Z</time>
      </trkpt>
      <trkpt lat="48.70102" lon="-0.6105">
        <ele>206.8</ele>
        <time>2014-08-20T15:17:44Z</time>
      </trkpt>
      <trkpt lat="48.70093" lon="-0.61024">
        <ele>205.8</ele>
        <time>2014-08-20T15:17:51Z</time>
      </trkpt>
      <trkpt lat="48.70084" lon="-0.60997">
        <ele>205.4</ele>
        <time>2014-08-20T15:17:59Z</time>
      </trkpt>
      <trkpt lat="48.70062" lon="-0.60934">
        <ele>204.6</ele>
        <time>2014-08-20T15:18:15Z</time>
      </trkpt>
      <trkpt lat="48.70057" lon="-0.60917">
        <ele>204.2</ele>
        <time>2014-08-20T15:18:20Z</time>
      </trkpt>
      <trkpt lat="48.7005" lon="-0.60895">
        <ele>204</ele>
        <time>2014-08-20T15:18:27Z</time>
      </trkpt>
      <trkpt lat="48.70042" lon="-0.6088">
        <ele>203.8</ele>
        <time>2014-08-20T15:18:38Z</time>
      </trkpt>
      <trkpt lat="48.70039" lon="-0.60859">
        <ele>203.8</ele>
        <time>2014-08-20T15:18:52Z</time>
      </trkpt>
      <trkpt lat="48.70036" lon="-0.60843">
        <ele>203.8</ele>
        <time>2014-08-20T15:19:06Z</time>
      </trkpt>
      <trkpt lat="48.70017" lon="-0.60791">
        <ele>203.6</ele>
        <time>2014-08-20T15:19:50Z</time>
      </trkpt>
      <trkpt lat="48.70016" lon="-0.6079">
        <ele>203.6</ele>
        <time>2014-08-20T15:19:51Z</time>
      </trkpt>
      <trkpt lat="48.70013" lon="-0.60779">
        <ele>203.6</ele>
        <time>2014-08-20T15:19:56Z</time>
      </trkpt>
      <trkpt lat="48.70001" lon="-0.60734">
        <ele>203</ele>
        <time>2014-08-20T15:20:11Z</time>
      </trkpt>
      <trkpt lat="48.69996" lon="-0.60717">
        <ele>202.6</ele>
        <time>2014-08-20T15:20:18Z</time>
      </trkpt>
      <trkpt lat="48.69996" lon="-0.60713">
        <ele>202.4</ele>
        <time>2014-08-20T15:20:21Z</time>
      </trkpt>
      <trkpt lat="48.69999" lon="-0.60711">
        <ele>201.6</ele>
        <time>2014-08-20T15:20:30Z</time>
      </trkpt>
      <trkpt lat="48.69988" lon="-0.60705">
        <ele>201.6</ele>
        <time>2014-08-20T15:20:38Z</time>
      </trkpt>
      <trkpt lat="48.69973" lon="-0.60662">
        <ele>200.2</ele>
        <time>2014-08-20T15:20:50Z</time>
      </trkpt>
      <trkpt lat="48.69957" lon="-0.60621">
        <ele>197.8</ele>
        <time>2014-08-20T15:21:00Z</time>
      </trkpt>
      <trkpt lat="48.69943" lon="-0.60578">
        <ele>196.8</ele>
        <time>2014-08-20T15:21:10Z</time>
      </trkpt>
      <trkpt lat="48.69927" lon="-0.60521">
        <ele>195.4</ele>
        <time>2014-08-20T15:21:21Z</time>
      </trkpt>
      <trkpt lat="48.69911" lon="-0.60474">
        <ele>196</ele>
        <time>2014-08-20T15:21:33Z</time>
      </trkpt>
      <trkpt lat="48.6991" lon="-0.6047">
        <ele>196</ele>
        <time>2014-08-20T15:21:34Z</time>
      </trkpt>
      <trkpt lat="48.69902" lon="-0.60446">
        <ele>196.6</ele>
        <time>2014-08-20T15:21:42Z</time>
      </trkpt>
      <trkpt lat="48.69874" lon="-0.60375">
        <ele>198</ele>
        <time>2014-08-20T15:21:57Z</time>
      </trkpt>
      <trkpt lat="48.69855" lon="-0.60321">
        <ele>199.4</ele>
        <time>2014-08-20T15:22:09Z</time>
      </trkpt>
      <trkpt lat="48.69846" lon="-0.60294">
        <ele>200.2</ele>
        <time>2014-08-20T15:22:17Z</time>
      </trkpt>
      <trkpt lat="48.69832" lon="-0.60293">
        <ele>201</ele>
        <time>2014-08-20T15:22:26Z</time>
      </trkpt>
      <trkpt lat="48.69798" lon="-0.60312">
        <ele>203.2</ele>
        <time>2014-08-20T15:22:37Z</time>
      </trkpt>
      <trkpt lat="48.69767" lon="-0.60333">
        <ele>206</ele>
        <time>2014-08-20T15:22:48Z</time>
      </trkpt>
      <trkpt lat="48.69731" lon="-0.60357">
        <ele>208.8</ele>
        <time>2014-08-20T15:23:01Z</time>
      </trkpt>
      <trkpt lat="48.69714" lon="-0.60367">
        <ele>210.2</ele>
        <time>2014-08-20T15:23:13Z</time>
      </trkpt>
      <trkpt lat="48.69689" lon="-0.60383">
        <ele>210.6</ele>
        <time>2014-08-20T15:23:27Z</time>
      </trkpt>
      <trkpt lat="48.69667" lon="-0.60399">
        <ele>210.8</ele>
        <time>2014-08-20T15:23:40Z</time>
      </trkpt>
      <trkpt lat="48.69649" lon="-0.6041">
        <ele>210.8</ele>
        <time>2014-08-20T15:23:49Z</time>
      </trkpt>
      <trkpt lat="48.69642" lon="-0.60414">
        <ele>210.8</ele>
        <time>2014-08-20T15:23:53Z</time>
      </trkpt>
      <trkpt lat="48.69623" lon="-0.60426">
        <ele>210.4</ele>
        <time>2014-08-20T15:24:04Z</time>
      </trkpt>
      <trkpt lat="48.69616" lon="-0.60431">
        <ele>210</ele>
        <time>2014-08-20T15:24:11Z</time>
      </trkpt>
      <trkpt lat="48.6955" lon="-0.60479">
        <ele>209.4</ele>
        <time>2014-08-20T15:25:42Z</time>
      </trkpt>
      <trkpt lat="48.69522" lon="-0.60499">
        <ele>208.2</ele>
        <time>2014-08-20T15:25:55Z</time>
      </trkpt>
      <trkpt lat="48.69502" lon="-0.60515">
        <ele>207.4</ele>
        <time>2014-08-20T15:26:05Z</time>
      </trkpt>
      <trkpt lat="48.69473" lon="-0.60534">
        <ele>205.6</ele>
        <time>2014-08-20T15:26:16Z</time>
      </trkpt>
      <trkpt lat="48.69449" lon="-0.60555">
        <ele>204.6</ele>
        <time>2014-08-20T15:26:28Z</time>
      </trkpt>
      <trkpt lat="48.69418" lon="-0.60579">
        <ele>203</ele>
        <time>2014-08-20T15:26:40Z</time>
      </trkpt>
      <trkpt lat="48.69394" lon="-0.60596">
        <ele>201.2</ele>
        <time>2014-08-20T15:26:52Z</time>
      </trkpt>
      <trkpt lat="48.69367" lon="-0.60614">
        <ele>199.8</ele>
        <time>2014-08-20T15:27:03Z</time>
      </trkpt>
      <trkpt lat="48.69338" lon="-0.60639">
        <ele>198.2</ele>
        <time>2014-08-20T15:27:15Z</time>
      </trkpt>
      <trkpt lat="48.69307" lon="-0.60661">
        <ele>196.8</ele>
        <time>2014-08-20T15:27:27Z</time>
      </trkpt>
      <trkpt lat="48.69278" lon="-0.6068">
        <ele>194.8</ele>
        <time>2014-08-20T15:27:39Z</time>
      </trkpt>
      <trkpt lat="48.69248" lon="-0.607">
        <ele>192.8</ele>
        <time>2014-08-20T15:27:53Z</time>
      </trkpt>
      <trkpt lat="48.69227" lon="-0.60717">
        <ele>191.6</ele>
        <time>2014-08-20T15:28:05Z</time>
      </trkpt>
      <trkpt lat="48.69226" lon="-0.60717">
        <ele>191.6</ele>
        <time>2014-08-20T15:28:06Z</time>
      </trkpt>
      <trkpt lat="48.69199" lon="-0.6074">
        <ele>190.2</ele>
        <time>2014-08-20T15:28:20Z</time>
      </trkpt>
      <trkpt lat="48.6917" lon="-0.60764">
        <ele>189.4</ele>
        <time>2014-08-20T15:28:34Z</time>
      </trkpt>
      <trkpt lat="48.69157" lon="-0.60773">
        <ele>189</ele>
        <time>2014-08-20T15:28:46Z</time>
      </trkpt>
      <trkpt lat="48.69134" lon="-0.60782">
        <ele>188.8</ele>
        <time>2014-08-20T15:29:21Z</time>
      </trkpt>
      <trkpt lat="48.6911" lon="-0.60802">
        <ele>188.6</ele>
        <time>2014-08-20T15:29:33Z</time>
      </trkpt>
      <trkpt lat="48.69082" lon="-0.60818">
        <ele>188.2</ele>
        <time>2014-08-20T15:29:44Z</time>
      </trkpt>
      <trkpt lat="48.69067" lon="-0.60832">
        <ele>188</ele>
        <time>2014-08-20T15:29:50Z</time>
      </trkpt>
      <trkpt lat="48.6905" lon="-0.60845">
        <ele>187.8</ele>
        <time>2014-08-20T15:29:55Z</time>
      </trkpt>
      <trkpt lat="48.69009" lon="-0.60874">
        <ele>185.2</ele>
        <time>2014-08-20T15:30:09Z</time>
      </trkpt>
      <trkpt lat="48.6899" lon="-0.60888">
        <ele>184.2</ele>
        <time>2014-08-20T15:30:19Z</time>
      </trkpt>
      <trkpt lat="48.68963" lon="-0.60909">
        <ele>184.2</ele>
        <time>2014-08-20T15:30:30Z</time>
      </trkpt>
      <trkpt lat="48.68936" lon="-0.60908">
        <ele>185.6</ele>
        <time>2014-08-20T15:30:40Z</time>
      </trkpt>
      <trkpt lat="48.68927" lon="-0.60914">
        <ele>185.6</ele>
        <time>2014-08-20T15:30:44Z</time>
      </trkpt>
      <trkpt lat="48.68908" lon="-0.60941">
        <ele>185.8</ele>
        <time>2014-08-20T15:30:54Z</time>
      </trkpt>
      <trkpt lat="48.68878" lon="-0.60961">
        <ele>186.2</ele>
        <time>2014-08-20T15:31:05Z</time>
      </trkpt>
      <trkpt lat="48.68865" lon="-0.60969">
        <ele>186.6</ele>
        <time>2014-08-20T15:31:11Z</time>
      </trkpt>
      <trkpt lat="48.68862" lon="-0.60974">
        <ele>186.8</ele>
        <time>2014-08-20T15:31:13Z</time>
      </trkpt>
      <trkpt lat="48.68852" lon="-0.60982">
        <ele>187.2</ele>
        <time>2014-08-20T15:31:16Z</time>
      </trkpt>
      <trkpt lat="48.68821" lon="-0.61001">
        <ele>187.8</ele>
        <time>2014-08-20T15:31:26Z</time>
      </trkpt>
      <trkpt lat="48.68799" lon="-0.61022">
        <ele>188.6</ele>
        <time>2014-08-20T15:31:35Z</time>
      </trkpt>
      <trkpt lat="48.68774" lon="-0.61049">
        <ele>189.4</ele>
        <time>2014-08-20T15:31:45Z</time>
      </trkpt>
      <trkpt lat="48.68764" lon="-0.61066">
        <ele>192</ele>
        <time>2014-08-20T15:31:56Z</time>
      </trkpt>
      <trkpt lat="48.6874" lon="-0.61081">
        <ele>193.6</ele>
        <time>2014-08-20T15:32:05Z</time>
      </trkpt>
      <trkpt lat="48.68716" lon="-0.6109">
        <ele>194.4</ele>
        <time>2014-08-20T15:32:14Z</time>
      </trkpt>
      <trkpt lat="48.68714" lon="-0.61093">
        <ele>195.2</ele>
        <time>2014-08-20T15:32:16Z</time>
      </trkpt>
      <trkpt lat="48.68708" lon="-0.6109">
        <ele>196.2</ele>
        <time>2014-08-20T15:32:20Z</time>
      </trkpt>
      <trkpt lat="48.68707" lon="-0.61087">
        <ele>196.2</ele>
        <time>2014-08-20T15:32:21Z</time>
      </trkpt>
      <trkpt lat="48.68705" lon="-0.61083">
        <ele>196.2</ele>
        <time>2014-08-20T15:32:22Z</time>
      </trkpt>
      <trkpt lat="48.68703" lon="-0.6108">
        <ele>196.2</ele>
        <time>2014-08-20T15:32:23Z</time>
      </trkpt>
      <trkpt lat="48.68702" lon="-0.61076">
        <ele>196.2</ele>
        <time>2014-08-20T15:32:24Z</time>
      </trkpt>
      <trkpt lat="48.687" lon="-0.61072">
        <ele>196.2</ele>
        <time>2014-08-20T15:32:25Z</time>
      </trkpt>
      <trkpt lat="48.68698" lon="-0.61067">
        <ele>196</ele>
        <time>2014-08-20T15:32:26Z</time>
      </trkpt>
      <trkpt lat="48.68696" lon="-0.61063">
        <ele>195.8</ele>
        <time>2014-08-20T15:32:27Z</time>
      </trkpt>
      <trkpt lat="48.68694" lon="-0.61058">
        <ele>195.8</ele>
        <time>2014-08-20T15:32:28Z</time>
      </trkpt>
      <trkpt lat="48.68692" lon="-0.61053">
        <ele>195.6</ele>
        <time>2014-08-20T15:32:29Z</time>
      </trkpt>
      <trkpt lat="48.68674" lon="-0.6102">
        <ele>194.6</ele>
        <time>2014-08-20T15:32:36Z</time>
      </trkpt>
      <trkpt lat="48.68667" lon="-0.6101">
        <ele>194.4</ele>
        <time>2014-08-20T15:32:38Z</time>
      </trkpt>
      <trkpt lat="48.68665" lon="-0.61004">
        <ele>194</ele>
        <time>2014-08-20T15:32:39Z</time>
      </trkpt>
      <trkpt lat="48.68653" lon="-0.60971">
        <ele>192.2</ele>
        <time>2014-08-20T15:32:46Z</time>
      </trkpt>
      <trkpt lat="48.68653" lon="-0.60922">
        <ele>190.2</ele>
        <time>2014-08-20T15:32:56Z</time>
      </trkpt>
      <trkpt lat="48.68644" lon="-0.60874">
        <ele>186.8</ele>
        <time>2014-08-20T15:33:05Z</time>
      </trkpt>
      <trkpt lat="48.68638" lon="-0.60836">
        <ele>183.8</ele>
        <time>2014-08-20T15:33:13Z</time>
      </trkpt>
      <trkpt lat="48.68635" lon="-0.60823">
        <ele>182.6</ele>
        <time>2014-08-20T15:33:16Z</time>
      </trkpt>
      <trkpt lat="48.68628" lon="-0.60788">
        <ele>179</ele>
        <time>2014-08-20T15:33:25Z</time>
      </trkpt>
      <trkpt lat="48.68627" lon="-0.60764">
        <ele>176</ele>
        <time>2014-08-20T15:33:35Z</time>
      </trkpt>
      <trkpt lat="48.68623" lon="-0.60749">
        <ele>175.2</ele>
        <time>2014-08-20T15:33:49Z</time>
      </trkpt>
      <trkpt lat="48.68615" lon="-0.60745">
        <ele>174.8</ele>
        <time>2014-08-20T15:33:53Z</time>
      </trkpt>
      <trkpt lat="48.68611" lon="-0.60742">
        <ele>174.4</ele>
        <time>2014-08-20T15:33:55Z</time>
      </trkpt>
      <trkpt lat="48.68601" lon="-0.60732">
        <ele>173.2</ele>
        <time>2014-08-20T15:34:00Z</time>
      </trkpt>
      <trkpt lat="48.68594" lon="-0.60729">
        <ele>172</ele>
        <time>2014-08-20T15:34:05Z</time>
      </trkpt>
      <trkpt lat="48.68582" lon="-0.60725">
        <ele>170.6</ele>
        <time>2014-08-20T15:34:16Z</time>
      </trkpt>
      <trkpt lat="48.68581" lon="-0.60718">
        <ele>170.2</ele>
        <time>2014-08-20T15:34:21Z</time>
      </trkpt>
      <trkpt lat="48.68581" lon="-0.60713">
        <ele>170.2</ele>
        <time>2014-08-20T15:34:23Z</time>
      </trkpt>
      <trkpt lat="48.68583" lon="-0.60711">
        <ele>170</ele>
        <time>2014-08-20T15:34:25Z</time>
      </trkpt>
      <trkpt lat="48.68589" lon="-0.60703">
        <ele>169.8</ele>
        <time>2014-08-20T15:34:32Z</time>
      </trkpt>
      <trkpt lat="48.68596" lon="-0.6069">
        <ele>169.8</ele>
        <time>2014-08-20T15:34:43Z</time>
      </trkpt>
      <trkpt lat="48.6861" lon="-0.60744">
        <ele>172.4</ele>
        <time>2014-08-20T15:36:01Z</time>
      </trkpt>
      <trkpt lat="48.68612" lon="-0.60745">
        <ele>172.6</ele>
        <time>2014-08-20T15:36:02Z</time>
      </trkpt>
      <trkpt lat="48.68624" lon="-0.60734">
        <ele>173.8</ele>
        <time>2014-08-20T15:36:12Z</time>
      </trkpt>
      <trkpt lat="48.68623" lon="-0.60731">
        <ele>173.8</ele>
        <time>2014-08-20T15:36:13Z</time>
      </trkpt>
      <trkpt lat="48.68621" lon="-0.60707">
        <ele>172.4</ele>
        <time>2014-08-20T15:36:21Z</time>
      </trkpt>
      <trkpt lat="48.68608" lon="-0.60655">
        <ele>169.6</ele>
        <time>2014-08-20T15:36:32Z</time>
      </trkpt>
      <trkpt lat="48.68587" lon="-0.60618">
        <ele>167</ele>
        <time>2014-08-20T15:36:42Z</time>
      </trkpt>
      <trkpt lat="48.68565" lon="-0.60592">
        <ele>164</ele>
        <time>2014-08-20T15:36:52Z</time>
      </trkpt>
      <trkpt lat="48.68531" lon="-0.60561">
        <ele>161</ele>
        <time>2014-08-20T15:37:04Z</time>
      </trkpt>
      <trkpt lat="48.68506" lon="-0.60544">
        <ele>159</ele>
        <time>2014-08-20T15:37:13Z</time>
      </trkpt>
      <trkpt lat="48.68479" lon="-0.60521">
        <ele>157.6</ele>
        <time>2014-08-20T15:37:23Z</time>
      </trkpt>
      <trkpt lat="48.68458" lon="-0.60496">
        <ele>156.8</ele>
        <time>2014-08-20T15:37:33Z</time>
      </trkpt>
      <trkpt lat="48.68441" lon="-0.6046">
        <ele>156.6</ele>
        <time>2014-08-20T15:37:43Z</time>
      </trkpt>
      <trkpt lat="48.68425" lon="-0.60411">
        <ele>156.8</ele>
        <time>2014-08-20T15:37:55Z</time>
      </trkpt>
      <trkpt lat="48.68412" lon="-0.60357">
        <ele>156.4</ele>
        <time>2014-08-20T15:38:08Z</time>
      </trkpt>
      <trkpt lat="48.68402" lon="-0.60319">
        <ele>156.6</ele>
        <time>2014-08-20T15:38:17Z</time>
      </trkpt>
      <trkpt lat="48.68392" lon="-0.60278">
        <ele>157</ele>
        <time>2014-08-20T15:38:29Z</time>
      </trkpt>
      <trkpt lat="48.68362" lon="-0.60268">
        <ele>155.8</ele>
        <time>2014-08-20T15:38:39Z</time>
      </trkpt>
      <trkpt lat="48.68339" lon="-0.60265">
        <ele>155.6</ele>
        <time>2014-08-20T15:38:44Z</time>
      </trkpt>
      <trkpt lat="48.68333" lon="-0.60247">
        <ele>156.4</ele>
        <time>2014-08-20T15:38:48Z</time>
      </trkpt>
      <trkpt lat="48.68337" lon="-0.6021">
        <ele>158</ele>
        <time>2014-08-20T15:38:54Z</time>
      </trkpt>
      <trkpt lat="48.68338" lon="-0.60181">
        <ele>159.2</ele>
        <time>2014-08-20T15:38:58Z</time>
      </trkpt>
      <trkpt lat="48.68344" lon="-0.60121">
        <ele>161.4</ele>
        <time>2014-08-20T15:39:08Z</time>
      </trkpt>
      <trkpt lat="48.68346" lon="-0.60098">
        <ele>162.2</ele>
        <time>2014-08-20T15:39:11Z</time>
      </trkpt>
      <trkpt lat="48.6834" lon="-0.60063">
        <ele>163.4</ele>
        <time>2014-08-20T15:39:16Z</time>
      </trkpt>
      <trkpt lat="48.68326" lon="-0.6004">
        <ele>167</ele>
        <time>2014-08-20T15:39:22Z</time>
      </trkpt>
      <trkpt lat="48.68309" lon="-0.60014">
        <ele>170.2</ele>
        <time>2014-08-20T15:39:28Z</time>
      </trkpt>
      <trkpt lat="48.68285" lon="-0.59969">
        <ele>171.6</ele>
        <time>2014-08-20T15:39:42Z</time>
      </trkpt>
      <trkpt lat="48.68279" lon="-0.59954">
        <ele>171.4</ele>
        <time>2014-08-20T15:39:48Z</time>
      </trkpt>
      <trkpt lat="48.68279" lon="-0.59949">
        <ele>171.4</ele>
        <time>2014-08-20T15:39:50Z</time>
      </trkpt>
      <trkpt lat="48.6828" lon="-0.59945">
        <ele>171.2</ele>
        <time>2014-08-20T15:39:51Z</time>
      </trkpt>
      <trkpt lat="48.68281" lon="-0.59943">
        <ele>171.2</ele>
        <time>2014-08-20T15:39:52Z</time>
      </trkpt>
      <trkpt lat="48.68283" lon="-0.59941">
        <ele>171.2</ele>
        <time>2014-08-20T15:39:53Z</time>
      </trkpt>
      <trkpt lat="48.68285" lon="-0.5994">
        <ele>171</ele>
        <time>2014-08-20T15:39:54Z</time>
      </trkpt>
      <trkpt lat="48.68287" lon="-0.59939">
        <ele>171</ele>
        <time>2014-08-20T15:39:55Z</time>
      </trkpt>
      <trkpt lat="48.68315" lon="-0.59918">
        <ele>171</ele>
        <time>2014-08-20T15:40:11Z</time>
      </trkpt>
      <trkpt lat="48.6834" lon="-0.59904">
        <ele>171.6</ele>
        <time>2014-08-20T15:40:26Z</time>
      </trkpt>
      <trkpt lat="48.68362" lon="-0.5989">
        <ele>171</ele>
        <time>2014-08-20T15:40:39Z</time>
      </trkpt>
      <trkpt lat="48.68386" lon="-0.59872">
        <ele>170.2</ele>
        <time>2014-08-20T15:40:51Z</time>
      </trkpt>
      <trkpt lat="48.6839" lon="-0.59865">
        <ele>170</ele>
        <time>2014-08-20T15:40:55Z</time>
      </trkpt>
      <trkpt lat="48.68378" lon="-0.59826">
        <ele>169.6</ele>
        <time>2014-08-20T15:41:10Z</time>
      </trkpt>
      <trkpt lat="48.68355" lon="-0.59791">
        <ele>168.4</ele>
        <time>2014-08-20T15:41:22Z</time>
      </trkpt>
      <trkpt lat="48.6833" lon="-0.59754">
        <ele>167</ele>
        <time>2014-08-20T15:41:33Z</time>
      </trkpt>
      <trkpt lat="48.68323" lon="-0.59747">
        <ele>166.6</ele>
        <time>2014-08-20T15:41:35Z</time>
      </trkpt>
      <trkpt lat="48.68306" lon="-0.59727">
        <ele>165.8</ele>
        <time>2014-08-20T15:41:40Z</time>
      </trkpt>
      <trkpt lat="48.68268" lon="-0.59698">
        <ele>162.8</ele>
        <time>2014-08-20T15:41:52Z</time>
      </trkpt>
      <trkpt lat="48.68248" lon="-0.59678">
        <ele>160.8</ele>
        <time>2014-08-20T15:42:02Z</time>
      </trkpt>
      <trkpt lat="48.68249" lon="-0.59676">
        <ele>160.6</ele>
        <time>2014-08-20T15:42:03Z</time>
      </trkpt>
      <trkpt lat="48.68273" lon="-0.5965">
        <ele>159.8</ele>
        <time>2014-08-20T15:42:16Z</time>
      </trkpt>
      <trkpt lat="48.68303" lon="-0.59619">
        <ele>160</ele>
        <time>2014-08-20T15:42:31Z</time>
      </trkpt>
      <trkpt lat="48.68346" lon="-0.59594">
        <ele>157.6</ele>
        <time>2014-08-20T15:42:44Z</time>
      </trkpt>
      <trkpt lat="48.68374" lon="-0.59556">
        <ele>157.4</ele>
        <time>2014-08-20T15:42:56Z</time>
      </trkpt>
      <trkpt lat="48.68409" lon="-0.59514">
        <ele>159.2</ele>
        <time>2014-08-20T15:43:12Z</time>
      </trkpt>
      <trkpt lat="48.68428" lon="-0.5948">
        <ele>160.2</ele>
        <time>2014-08-20T15:43:24Z</time>
      </trkpt>
      <trkpt lat="48.68446" lon="-0.59449">
        <ele>160.8</ele>
        <time>2014-08-20T15:43:37Z</time>
      </trkpt>
      <trkpt lat="48.68447" lon="-0.59447">
        <ele>160.8</ele>
        <time>2014-08-20T15:43:38Z</time>
      </trkpt>
      <trkpt lat="48.68472" lon="-0.594">
        <ele>160.8</ele>
        <time>2014-08-20T15:43:51Z</time>
      </trkpt>
      <trkpt lat="48.685" lon="-0.59353">
        <ele>160.6</ele>
        <time>2014-08-20T15:44:05Z</time>
      </trkpt>
      <trkpt lat="48.68519" lon="-0.59326">
        <ele>160.8</ele>
        <time>2014-08-20T15:44:17Z</time>
      </trkpt>
      <trkpt lat="48.6853" lon="-0.59301">
        <ele>160.8</ele>
        <time>2014-08-20T15:44:28Z</time>
      </trkpt>
      <trkpt lat="48.6853" lon="-0.59298">
        <ele>160.8</ele>
        <time>2014-08-20T15:44:29Z</time>
      </trkpt>
      <trkpt lat="48.68531" lon="-0.59295">
        <ele>160.6</ele>
        <time>2014-08-20T15:44:30Z</time>
      </trkpt>
      <trkpt lat="48.68531" lon="-0.59292">
        <ele>160.4</ele>
        <time>2014-08-20T15:44:31Z</time>
      </trkpt>
      <trkpt lat="48.6853" lon="-0.5929">
        <ele>160.2</ele>
        <time>2014-08-20T15:44:32Z</time>
      </trkpt>
      <trkpt lat="48.6853" lon="-0.59287">
        <ele>160.2</ele>
        <time>2014-08-20T15:44:33Z</time>
      </trkpt>
      <trkpt lat="48.6853" lon="-0.59284">
        <ele>160</ele>
        <time>2014-08-20T15:44:34Z</time>
      </trkpt>
      <trkpt lat="48.6853" lon="-0.59281">
        <ele>159.8</ele>
        <time>2014-08-20T15:44:35Z</time>
      </trkpt>
      <trkpt lat="48.6853" lon="-0.59278">
        <ele>159.6</ele>
        <time>2014-08-20T15:44:36Z</time>
      </trkpt>
      <trkpt lat="48.68529" lon="-0.59275">
        <ele>159.4</ele>
        <time>2014-08-20T15:44:37Z</time>
      </trkpt>
      <trkpt lat="48.68529" lon="-0.59273">
        <ele>159.4</ele>
        <time>2014-08-20T15:44:38Z</time>
      </trkpt>
      <trkpt lat="48.68529" lon="-0.59269">
        <ele>158.4</ele>
        <time>2014-08-20T15:44:44Z</time>
      </trkpt>
      <trkpt lat="48.68529" lon="-0.59252">
        <ele>157.8</ele>
        <time>2014-08-20T15:45:25Z</time>
      </trkpt>
      <trkpt lat="48.68521" lon="-0.59217">
        <ele>156</ele>
        <time>2014-08-20T15:45:35Z</time>
      </trkpt>
      <trkpt lat="48.68516" lon="-0.59191">
        <ele>154</ele>
        <time>2014-08-20T15:45:41Z</time>
      </trkpt>
      <trkpt lat="48.68516" lon="-0.59183">
        <ele>153.4</ele>
        <time>2014-08-20T15:45:42Z</time>
      </trkpt>
      <trkpt lat="48.68514" lon="-0.59172">
        <ele>152.8</ele>
        <time>2014-08-20T15:45:43Z</time>
      </trkpt>
      <trkpt lat="48.6851" lon="-0.59136">
        <ele>149.2</ele>
        <time>2014-08-20T15:45:46Z</time>
      </trkpt>
      <trkpt lat="48.68503" lon="-0.59091">
        <ele>146.6</ele>
        <time>2014-08-20T15:45:50Z</time>
      </trkpt>
      <trkpt lat="48.68509" lon="-0.59044">
        <ele>144.6</ele>
        <time>2014-08-20T15:45:59Z</time>
      </trkpt>
      <trkpt lat="48.68533" lon="-0.59013">
        <ele>144.6</ele>
        <time>2014-08-20T15:46:09Z</time>
      </trkpt>
      <trkpt lat="48.68536" lon="-0.58996">
        <ele>145.2</ele>
        <time>2014-08-20T15:46:13Z</time>
      </trkpt>
      <trkpt lat="48.68537" lon="-0.58994">
        <ele>145.2</ele>
        <time>2014-08-20T15:46:14Z</time>
      </trkpt>
      <trkpt lat="48.68537" lon="-0.58991">
        <ele>145.4</ele>
        <time>2014-08-20T15:46:15Z</time>
      </trkpt>
      <trkpt lat="48.68538" lon="-0.58989">
        <ele>145.4</ele>
        <time>2014-08-20T15:46:16Z</time>
      </trkpt>
      <trkpt lat="48.68537" lon="-0.58988">
        <ele>145.6</ele>
        <time>2014-08-20T15:46:17Z</time>
      </trkpt>
      <trkpt lat="48.68536" lon="-0.58988">
        <ele>145.6</ele>
        <time>2014-08-20T15:46:18Z</time>
      </trkpt>
      <trkpt lat="48.68535" lon="-0.59001">
        <ele>146</ele>
        <time>2014-08-20T15:46:23Z</time>
      </trkpt>
      <trkpt lat="48.68546" lon="-0.59011">
        <ele>145.6</ele>
        <time>2014-08-20T15:46:33Z</time>
      </trkpt>
      <trkpt lat="48.68546" lon="-0.59011">
        <ele>145.8</ele>
        <time>2014-08-20T15:46:36Z</time>
      </trkpt>
      <trkpt lat="48.68549" lon="-0.59016">
        <ele>145.8</ele>
        <time>2014-08-20T15:46:58Z</time>
      </trkpt>
      <trkpt lat="48.68578" lon="-0.59016">
        <ele>146</ele>
        <time>2014-08-20T15:47:10Z</time>
      </trkpt>
      <trkpt lat="48.68595" lon="-0.59014">
        <ele>146.2</ele>
        <time>2014-08-20T15:47:17Z</time>
      </trkpt>
      <trkpt lat="48.68624" lon="-0.59011">
        <ele>147</ele>
        <time>2014-08-20T15:47:27Z</time>
      </trkpt>
      <trkpt lat="48.68662" lon="-0.59008">
        <ele>148</ele>
        <time>2014-08-20T15:47:38Z</time>
      </trkpt>
      <trkpt lat="48.68698" lon="-0.59005">
        <ele>149</ele>
        <time>2014-08-20T15:47:48Z</time>
      </trkpt>
      <trkpt lat="48.68723" lon="-0.59005">
        <ele>150</ele>
        <time>2014-08-20T15:47:56Z</time>
      </trkpt>
      <trkpt lat="48.68756" lon="-0.59034">
        <ele>151</ele>
        <time>2014-08-20T15:48:08Z</time>
      </trkpt>
      <trkpt lat="48.68769" lon="-0.59066">
        <ele>151.8</ele>
        <time>2014-08-20T15:48:17Z</time>
      </trkpt>
      <trkpt lat="48.68776" lon="-0.59117">
        <ele>153.2</ele>
        <time>2014-08-20T15:48:29Z</time>
      </trkpt>
      <trkpt lat="48.68767" lon="-0.59156">
        <ele>154</ele>
        <time>2014-08-20T15:48:40Z</time>
      </trkpt>
      <trkpt lat="48.68742" lon="-0.59189">
        <ele>155.4</ele>
        <time>2014-08-20T15:48:52Z</time>
      </trkpt>
      <trkpt lat="48.6871" lon="-0.59209">
        <ele>157.2</ele>
        <time>2014-08-20T15:49:03Z</time>
      </trkpt>
      <trkpt lat="48.68675" lon="-0.59232">
        <ele>158.6</ele>
        <time>2014-08-20T15:49:15Z</time>
      </trkpt>
      <trkpt lat="48.68648" lon="-0.59245">
        <ele>160</ele>
        <time>2014-08-20T15:49:27Z</time>
      </trkpt>
      <trkpt lat="48.68621" lon="-0.59261">
        <ele>161.6</ele>
        <time>2014-08-20T15:49:38Z</time>
      </trkpt>
      <trkpt lat="48.68609" lon="-0.59269">
        <ele>162.8</ele>
        <time>2014-08-20T15:49:48Z</time>
      </trkpt>
      <trkpt lat="48.68593" lon="-0.59285">
        <ele>163</ele>
        <time>2014-08-20T15:50:05Z</time>
      </trkpt>
      <trkpt lat="48.68584" lon="-0.59309">
        <ele>164.2</ele>
        <time>2014-08-20T15:50:14Z</time>
      </trkpt>
      <trkpt lat="48.68574" lon="-0.59316">
        <ele>164.6</ele>
        <time>2014-08-20T15:50:19Z</time>
      </trkpt>
      <trkpt lat="48.68585" lon="-0.59335">
        <ele>165.4</ele>
        <time>2014-08-20T15:50:30Z</time>
      </trkpt>
      <trkpt lat="48.68595" lon="-0.59333">
        <ele>165.2</ele>
        <time>2014-08-20T15:50:35Z</time>
      </trkpt>
      <trkpt lat="48.6861" lon="-0.59343">
        <ele>166.4</ele>
        <time>2014-08-20T15:50:45Z</time>
      </trkpt>
      <trkpt lat="48.68617" lon="-0.59354">
        <ele>167</ele>
        <time>2014-08-20T15:51:00Z</time>
      </trkpt>
      <trkpt lat="48.68619" lon="-0.59355">
        <ele>167</ele>
        <time>2014-08-20T15:51:02Z</time>
      </trkpt>
      <trkpt lat="48.68606" lon="-0.59334">
        <ele>167.6</ele>
        <time>2014-08-20T15:51:51Z</time>
      </trkpt>
      <trkpt lat="48.68602" lon="-0.59334">
        <ele>167.4</ele>
        <time>2014-08-20T15:51:52Z</time>
      </trkpt>
      <trkpt lat="48.68598" lon="-0.59334">
        <ele>167.4</ele>
        <time>2014-08-20T15:51:53Z</time>
      </trkpt>
      <trkpt lat="48.68594" lon="-0.59335">
        <ele>167.2</ele>
        <time>2014-08-20T15:51:54Z</time>
      </trkpt>
      <trkpt lat="48.68574" lon="-0.59338">
        <ele>166.2</ele>
        <time>2014-08-20T15:52:03Z</time>
      </trkpt>
      <trkpt lat="48.68566" lon="-0.59353">
        <ele>165.8</ele>
        <time>2014-08-20T15:52:10Z</time>
      </trkpt>
      <trkpt lat="48.68561" lon="-0.59366">
        <ele>165.6</ele>
        <time>2014-08-20T15:52:14Z</time>
      </trkpt>
      <trkpt lat="48.68556" lon="-0.59391">
        <ele>165.6</ele>
        <time>2014-08-20T15:52:21Z</time>
      </trkpt>
      <trkpt lat="48.68552" lon="-0.59421">
        <ele>166.2</ele>
        <time>2014-08-20T15:52:30Z</time>
      </trkpt>
      <trkpt lat="48.68549" lon="-0.59437">
        <ele>166.6</ele>
        <time>2014-08-20T15:52:34Z</time>
      </trkpt>
      <trkpt lat="48.68548" lon="-0.59442">
        <ele>166.6</ele>
        <time>2014-08-20T15:52:35Z</time>
      </trkpt>
      <trkpt lat="48.68547" lon="-0.59447">
        <ele>166.6</ele>
        <time>2014-08-20T15:52:36Z</time>
      </trkpt>
      <trkpt lat="48.68542" lon="-0.5948">
        <ele>167</ele>
        <time>2014-08-20T15:52:44Z</time>
      </trkpt>
      <trkpt lat="48.68541" lon="-0.59492">
        <ele>167</ele>
        <time>2014-08-20T15:52:47Z</time>
      </trkpt>
      <trkpt lat="48.68537" lon="-0.5953">
        <ele>167.6</ele>
        <time>2014-08-20T15:52:56Z</time>
      </trkpt>
      <trkpt lat="48.68527" lon="-0.59597">
        <ele>168.4</ele>
        <time>2014-08-20T15:53:08Z</time>
      </trkpt>
      <trkpt lat="48.68516" lon="-0.59635">
        <ele>168.8</ele>
        <time>2014-08-20T15:53:14Z</time>
      </trkpt>
      <trkpt lat="48.68512" lon="-0.59704">
        <ele>170</ele>
        <time>2014-08-20T15:53:26Z</time>
      </trkpt>
      <trkpt lat="48.68514" lon="-0.59732">
        <ele>170.6</ele>
        <time>2014-08-20T15:53:32Z</time>
      </trkpt>
      <trkpt lat="48.68526" lon="-0.59747">
        <ele>172.4</ele>
        <time>2014-08-20T15:53:41Z</time>
      </trkpt>
      <trkpt lat="48.68529" lon="-0.59757">
        <ele>172.8</ele>
        <time>2014-08-20T15:53:46Z</time>
      </trkpt>
      <trkpt lat="48.68537" lon="-0.59773">
        <ele>173.4</ele>
        <time>2014-08-20T15:53:52Z</time>
      </trkpt>
      <trkpt lat="48.68559" lon="-0.59807">
        <ele>174.6</ele>
        <time>2014-08-20T15:54:04Z</time>
      </trkpt>
      <trkpt lat="48.68561" lon="-0.59812">
        <ele>175</ele>
        <time>2014-08-20T15:54:06Z</time>
      </trkpt>
      <trkpt lat="48.68574" lon="-0.59824">
        <ele>175.8</ele>
        <time>2014-08-20T15:54:14Z</time>
      </trkpt>
      <trkpt lat="48.68581" lon="-0.59824">
        <ele>176.2</ele>
        <time>2014-08-20T15:54:17Z</time>
      </trkpt>
      <trkpt lat="48.68594" lon="-0.59828">
        <ele>177.4</ele>
        <time>2014-08-20T15:54:24Z</time>
      </trkpt>
      <trkpt lat="48.68606" lon="-0.5983">
        <ele>177.8</ele>
        <time>2014-08-20T15:54:30Z</time>
      </trkpt>
      <trkpt lat="48.68617" lon="-0.59838">
        <ele>177.6</ele>
        <time>2014-08-20T15:54:41Z</time>
      </trkpt>
      <trkpt lat="48.68618" lon="-0.59839">
        <ele>177.6</ele>
        <time>2014-08-20T15:54:42Z</time>
      </trkpt>
      <trkpt lat="48.68629" lon="-0.59861">
        <ele>178.2</ele>
        <time>2014-08-20T15:54:50Z</time>
      </trkpt>
      <trkpt lat="48.68629" lon="-0.59864">
        <ele>178.4</ele>
        <time>2014-08-20T15:54:51Z</time>
      </trkpt>
      <trkpt lat="48.6863" lon="-0.59867">
        <ele>178.6</ele>
        <time>2014-08-20T15:54:52Z</time>
      </trkpt>
      <trkpt lat="48.68631" lon="-0.59871">
        <ele>178.8</ele>
        <time>2014-08-20T15:54:53Z</time>
      </trkpt>
      <trkpt lat="48.68632" lon="-0.59873">
        <ele>178.8</ele>
        <time>2014-08-20T15:54:54Z</time>
      </trkpt>
      <trkpt lat="48.68633" lon="-0.59876">
        <ele>179</ele>
        <time>2014-08-20T15:54:55Z</time>
      </trkpt>
      <trkpt lat="48.68633" lon="-0.59879">
        <ele>179.2</ele>
        <time>2014-08-20T15:54:56Z</time>
      </trkpt>
      <trkpt lat="48.68634" lon="-0.59881">
        <ele>179.4</ele>
        <time>2014-08-20T15:54:57Z</time>
      </trkpt>
      <trkpt lat="48.68634" lon="-0.59884">
        <ele>179.4</ele>
        <time>2014-08-20T15:54:58Z</time>
      </trkpt>
      <trkpt lat="48.68634" lon="-0.59892">
        <ele>179.6</ele>
        <time>2014-08-20T15:55:07Z</time>
      </trkpt>
      <trkpt lat="48.6863" lon="-0.59903">
        <ele>179.8</ele>
        <time>2014-08-20T15:55:17Z</time>
      </trkpt>
      <trkpt lat="48.6863" lon="-0.59905">
        <ele>179.6</ele>
        <time>2014-08-20T15:55:18Z</time>
      </trkpt>
      <trkpt lat="48.68629" lon="-0.59907">
        <ele>179.6</ele>
        <time>2014-08-20T15:55:19Z</time>
      </trkpt>
      <trkpt lat="48.68628" lon="-0.59909">
        <ele>179.6</ele>
        <time>2014-08-20T15:55:20Z</time>
      </trkpt>
      <trkpt lat="48.68622" lon="-0.59941">
        <ele>179</ele>
        <time>2014-08-20T15:55:31Z</time>
      </trkpt>
      <trkpt lat="48.6861" lon="-0.59979">
        <ele>178.6</ele>
        <time>2014-08-20T15:55:41Z</time>
      </trkpt>
      <trkpt lat="48.686" lon="-0.60013">
        <ele>177.6</ele>
        <time>2014-08-20T15:55:50Z</time>
      </trkpt>
      <trkpt lat="48.68594" lon="-0.60035">
        <ele>177</ele>
        <time>2014-08-20T15:55:56Z</time>
      </trkpt>
      <trkpt lat="48.68587" lon="-0.60051">
        <ele>176.2</ele>
        <time>2014-08-20T15:56:01Z</time>
      </trkpt>
      <trkpt lat="48.68584" lon="-0.60067">
        <ele>175.6</ele>
        <time>2014-08-20T15:56:08Z</time>
      </trkpt>
      <trkpt lat="48.68581" lon="-0.60081">
        <ele>175.4</ele>
        <time>2014-08-20T15:56:12Z</time>
      </trkpt>
      <trkpt lat="48.68573" lon="-0.60108">
        <ele>174.6</ele>
        <time>2014-08-20T15:56:22Z</time>
      </trkpt>
      <trkpt lat="48.6857" lon="-0.60142">
        <ele>174.6</ele>
        <time>2014-08-20T15:56:49Z</time>
      </trkpt>
      <trkpt lat="48.68589" lon="-0.60178">
        <ele>174.8</ele>
        <time>2014-08-20T15:57:00Z</time>
      </trkpt>
      <trkpt lat="48.68613" lon="-0.60232">
        <ele>175.4</ele>
        <time>2014-08-20T15:57:13Z</time>
      </trkpt>
      <trkpt lat="48.6864" lon="-0.60294">
        <ele>176.2</ele>
        <time>2014-08-20T15:57:26Z</time>
      </trkpt>
      <trkpt lat="48.68664" lon="-0.60348">
        <ele>176.8</ele>
        <time>2014-08-20T15:57:37Z</time>
      </trkpt>
      <trkpt lat="48.68687" lon="-0.60403">
        <ele>177.4</ele>
        <time>2014-08-20T15:57:48Z</time>
      </trkpt>
      <trkpt lat="48.6871" lon="-0.60455">
        <ele>178.4</ele>
        <time>2014-08-20T15:57:58Z</time>
      </trkpt>
      <trkpt lat="48.68731" lon="-0.60509">
        <ele>179</ele>
        <time>2014-08-20T15:58:08Z</time>
      </trkpt>
      <trkpt lat="48.68747" lon="-0.60542">
        <ele>179.2</ele>
        <time>2014-08-20T15:58:14Z</time>
      </trkpt>
      <trkpt lat="48.68778" lon="-0.60601">
        <ele>180.4</ele>
        <time>2014-08-20T15:58:26Z</time>
      </trkpt>
      <trkpt lat="48.68786" lon="-0.60616">
        <ele>180.6</ele>
        <time>2014-08-20T15:58:29Z</time>
      </trkpt>
      <trkpt lat="48.68792" lon="-0.60626">
        <ele>180.8</ele>
        <time>2014-08-20T15:58:31Z</time>
      </trkpt>
      <trkpt lat="48.68799" lon="-0.60636">
        <ele>180.8</ele>
        <time>2014-08-20T15:58:33Z</time>
      </trkpt>
      <trkpt lat="48.68807" lon="-0.60654">
        <ele>180.6</ele>
        <time>2014-08-20T15:58:36Z</time>
      </trkpt>
      <trkpt lat="48.68827" lon="-0.60689">
        <ele>181.2</ele>
        <time>2014-08-20T15:58:43Z</time>
      </trkpt>
      <trkpt lat="48.68837" lon="-0.6071">
        <ele>182</ele>
        <time>2014-08-20T15:58:47Z</time>
      </trkpt>
      <trkpt lat="48.68852" lon="-0.60736">
        <ele>182.4</ele>
        <time>2014-08-20T15:58:52Z</time>
      </trkpt>
      <trkpt lat="48.68865" lon="-0.60754">
        <ele>182.6</ele>
        <time>2014-08-20T15:58:56Z</time>
      </trkpt>
      <trkpt lat="48.68902" lon="-0.60797">
        <ele>183.4</ele>
        <time>2014-08-20T15:59:07Z</time>
      </trkpt>
      <trkpt lat="48.68909" lon="-0.60805">
        <ele>183.6</ele>
        <time>2014-08-20T15:59:09Z</time>
      </trkpt>
      <trkpt lat="48.68928" lon="-0.60836">
        <ele>184</ele>
        <time>2014-08-20T15:59:15Z</time>
      </trkpt>
      <trkpt lat="48.6893" lon="-0.60843">
        <ele>184.2</ele>
        <time>2014-08-20T15:59:16Z</time>
      </trkpt>
      <trkpt lat="48.68934" lon="-0.60864">
        <ele>184.2</ele>
        <time>2014-08-20T15:59:19Z</time>
      </trkpt>
      <trkpt lat="48.68936" lon="-0.60891">
        <ele>184.4</ele>
        <time>2014-08-20T15:59:27Z</time>
      </trkpt>
      <trkpt lat="48.68936" lon="-0.60892">
        <ele>184.8</ele>
        <time>2014-08-20T15:59:29Z</time>
      </trkpt>
      <trkpt lat="48.68939" lon="-0.60901">
        <ele>184.8</ele>
        <time>2014-08-20T15:59:36Z</time>
      </trkpt>
      <trkpt lat="48.68941" lon="-0.60902">
        <ele>184.8</ele>
        <time>2014-08-20T15:59:37Z</time>
      </trkpt>
      <trkpt lat="48.68943" lon="-0.60904">
        <ele>184.8</ele>
        <time>2014-08-20T15:59:38Z</time>
      </trkpt>
      <trkpt lat="48.68945" lon="-0.60905">
        <ele>184.6</ele>
        <time>2014-08-20T15:59:39Z</time>
      </trkpt>
      <trkpt lat="48.68944" lon="-0.60909">
        <ele>184.8</ele>
        <time>2014-08-20T15:59:41Z</time>
      </trkpt>
      <trkpt lat="48.68945" lon="-0.60911">
        <ele>184.8</ele>
        <time>2014-08-20T15:59:42Z</time>
      </trkpt>
      <trkpt lat="48.68946" lon="-0.60914">
        <ele>184.8</ele>
        <time>2014-08-20T15:59:43Z</time>
      </trkpt>
      <trkpt lat="48.68948" lon="-0.60916">
        <ele>184.8</ele>
        <time>2014-08-20T15:59:44Z</time>
      </trkpt>
      <trkpt lat="48.68948" lon="-0.6092">
        <ele>185</ele>
        <time>2014-08-20T15:59:45Z</time>
      </trkpt>
      <trkpt lat="48.68948" lon="-0.60922">
        <ele>184.8</ele>
        <time>2014-08-20T15:59:46Z</time>
      </trkpt>
      <trkpt lat="48.68948" lon="-0.60924">
        <ele>184.8</ele>
        <time>2014-08-20T15:59:47Z</time>
      </trkpt>
      <trkpt lat="48.6895" lon="-0.60932">
        <ele>183.8</ele>
        <time>2014-08-20T15:59:54Z</time>
      </trkpt>
      <trkpt lat="48.68945" lon="-0.60923">
        <ele>184</ele>
        <time>2014-08-20T16:00:12Z</time>
      </trkpt>
      <trkpt lat="48.68945" lon="-0.60921">
        <ele>184.2</ele>
        <time>2014-08-20T16:00:13Z</time>
      </trkpt>
      <trkpt lat="48.68954" lon="-0.60916">
        <ele>185</ele>
        <time>2014-08-20T16:00:22Z</time>
      </trkpt>
      <trkpt lat="48.68986" lon="-0.60895">
        <ele>184</ele>
        <time>2014-08-20T16:00:33Z</time>
      </trkpt>
      <trkpt lat="48.69021" lon="-0.60871">
        <ele>183.8</ele>
        <time>2014-08-20T16:00:43Z</time>
      </trkpt>
      <trkpt lat="48.69047" lon="-0.60849">
        <ele>185.6</ele>
        <time>2014-08-20T16:00:54Z</time>
      </trkpt>
      <trkpt lat="48.69074" lon="-0.6083">
        <ele>186.8</ele>
        <time>2014-08-20T16:01:05Z</time>
      </trkpt>
      <trkpt lat="48.69106" lon="-0.60807">
        <ele>187.8</ele>
        <time>2014-08-20T16:01:17Z</time>
      </trkpt>
      <trkpt lat="48.69108" lon="-0.60804">
        <ele>187.8</ele>
        <time>2014-08-20T16:01:18Z</time>
      </trkpt>
      <trkpt lat="48.69128" lon="-0.60783">
        <ele>188.4</ele>
        <time>2014-08-20T16:01:29Z</time>
      </trkpt>
      <trkpt lat="48.6913" lon="-0.60777">
        <ele>188.6</ele>
        <time>2014-08-20T16:01:31Z</time>
      </trkpt>
      <trkpt lat="48.69134" lon="-0.60773">
        <ele>188.8</ele>
        <time>2014-08-20T16:01:34Z</time>
      </trkpt>
      <trkpt lat="48.69149" lon="-0.60775">
        <ele>188.2</ele>
        <time>2014-08-20T16:01:48Z</time>
      </trkpt>
      <trkpt lat="48.69152" lon="-0.60777">
        <ele>188.2</ele>
        <time>2014-08-20T16:01:53Z</time>
      </trkpt>
      <trkpt lat="48.69182" lon="-0.60755">
        <ele>188.8</ele>
        <time>2014-08-20T16:02:24Z</time>
      </trkpt>
      <trkpt lat="48.6919" lon="-0.60749">
        <ele>188.8</ele>
        <time>2014-08-20T16:02:29Z</time>
      </trkpt>
      <trkpt lat="48.69215" lon="-0.60733">
        <ele>189.8</ele>
        <time>2014-08-20T16:02:42Z</time>
      </trkpt>
      <trkpt lat="48.69228" lon="-0.60722">
        <ele>190.4</ele>
        <time>2014-08-20T16:02:49Z</time>
      </trkpt>
      <trkpt lat="48.69233" lon="-0.60718">
        <ele>190.6</ele>
        <time>2014-08-20T16:02:52Z</time>
      </trkpt>
      <trkpt lat="48.6926" lon="-0.60696">
        <ele>191.8</ele>
        <time>2014-08-20T16:03:04Z</time>
      </trkpt>
      <trkpt lat="48.69285" lon="-0.60677">
        <ele>193.8</ele>
        <time>2014-08-20T16:03:15Z</time>
      </trkpt>
      <trkpt lat="48.69299" lon="-0.60665">
        <ele>194.8</ele>
        <time>2014-08-20T16:03:22Z</time>
      </trkpt>
      <trkpt lat="48.69328" lon="-0.60647">
        <ele>196.4</ele>
        <time>2014-08-20T16:03:36Z</time>
      </trkpt>
      <trkpt lat="48.69356" lon="-0.60627">
        <ele>197.8</ele>
        <time>2014-08-20T16:03:48Z</time>
      </trkpt>
      <trkpt lat="48.69375" lon="-0.60613">
        <ele>199</ele>
        <time>2014-08-20T16:03:58Z</time>
      </trkpt>
      <trkpt lat="48.69399" lon="-0.6059">
        <ele>201.2</ele>
        <time>2014-08-20T16:04:11Z</time>
      </trkpt>
      <trkpt lat="48.69413" lon="-0.60582">
        <ele>201.6</ele>
        <time>2014-08-20T16:04:18Z</time>
      </trkpt>
      <trkpt lat="48.69422" lon="-0.60576">
        <ele>201.8</ele>
        <time>2014-08-20T16:04:22Z</time>
      </trkpt>
      <trkpt lat="48.69456" lon="-0.60551">
        <ele>203.8</ele>
        <time>2014-08-20T16:04:36Z</time>
      </trkpt>
      <trkpt lat="48.69488" lon="-0.60529">
        <ele>205.6</ele>
        <time>2014-08-20T16:04:50Z</time>
      </trkpt>
      <trkpt lat="48.69521" lon="-0.60506">
        <ele>206.8</ele>
        <time>2014-08-20T16:05:04Z</time>
      </trkpt>
      <trkpt lat="48.69545" lon="-0.60488">
        <ele>207.8</ele>
        <time>2014-08-20T16:05:15Z</time>
      </trkpt>
      <trkpt lat="48.69551" lon="-0.60477">
        <ele>208.4</ele>
        <time>2014-08-20T16:05:22Z</time>
      </trkpt>
      <trkpt lat="48.6955" lon="-0.60473">
        <ele>208.4</ele>
        <time>2014-08-20T16:05:23Z</time>
      </trkpt>
      <trkpt lat="48.69549" lon="-0.60469">
        <ele>208.6</ele>
        <time>2014-08-20T16:05:24Z</time>
      </trkpt>
      <trkpt lat="48.69527" lon="-0.60395">
        <ele>208.6</ele>
        <time>2014-08-20T16:05:38Z</time>
      </trkpt>
      <trkpt lat="48.69506" lon="-0.60323">
        <ele>208.2</ele>
        <time>2014-08-20T16:05:52Z</time>
      </trkpt>
      <trkpt lat="48.69504" lon="-0.60317">
        <ele>208.2</ele>
        <time>2014-08-20T16:05:53Z</time>
      </trkpt>
      <trkpt lat="48.69502" lon="-0.60312">
        <ele>208.2</ele>
        <time>2014-08-20T16:05:54Z</time>
      </trkpt>
      <trkpt lat="48.695" lon="-0.60306">
        <ele>208.2</ele>
        <time>2014-08-20T16:05:55Z</time>
      </trkpt>
      <trkpt lat="48.69498" lon="-0.603">
        <ele>208.2</ele>
        <time>2014-08-20T16:05:56Z</time>
      </trkpt>
      <trkpt lat="48.69496" lon="-0.60295">
        <ele>208.2</ele>
        <time>2014-08-20T16:05:57Z</time>
      </trkpt>
      <trkpt lat="48.69474" lon="-0.60223">
        <ele>208</ele>
        <time>2014-08-20T16:06:11Z</time>
      </trkpt>
      <trkpt lat="48.69454" lon="-0.60166">
        <ele>207.8</ele>
        <time>2014-08-20T16:06:22Z</time>
      </trkpt>
      <trkpt lat="48.6945" lon="-0.60154">
        <ele>207.8</ele>
        <time>2014-08-20T16:06:24Z</time>
      </trkpt>
      <trkpt lat="48.69448" lon="-0.60148">
        <ele>207.8</ele>
        <time>2014-08-20T16:06:25Z</time>
      </trkpt>
      <trkpt lat="48.69442" lon="-0.6013">
        <ele>207.6</ele>
        <time>2014-08-20T16:06:28Z</time>
      </trkpt>
      <trkpt lat="48.6944" lon="-0.60124">
        <ele>207.4</ele>
        <time>2014-08-20T16:06:29Z</time>
      </trkpt>
      <trkpt lat="48.69438" lon="-0.60118">
        <ele>207.4</ele>
        <time>2014-08-20T16:06:30Z</time>
      </trkpt>
      <trkpt lat="48.69434" lon="-0.60105">
        <ele>207.4</ele>
        <time>2014-08-20T16:06:32Z</time>
      </trkpt>
      <trkpt lat="48.69432" lon="-0.60099">
        <ele>207.2</ele>
        <time>2014-08-20T16:06:33Z</time>
      </trkpt>
      <trkpt lat="48.69429" lon="-0.60093">
        <ele>207.2</ele>
        <time>2014-08-20T16:06:34Z</time>
      </trkpt>
      <trkpt lat="48.69401" lon="-0.59995">
        <ele>204.8</ele>
        <time>2014-08-20T16:06:47Z</time>
      </trkpt>
      <trkpt lat="48.69375" lon="-0.59914">
        <ele>201.2</ele>
        <time>2014-08-20T16:06:55Z</time>
      </trkpt>
      <trkpt lat="48.69352" lon="-0.5984">
        <ele>198</ele>
        <time>2014-08-20T16:07:01Z</time>
      </trkpt>
      <trkpt lat="48.6933" lon="-0.59772">
        <ele>194.4</ele>
        <time>2014-08-20T16:07:06Z</time>
      </trkpt>
      <trkpt lat="48.69326" lon="-0.59758">
        <ele>194.4</ele>
        <time>2014-08-20T16:07:07Z</time>
      </trkpt>
      <trkpt lat="48.69303" lon="-0.59685">
        <ele>191</ele>
        <time>2014-08-20T16:07:12Z</time>
      </trkpt>
      <trkpt lat="48.69278" lon="-0.59609">
        <ele>187.4</ele>
        <time>2014-08-20T16:07:17Z</time>
      </trkpt>
      <trkpt lat="48.69257" lon="-0.59546">
        <ele>184.4</ele>
        <time>2014-08-20T16:07:21Z</time>
      </trkpt>
      <trkpt lat="48.69241" lon="-0.59498">
        <ele>181</ele>
        <time>2014-08-20T16:07:24Z</time>
      </trkpt>
      <trkpt lat="48.6922" lon="-0.59435">
        <ele>177.6</ele>
        <time>2014-08-20T16:07:28Z</time>
      </trkpt>
      <trkpt lat="48.692" lon="-0.59371">
        <ele>174.2</ele>
        <time>2014-08-20T16:07:32Z</time>
      </trkpt>
      <trkpt lat="48.69175" lon="-0.59291">
        <ele>171.2</ele>
        <time>2014-08-20T16:07:38Z</time>
      </trkpt>
      <trkpt lat="48.6914" lon="-0.59184">
        <ele>171</ele>
        <time>2014-08-20T16:07:49Z</time>
      </trkpt>
      <trkpt lat="48.69102" lon="-0.59062">
        <ele>168.4</ele>
        <time>2014-08-20T16:08:03Z</time>
      </trkpt>
      <trkpt lat="48.69083" lon="-0.58999">
        <ele>166.6</ele>
        <time>2014-08-20T16:08:10Z</time>
      </trkpt>
      <trkpt lat="48.69065" lon="-0.58939">
        <ele>165.6</ele>
        <time>2014-08-20T16:08:17Z</time>
      </trkpt>
      <trkpt lat="48.69038" lon="-0.58858">
        <ele>164.2</ele>
        <time>2014-08-20T16:08:27Z</time>
      </trkpt>
      <trkpt lat="48.68996" lon="-0.58732">
        <ele>161.8</ele>
        <time>2014-08-20T16:08:43Z</time>
      </trkpt>
      <trkpt lat="48.68979" lon="-0.58679">
        <ele>161</ele>
        <time>2014-08-20T16:08:51Z</time>
      </trkpt>
      <trkpt lat="48.68977" lon="-0.58674">
        <ele>160.8</ele>
        <time>2014-08-20T16:08:52Z</time>
      </trkpt>
      <trkpt lat="48.68975" lon="-0.58668">
        <ele>160.8</ele>
        <time>2014-08-20T16:08:53Z</time>
      </trkpt>
      <trkpt lat="48.68973" lon="-0.58662">
        <ele>160.6</ele>
        <time>2014-08-20T16:08:54Z</time>
      </trkpt>
      <trkpt lat="48.68971" lon="-0.58656">
        <ele>160.6</ele>
        <time>2014-08-20T16:08:55Z</time>
      </trkpt>
      <trkpt lat="48.68965" lon="-0.58636">
        <ele>160.2</ele>
        <time>2014-08-20T16:08:58Z</time>
      </trkpt>
      <trkpt lat="48.68964" lon="-0.5863">
        <ele>160</ele>
        <time>2014-08-20T16:08:59Z</time>
      </trkpt>
      <trkpt lat="48.6896" lon="-0.58618">
        <ele>160</ele>
        <time>2014-08-20T16:09:01Z</time>
      </trkpt>
      <trkpt lat="48.68958" lon="-0.58612">
        <ele>159.6</ele>
        <time>2014-08-20T16:09:02Z</time>
      </trkpt>
      <trkpt lat="48.68955" lon="-0.58605">
        <ele>159.6</ele>
        <time>2014-08-20T16:09:03Z</time>
      </trkpt>
      <trkpt lat="48.68947" lon="-0.58574">
        <ele>158.4</ele>
        <time>2014-08-20T16:09:07Z</time>
      </trkpt>
      <trkpt lat="48.68926" lon="-0.58507">
        <ele>156</ele>
        <time>2014-08-20T16:09:14Z</time>
      </trkpt>
      <trkpt lat="48.68922" lon="-0.58496">
        <ele>155.6</ele>
        <time>2014-08-20T16:09:15Z</time>
      </trkpt>
      <trkpt lat="48.68918" lon="-0.58484">
        <ele>155.2</ele>
        <time>2014-08-20T16:09:16Z</time>
      </trkpt>
      <trkpt lat="48.68904" lon="-0.5845">
        <ele>154</ele>
        <time>2014-08-20T16:09:19Z</time>
      </trkpt>
      <trkpt lat="48.68898" lon="-0.58439">
        <ele>153.6</ele>
        <time>2014-08-20T16:09:20Z</time>
      </trkpt>
      <trkpt lat="48.68892" lon="-0.58429">
        <ele>153.2</ele>
        <time>2014-08-20T16:09:21Z</time>
      </trkpt>
      <trkpt lat="48.68885" lon="-0.58421">
        <ele>152.6</ele>
        <time>2014-08-20T16:09:22Z</time>
      </trkpt>
      <trkpt lat="48.68879" lon="-0.58414">
        <ele>152.2</ele>
        <time>2014-08-20T16:09:23Z</time>
      </trkpt>
      <trkpt lat="48.68872" lon="-0.58407">
        <ele>151.8</ele>
        <time>2014-08-20T16:09:24Z</time>
      </trkpt>
      <trkpt lat="48.68866" lon="-0.58402">
        <ele>151.6</ele>
        <time>2014-08-20T16:09:25Z</time>
      </trkpt>
      <trkpt lat="48.68835" lon="-0.58385">
        <ele>151.4</ele>
        <time>2014-08-20T16:09:31Z</time>
      </trkpt>
      <trkpt lat="48.68805" lon="-0.58375">
        <ele>152.8</ele>
        <time>2014-08-20T16:09:38Z</time>
      </trkpt>
      <trkpt lat="48.68751" lon="-0.58361">
        <ele>155.8</ele>
        <time>2014-08-20T16:09:52Z</time>
      </trkpt>
      <trkpt lat="48.68743" lon="-0.58358">
        <ele>156.2</ele>
        <time>2014-08-20T16:09:54Z</time>
      </trkpt>
      <trkpt lat="48.68738" lon="-0.58358">
        <ele>156.4</ele>
        <time>2014-08-20T16:09:55Z</time>
      </trkpt>
      <trkpt lat="48.68734" lon="-0.58357">
        <ele>156.6</ele>
        <time>2014-08-20T16:09:56Z</time>
      </trkpt>
      <trkpt lat="48.6873" lon="-0.58356">
        <ele>156.8</ele>
        <time>2014-08-20T16:09:57Z</time>
      </trkpt>
      <trkpt lat="48.68726" lon="-0.58355">
        <ele>157</ele>
        <time>2014-08-20T16:09:58Z</time>
      </trkpt>
      <trkpt lat="48.6867" lon="-0.58338">
        <ele>160.2</ele>
        <time>2014-08-20T16:10:12Z</time>
      </trkpt>
      <trkpt lat="48.68629" lon="-0.58327">
        <ele>162.8</ele>
        <time>2014-08-20T16:10:25Z</time>
      </trkpt>
      <trkpt lat="48.68604" lon="-0.58321">
        <ele>164.4</ele>
        <time>2014-08-20T16:10:37Z</time>
      </trkpt>
      <trkpt lat="48.68604" lon="-0.58319">
        <ele>164.4</ele>
        <time>2014-08-20T16:10:38Z</time>
      </trkpt>
      <trkpt lat="48.68608" lon="-0.58318">
        <ele>164.6</ele>
        <time>2014-08-20T16:10:41Z</time>
      </trkpt>
      <trkpt lat="48.68619" lon="-0.58321">
        <ele>164.2</ele>
        <time>2014-08-20T16:10:52Z</time>
      </trkpt>
      <trkpt lat="48.68609" lon="-0.5832">
        <ele>164.2</ele>
        <time>2014-08-20T16:10:59Z</time>
      </trkpt>
      <trkpt lat="48.68606" lon="-0.5832">
        <ele>164.2</ele>
        <time>2014-08-20T16:11:00Z</time>
      </trkpt>
      <trkpt lat="48.68603" lon="-0.58319">
        <ele>164.4</ele>
        <time>2014-08-20T16:11:01Z</time>
      </trkpt>
      <trkpt lat="48.68574" lon="-0.58313">
        <ele>165</ele>
        <time>2014-08-20T16:11:12Z</time>
      </trkpt>
      <trkpt lat="48.68526" lon="-0.58298">
        <ele>164.2</ele>
        <time>2014-08-20T16:11:27Z</time>
      </trkpt>
      <trkpt lat="48.68476" lon="-0.58286">
        <ele>163</ele>
        <time>2014-08-20T16:11:40Z</time>
      </trkpt>
      <trkpt lat="48.68418" lon="-0.58274">
        <ele>161.8</ele>
        <time>2014-08-20T16:11:55Z</time>
      </trkpt>
      <trkpt lat="48.68365" lon="-0.58256">
        <ele>160.8</ele>
        <time>2014-08-20T16:12:06Z</time>
      </trkpt>
      <trkpt lat="48.68284" lon="-0.58211">
        <ele>158</ele>
        <time>2014-08-20T16:12:21Z</time>
      </trkpt>
      <trkpt lat="48.68226" lon="-0.58175">
        <ele>154.8</ele>
        <time>2014-08-20T16:12:30Z</time>
      </trkpt>
      <trkpt lat="48.68196" lon="-0.58157">
        <ele>151.6</ele>
        <time>2014-08-20T16:12:36Z</time>
      </trkpt>
      <trkpt lat="48.68183" lon="-0.58146">
        <ele>149.8</ele>
        <time>2014-08-20T16:12:41Z</time>
      </trkpt>
      <trkpt lat="48.68183" lon="-0.58143">
        <ele>149.4</ele>
        <time>2014-08-20T16:12:42Z</time>
      </trkpt>
      <trkpt lat="48.68183" lon="-0.5814">
        <ele>149.2</ele>
        <time>2014-08-20T16:12:43Z</time>
      </trkpt>
      <trkpt lat="48.68185" lon="-0.58137">
        <ele>148.8</ele>
        <time>2014-08-20T16:12:44Z</time>
      </trkpt>
      <trkpt lat="48.68187" lon="-0.58134">
        <ele>148.6</ele>
        <time>2014-08-20T16:12:45Z</time>
      </trkpt>
      <trkpt lat="48.68189" lon="-0.5813">
        <ele>148.6</ele>
        <time>2014-08-20T16:12:46Z</time>
      </trkpt>
      <trkpt lat="48.68193" lon="-0.58126">
        <ele>148.4</ele>
        <time>2014-08-20T16:12:47Z</time>
      </trkpt>
      <trkpt lat="48.68227" lon="-0.58077">
        <ele>149</ele>
        <time>2014-08-20T16:12:59Z</time>
      </trkpt>
      <trkpt lat="48.68252" lon="-0.58039">
        <ele>151.4</ele>
        <time>2014-08-20T16:13:09Z</time>
      </trkpt>
      <trkpt lat="48.6828" lon="-0.57991">
        <ele>154.4</ele>
        <time>2014-08-20T16:13:20Z</time>
      </trkpt>
      <trkpt lat="48.68303" lon="-0.57942">
        <ele>157.2</ele>
        <time>2014-08-20T16:13:31Z</time>
      </trkpt>
      <trkpt lat="48.6833" lon="-0.57903">
        <ele>160.4</ele>
        <time>2014-08-20T16:13:43Z</time>
      </trkpt>
      <trkpt lat="48.68353" lon="-0.57859">
        <ele>162.6</ele>
        <time>2014-08-20T16:13:55Z</time>
      </trkpt>
      <trkpt lat="48.68356" lon="-0.57855">
        <ele>162.8</ele>
        <time>2014-08-20T16:13:56Z</time>
      </trkpt>
      <trkpt lat="48.68374" lon="-0.57822">
        <ele>165.2</ele>
        <time>2014-08-20T16:14:08Z</time>
      </trkpt>
      <trkpt lat="48.68379" lon="-0.5781">
        <ele>165.6</ele>
        <time>2014-08-20T16:14:16Z</time>
      </trkpt>
      <trkpt lat="48.68381" lon="-0.57807">
        <ele>165.6</ele>
        <time>2014-08-20T16:14:17Z</time>
      </trkpt>
      <trkpt lat="48.68399" lon="-0.57778">
        <ele>167</ele>
        <time>2014-08-20T16:14:29Z</time>
      </trkpt>
      <trkpt lat="48.6842" lon="-0.57748">
        <ele>168</ele>
        <time>2014-08-20T16:14:39Z</time>
      </trkpt>
      <trkpt lat="48.68445" lon="-0.57709">
        <ele>169.8</ele>
        <time>2014-08-20T16:14:50Z</time>
      </trkpt>
      <trkpt lat="48.68476" lon="-0.57664">
        <ele>171.6</ele>
        <time>2014-08-20T16:15:03Z</time>
      </trkpt>
      <trkpt lat="48.68499" lon="-0.57614">
        <ele>173</ele>
        <time>2014-08-20T16:15:14Z</time>
      </trkpt>
      <trkpt lat="48.68516" lon="-0.57587">
        <ele>175.4</ele>
        <time>2014-08-20T16:15:23Z</time>
      </trkpt>
      <trkpt lat="48.68533" lon="-0.57568">
        <ele>177.4</ele>
        <time>2014-08-20T16:15:29Z</time>
      </trkpt>
      <trkpt lat="48.68552" lon="-0.57505">
        <ele>178.2</ele>
        <time>2014-08-20T16:15:42Z</time>
      </trkpt>
      <trkpt lat="48.68558" lon="-0.57478">
        <ele>176.8</ele>
        <time>2014-08-20T16:15:46Z</time>
      </trkpt>
      <trkpt lat="48.68571" lon="-0.57425">
        <ele>174.2</ele>
        <time>2014-08-20T16:15:53Z</time>
      </trkpt>
      <trkpt lat="48.68597" lon="-0.57343">
        <ele>172.2</ele>
        <time>2014-08-20T16:16:09Z</time>
      </trkpt>
      <trkpt lat="48.686" lon="-0.57334">
        <ele>172.2</ele>
        <time>2014-08-20T16:16:12Z</time>
      </trkpt>
      <trkpt lat="48.68602" lon="-0.57329">
        <ele>172.2</ele>
        <time>2014-08-20T16:16:13Z</time>
      </trkpt>
      <trkpt lat="48.68606" lon="-0.57326">
        <ele>172.2</ele>
        <time>2014-08-20T16:16:14Z</time>
      </trkpt>
      <trkpt lat="48.68611" lon="-0.57324">
        <ele>172.2</ele>
        <time>2014-08-20T16:16:15Z</time>
      </trkpt>
      <trkpt lat="48.68616" lon="-0.57323">
        <ele>172.2</ele>
        <time>2014-08-20T16:16:16Z</time>
      </trkpt>
      <trkpt lat="48.68684" lon="-0.57301">
        <ele>175.2</ele>
        <time>2014-08-20T16:16:28Z</time>
      </trkpt>
      <trkpt lat="48.68738" lon="-0.57284">
        <ele>178.4</ele>
        <time>2014-08-20T16:16:38Z</time>
      </trkpt>
      <trkpt lat="48.68782" lon="-0.57274">
        <ele>181.6</ele>
        <time>2014-08-20T16:16:47Z</time>
      </trkpt>
      <trkpt lat="48.6885" lon="-0.57286">
        <ele>184</ele>
        <time>2014-08-20T16:17:01Z</time>
      </trkpt>
      <trkpt lat="48.68918" lon="-0.57334">
        <ele>183.4</ele>
        <time>2014-08-20T16:17:15Z</time>
      </trkpt>
      <trkpt lat="48.68989" lon="-0.5739">
        <ele>180.4</ele>
        <time>2014-08-20T16:17:28Z</time>
      </trkpt>
      <trkpt lat="48.69085" lon="-0.57469">
        <ele>177.8</ele>
        <time>2014-08-20T16:17:45Z</time>
      </trkpt>
      <trkpt lat="48.69201" lon="-0.57559">
        <ele>176.2</ele>
        <time>2014-08-20T16:18:05Z</time>
      </trkpt>
      <trkpt lat="48.69318" lon="-0.57651">
        <ele>173.4</ele>
        <time>2014-08-20T16:18:25Z</time>
      </trkpt>
      <trkpt lat="48.69449" lon="-0.57754">
        <ele>171.6</ele>
        <time>2014-08-20T16:18:48Z</time>
      </trkpt>
      <trkpt lat="48.69527" lon="-0.57816">
        <ele>172.2</ele>
        <time>2014-08-20T16:19:02Z</time>
      </trkpt>
      <trkpt lat="48.6956" lon="-0.57842">
        <ele>172</ele>
        <time>2014-08-20T16:19:08Z</time>
      </trkpt>
      <trkpt lat="48.69653" lon="-0.57916">
        <ele>172.4</ele>
        <time>2014-08-20T16:19:26Z</time>
      </trkpt>
      <trkpt lat="48.69779" lon="-0.58011">
        <ele>174</ele>
        <time>2014-08-20T16:19:49Z</time>
      </trkpt>
      <trkpt lat="48.69891" lon="-0.5807">
        <ele>175</ele>
        <time>2014-08-20T16:20:08Z</time>
      </trkpt>
      <trkpt lat="48.69997" lon="-0.58124">
        <ele>173.4</ele>
        <time>2014-08-20T16:20:27Z</time>
      </trkpt>
      <trkpt lat="48.69998" lon="-0.58129">
        <ele>173.6</ele>
        <time>2014-08-20T16:20:28Z</time>
      </trkpt>
      <trkpt lat="48.7" lon="-0.58134">
        <ele>173.6</ele>
        <time>2014-08-20T16:20:29Z</time>
      </trkpt>
      <trkpt lat="48.70001" lon="-0.58139">
        <ele>173.6</ele>
        <time>2014-08-20T16:20:30Z</time>
      </trkpt>
      <trkpt lat="48.70004" lon="-0.58144">
        <ele>173.8</ele>
        <time>2014-08-20T16:20:31Z</time>
      </trkpt>
      <trkpt lat="48.70006" lon="-0.58148">
        <ele>173.8</ele>
        <time>2014-08-20T16:20:32Z</time>
      </trkpt>
      <trkpt lat="48.70009" lon="-0.58151">
        <ele>173.8</ele>
        <time>2014-08-20T16:20:33Z</time>
      </trkpt>
      <trkpt lat="48.70016" lon="-0.5816">
        <ele>173.8</ele>
        <time>2014-08-20T16:20:35Z</time>
      </trkpt>
      <trkpt lat="48.7002" lon="-0.58165">
        <ele>173.8</ele>
        <time>2014-08-20T16:20:36Z</time>
      </trkpt>
      <trkpt lat="48.70074" lon="-0.58231">
        <ele>173.4</ele>
        <time>2014-08-20T16:20:48Z</time>
      </trkpt>
      <trkpt lat="48.70088" lon="-0.58244">
        <ele>173.6</ele>
        <time>2014-08-20T16:20:51Z</time>
      </trkpt>
      <trkpt lat="48.70093" lon="-0.58249">
        <ele>173.6</ele>
        <time>2014-08-20T16:20:52Z</time>
      </trkpt>
      <trkpt lat="48.70125" lon="-0.58274">
        <ele>174</ele>
        <time>2014-08-20T16:20:58Z</time>
      </trkpt>
      <trkpt lat="48.70168" lon="-0.58307">
        <ele>174.2</ele>
        <time>2014-08-20T16:21:06Z</time>
      </trkpt>
      <trkpt lat="48.70235" lon="-0.58365">
        <ele>174.2</ele>
        <time>2014-08-20T16:21:19Z</time>
      </trkpt>
      <trkpt lat="48.70253" lon="-0.5839">
        <ele>174</ele>
        <time>2014-08-20T16:21:23Z</time>
      </trkpt>
      <trkpt lat="48.7026" lon="-0.58405">
        <ele>173.8</ele>
        <time>2014-08-20T16:21:25Z</time>
      </trkpt>
      <trkpt lat="48.703" lon="-0.58487">
        <ele>173.8</ele>
        <time>2014-08-20T16:21:37Z</time>
      </trkpt>
      <trkpt lat="48.70304" lon="-0.58491">
        <ele>173.8</ele>
        <time>2014-08-20T16:21:38Z</time>
      </trkpt>
      <trkpt lat="48.70307" lon="-0.58496">
        <ele>173.8</ele>
        <time>2014-08-20T16:21:39Z</time>
      </trkpt>
      <trkpt lat="48.70335" lon="-0.58537">
        <ele>173.6</ele>
        <time>2014-08-20T16:21:45Z</time>
      </trkpt>
      <trkpt lat="48.70339" lon="-0.58544">
        <ele>173.6</ele>
        <time>2014-08-20T16:21:46Z</time>
      </trkpt>
      <trkpt lat="48.70343" lon="-0.58552">
        <ele>173.6</ele>
        <time>2014-08-20T16:21:47Z</time>
      </trkpt>
      <trkpt lat="48.70345" lon="-0.5856">
        <ele>173.6</ele>
        <time>2014-08-20T16:21:48Z</time>
      </trkpt>
      <trkpt lat="48.70348" lon="-0.58569">
        <ele>173.4</ele>
        <time>2014-08-20T16:21:49Z</time>
      </trkpt>
      <trkpt lat="48.70351" lon="-0.58578">
        <ele>173.4</ele>
        <time>2014-08-20T16:21:50Z</time>
      </trkpt>
      <trkpt lat="48.70354" lon="-0.58586">
        <ele>173.4</ele>
        <time>2014-08-20T16:21:51Z</time>
      </trkpt>
      <trkpt lat="48.70375" lon="-0.58633">
        <ele>173.2</ele>
        <time>2014-08-20T16:21:57Z</time>
      </trkpt>
      <trkpt lat="48.70382" lon="-0.58648">
        <ele>173.2</ele>
        <time>2014-08-20T16:21:59Z</time>
      </trkpt>
      <trkpt lat="48.7039" lon="-0.5867">
        <ele>173.4</ele>
        <time>2014-08-20T16:22:02Z</time>
      </trkpt>
      <trkpt lat="48.70393" lon="-0.58677">
        <ele>173.4</ele>
        <time>2014-08-20T16:22:03Z</time>
      </trkpt>
      <trkpt lat="48.70418" lon="-0.58757">
        <ele>174.2</ele>
        <time>2014-08-20T16:22:15Z</time>
      </trkpt>
      <trkpt lat="48.70422" lon="-0.58768">
        <ele>175</ele>
        <time>2014-08-20T16:22:23Z</time>
      </trkpt>
      <trkpt lat="48.70424" lon="-0.58777">
        <ele>175.6</ele>
        <time>2014-08-20T16:22:37Z</time>
      </trkpt>
      <trkpt lat="48.70432" lon="-0.58833">
        <ele>175</ele>
        <time>2014-08-20T16:22:48Z</time>
      </trkpt>
      <trkpt lat="48.70448" lon="-0.58906">
        <ele>174.8</ele>
        <time>2014-08-20T16:23:03Z</time>
      </trkpt>
      <trkpt lat="48.70463" lon="-0.58979">
        <ele>174.2</ele>
        <time>2014-08-20T16:23:18Z</time>
      </trkpt>
      <trkpt lat="48.70474" lon="-0.59036">
        <ele>173.4</ele>
        <time>2014-08-20T16:23:28Z</time>
      </trkpt>
      <trkpt lat="48.70475" lon="-0.59042">
        <ele>173.2</ele>
        <time>2014-08-20T16:23:29Z</time>
      </trkpt>
      <trkpt lat="48.70476" lon="-0.59049">
        <ele>173</ele>
        <time>2014-08-20T16:23:30Z</time>
      </trkpt>
      <trkpt lat="48.70478" lon="-0.59056">
        <ele>173</ele>
        <time>2014-08-20T16:23:31Z</time>
      </trkpt>
      <trkpt lat="48.70479" lon="-0.59063">
        <ele>172.6</ele>
        <time>2014-08-20T16:23:32Z</time>
      </trkpt>
      <trkpt lat="48.70481" lon="-0.59071">
        <ele>172.4</ele>
        <time>2014-08-20T16:23:33Z</time>
      </trkpt>
      <trkpt lat="48.70503" lon="-0.59169">
        <ele>171.4</ele>
        <time>2014-08-20T16:23:46Z</time>
      </trkpt>
      <trkpt lat="48.70505" lon="-0.59174">
        <ele>171.6</ele>
        <time>2014-08-20T16:23:47Z</time>
      </trkpt>
      <trkpt lat="48.70508" lon="-0.59179">
        <ele>171.8</ele>
        <time>2014-08-20T16:23:48Z</time>
      </trkpt>
      <trkpt lat="48.70536" lon="-0.59207">
        <ele>173</ele>
        <time>2014-08-20T16:23:54Z</time>
      </trkpt>
      <trkpt lat="48.7054" lon="-0.59213">
        <ele>173.4</ele>
        <time>2014-08-20T16:23:55Z</time>
      </trkpt>
      <trkpt lat="48.70543" lon="-0.59219">
        <ele>173.6</ele>
        <time>2014-08-20T16:23:56Z</time>
      </trkpt>
      <trkpt lat="48.70556" lon="-0.59246">
        <ele>173.8</ele>
        <time>2014-08-20T16:24:00Z</time>
      </trkpt>
      <trkpt lat="48.70561" lon="-0.59261">
        <ele>174</ele>
        <time>2014-08-20T16:24:02Z</time>
      </trkpt>
      <trkpt lat="48.7061" lon="-0.59292">
        <ele>175.6</ele>
        <time>2014-08-20T16:24:12Z</time>
      </trkpt>
      <trkpt lat="48.70625" lon="-0.59286">
        <ele>175.6</ele>
        <time>2014-08-20T16:24:15Z</time>
      </trkpt>
      <trkpt lat="48.70643" lon="-0.59299">
        <ele>175.4</ele>
        <time>2014-08-20T16:24:19Z</time>
      </trkpt>
      <trkpt lat="48.70673" lon="-0.59394">
        <ele>172</ele>
        <time>2014-08-20T16:24:30Z</time>
      </trkpt>
      <trkpt lat="48.70676" lon="-0.59406">
        <ele>171.4</ele>
        <time>2014-08-20T16:24:32Z</time>
      </trkpt>
      <trkpt lat="48.70687" lon="-0.59409">
        <ele>170.8</ele>
        <time>2014-08-20T16:24:36Z</time>
      </trkpt>
      <trkpt lat="48.7073" lon="-0.594">
        <ele>168.8</ele>
        <time>2014-08-20T16:24:49Z</time>
      </trkpt>
      <trkpt lat="48.70782" lon="-0.59391">
        <ele>166.2</ele>
        <time>2014-08-20T16:25:02Z</time>
      </trkpt>
      <trkpt lat="48.70828" lon="-0.59383">
        <ele>163.2</ele>
        <time>2014-08-20T16:25:10Z</time>
      </trkpt>
      <trkpt lat="48.70839" lon="-0.59381">
        <ele>162.6</ele>
        <time>2014-08-20T16:25:12Z</time>
      </trkpt>
      <trkpt lat="48.70849" lon="-0.59381">
        <ele>162.2</ele>
        <time>2014-08-20T16:25:14Z</time>
      </trkpt>
      <trkpt lat="48.70853" lon="-0.59379">
        <ele>162.2</ele>
        <time>2014-08-20T16:25:15Z</time>
      </trkpt>
      <trkpt lat="48.70916" lon="-0.59348">
        <ele>161.4</ele>
        <time>2014-08-20T16:25:27Z</time>
      </trkpt>
      <trkpt lat="48.7092" lon="-0.59347">
        <ele>161.4</ele>
        <time>2014-08-20T16:25:28Z</time>
      </trkpt>
      <trkpt lat="48.70924" lon="-0.59347">
        <ele>161.4</ele>
        <time>2014-08-20T16:25:29Z</time>
      </trkpt>
      <trkpt lat="48.70928" lon="-0.59349">
        <ele>161.4</ele>
        <time>2014-08-20T16:25:30Z</time>
      </trkpt>
      <trkpt lat="48.70932" lon="-0.5935">
        <ele>161.4</ele>
        <time>2014-08-20T16:25:31Z</time>
      </trkpt>
      <trkpt lat="48.70936" lon="-0.59351">
        <ele>161.4</ele>
        <time>2014-08-20T16:25:32Z</time>
      </trkpt>
      <trkpt lat="48.70941" lon="-0.59351">
        <ele>161.4</ele>
        <time>2014-08-20T16:25:33Z</time>
      </trkpt>
      <trkpt lat="48.70946" lon="-0.5935">
        <ele>161.4</ele>
        <time>2014-08-20T16:25:34Z</time>
      </trkpt>
      <trkpt lat="48.70951" lon="-0.59348">
        <ele>161.4</ele>
        <time>2014-08-20T16:25:35Z</time>
      </trkpt>
      <trkpt lat="48.71043" lon="-0.59302">
        <ele>160.6</ele>
        <time>2014-08-20T16:25:52Z</time>
      </trkpt>
      <trkpt lat="48.71054" lon="-0.59299">
        <ele>160.6</ele>
        <time>2014-08-20T16:25:54Z</time>
      </trkpt>
      <trkpt lat="48.7106" lon="-0.59299">
        <ele>160.6</ele>
        <time>2014-08-20T16:25:55Z</time>
      </trkpt>
      <trkpt lat="48.71065" lon="-0.593">
        <ele>160.4</ele>
        <time>2014-08-20T16:25:56Z</time>
      </trkpt>
      <trkpt lat="48.7107" lon="-0.59303">
        <ele>160</ele>
        <time>2014-08-20T16:25:57Z</time>
      </trkpt>
      <trkpt lat="48.71074" lon="-0.59308">
        <ele>160</ele>
        <time>2014-08-20T16:25:58Z</time>
      </trkpt>
      <trkpt lat="48.71078" lon="-0.59314">
        <ele>159.6</ele>
        <time>2014-08-20T16:25:59Z</time>
      </trkpt>
      <trkpt lat="48.71081" lon="-0.5932">
        <ele>159.4</ele>
        <time>2014-08-20T16:26:00Z</time>
      </trkpt>
      <trkpt lat="48.71129" lon="-0.59405">
        <ele>156</ele>
        <time>2014-08-20T16:26:10Z</time>
      </trkpt>
      <trkpt lat="48.71152" lon="-0.5945">
        <ele>152.2</ele>
        <time>2014-08-20T16:26:14Z</time>
      </trkpt>
      <trkpt lat="48.71155" lon="-0.59462">
        <ele>151.4</ele>
        <time>2014-08-20T16:26:15Z</time>
      </trkpt>
      <trkpt lat="48.71157" lon="-0.59473">
        <ele>150.8</ele>
        <time>2014-08-20T16:26:16Z</time>
      </trkpt>
      <trkpt lat="48.71161" lon="-0.59502">
        <ele>149.4</ele>
        <time>2014-08-20T16:26:19Z</time>
      </trkpt>
      <trkpt lat="48.71162" lon="-0.59521">
        <ele>149.6</ele>
        <time>2014-08-20T16:26:22Z</time>
      </trkpt>
      <trkpt lat="48.71164" lon="-0.59527">
        <ele>149.6</ele>
        <time>2014-08-20T16:26:23Z</time>
      </trkpt>
      <trkpt lat="48.71179" lon="-0.59574">
        <ele>152.8</ele>
        <time>2014-08-20T16:26:32Z</time>
      </trkpt>
      <trkpt lat="48.7119" lon="-0.59615">
        <ele>156.2</ele>
        <time>2014-08-20T16:26:39Z</time>
      </trkpt>
      <trkpt lat="48.71204" lon="-0.5966">
        <ele>159.2</ele>
        <time>2014-08-20T16:26:46Z</time>
      </trkpt>
      <trkpt lat="48.71213" lon="-0.59693">
        <ele>162.2</ele>
        <time>2014-08-20T16:26:51Z</time>
      </trkpt>
      <trkpt lat="48.71225" lon="-0.59735">
        <ele>165.6</ele>
        <time>2014-08-20T16:26:58Z</time>
      </trkpt>
      <trkpt lat="48.71234" lon="-0.59761">
        <ele>168.2</ele>
        <time>2014-08-20T16:27:04Z</time>
      </trkpt>
      <trkpt lat="48.71263" lon="-0.59752">
        <ele>171.6</ele>
        <time>2014-08-20T16:27:15Z</time>
      </trkpt>
      <trkpt lat="48.71301" lon="-0.59729">
        <ele>171.4</ele>
        <time>2014-08-20T16:27:29Z</time>
      </trkpt>
      <trkpt lat="48.71345" lon="-0.59703">
        <ele>169.4</ele>
        <time>2014-08-20T16:27:45Z</time>
      </trkpt>
      <trkpt lat="48.71382" lon="-0.59695">
        <ele>166.2</ele>
        <time>2014-08-20T16:27:56Z</time>
      </trkpt>
      <trkpt lat="48.71424" lon="-0.59699">
        <ele>163</ele>
        <time>2014-08-20T16:28:07Z</time>
      </trkpt>
      <trkpt lat="48.71463" lon="-0.59703">
        <ele>160.8</ele>
        <time>2014-08-20T16:28:19Z</time>
      </trkpt>
      <trkpt lat="48.7147" lon="-0.59711">
        <ele>160</ele>
        <time>2014-08-20T16:28:23Z</time>
      </trkpt>
      <trkpt lat="48.7147" lon="-0.59714">
        <ele>159.8</ele>
        <time>2014-08-20T16:28:24Z</time>
      </trkpt>
      <trkpt lat="48.71469" lon="-0.59765">
        <ele>157.8</ele>
        <time>2014-08-20T16:28:37Z</time>
      </trkpt>
      <trkpt lat="48.71469" lon="-0.59797">
        <ele>158.2</ele>
        <time>2014-08-20T16:28:46Z</time>
      </trkpt>
      <trkpt lat="48.71471" lon="-0.59798">
        <ele>158.2</ele>
        <time>2014-08-20T16:28:47Z</time>
      </trkpt>
      <trkpt lat="48.71474" lon="-0.59797">
        <ele>158.2</ele>
        <time>2014-08-20T16:28:48Z</time>
      </trkpt>
      <trkpt lat="48.71515" lon="-0.59785">
        <ele>156.8</ele>
        <time>2014-08-20T16:29:02Z</time>
      </trkpt>
      <trkpt lat="48.71562" lon="-0.59771">
        <ele>155.2</ele>
        <time>2014-08-20T16:29:16Z</time>
      </trkpt>
      <trkpt lat="48.71611" lon="-0.59756">
        <ele>156.6</ele>
        <time>2014-08-20T16:29:30Z</time>
      </trkpt>
      <trkpt lat="48.71638" lon="-0.5975">
        <ele>158</ele>
        <time>2014-08-20T16:29:37Z</time>
      </trkpt>
      <trkpt lat="48.71663" lon="-0.59744">
        <ele>158.8</ele>
        <time>2014-08-20T16:29:42Z</time>
      </trkpt>
      <trkpt lat="48.71683" lon="-0.59738">
        <ele>159.2</ele>
        <time>2014-08-20T16:29:46Z</time>
      </trkpt>
      <trkpt lat="48.71748" lon="-0.597">
        <ele>159.6</ele>
        <time>2014-08-20T16:29:59Z</time>
      </trkpt>
      <trkpt lat="48.71761" lon="-0.59693">
        <ele>159.2</ele>
        <time>2014-08-20T16:30:02Z</time>
      </trkpt>
      <trkpt lat="48.71765" lon="-0.59691">
        <ele>159.2</ele>
        <time>2014-08-20T16:30:03Z</time>
      </trkpt>
      <trkpt lat="48.71769" lon="-0.59689">
        <ele>159</ele>
        <time>2014-08-20T16:30:04Z</time>
      </trkpt>
      <trkpt lat="48.71773" lon="-0.59688">
        <ele>158.8</ele>
        <time>2014-08-20T16:30:05Z</time>
      </trkpt>
      <trkpt lat="48.71777" lon="-0.59687">
        <ele>158.8</ele>
        <time>2014-08-20T16:30:06Z</time>
      </trkpt>
      <trkpt lat="48.71781" lon="-0.59686">
        <ele>158.8</ele>
        <time>2014-08-20T16:30:07Z</time>
      </trkpt>
      <trkpt lat="48.71842" lon="-0.59683">
        <ele>157.8</ele>
        <time>2014-08-20T16:30:21Z</time>
      </trkpt>
      <trkpt lat="48.71882" lon="-0.59678">
        <ele>156</ele>
        <time>2014-08-20T16:30:32Z</time>
      </trkpt>
      <trkpt lat="48.71883" lon="-0.59679">
        <ele>155.8</ele>
        <time>2014-08-20T16:30:33Z</time>
      </trkpt>
      <trkpt lat="48.71885" lon="-0.59681">
        <ele>155.8</ele>
        <time>2014-08-20T16:30:34Z</time>
      </trkpt>
      <trkpt lat="48.71886" lon="-0.59683">
        <ele>155.6</ele>
        <time>2014-08-20T16:30:35Z</time>
      </trkpt>
      <trkpt lat="48.71887" lon="-0.59686">
        <ele>155.4</ele>
        <time>2014-08-20T16:30:36Z</time>
      </trkpt>
      <trkpt lat="48.71888" lon="-0.5969">
        <ele>155.2</ele>
        <time>2014-08-20T16:30:37Z</time>
      </trkpt>
      <trkpt lat="48.71891" lon="-0.59713">
        <ele>154.8</ele>
        <time>2014-08-20T16:30:41Z</time>
      </trkpt>
      <trkpt lat="48.71891" lon="-0.59719">
        <ele>154.8</ele>
        <time>2014-08-20T16:30:42Z</time>
      </trkpt>
      <trkpt lat="48.7189" lon="-0.59726">
        <ele>154.8</ele>
        <time>2014-08-20T16:30:43Z</time>
      </trkpt>
      <trkpt lat="48.71889" lon="-0.59746">
        <ele>154.8</ele>
        <time>2014-08-20T16:30:46Z</time>
      </trkpt>
      <trkpt lat="48.7189" lon="-0.59783">
        <ele>155.2</ele>
        <time>2014-08-20T16:30:52Z</time>
      </trkpt>
      <trkpt lat="48.71889" lon="-0.5979">
        <ele>155.4</ele>
        <time>2014-08-20T16:30:53Z</time>
      </trkpt>
      <trkpt lat="48.7189" lon="-0.59796">
        <ele>155.4</ele>
        <time>2014-08-20T16:30:54Z</time>
      </trkpt>
      <trkpt lat="48.7189" lon="-0.59802">
        <ele>155.6</ele>
        <time>2014-08-20T16:30:55Z</time>
      </trkpt>
      <trkpt lat="48.7189" lon="-0.59809">
        <ele>155.8</ele>
        <time>2014-08-20T16:30:56Z</time>
      </trkpt>
      <trkpt lat="48.71889" lon="-0.59815">
        <ele>155.8</ele>
        <time>2014-08-20T16:30:57Z</time>
      </trkpt>
      <trkpt lat="48.71895" lon="-0.59859">
        <ele>157.4</ele>
        <time>2014-08-20T16:31:07Z</time>
      </trkpt>
      <trkpt lat="48.71898" lon="-0.59868">
        <ele>157.6</ele>
        <time>2014-08-20T16:31:14Z</time>
      </trkpt>
      <trkpt lat="48.71902" lon="-0.5988">
        <ele>157.8</ele>
        <time>2014-08-20T16:31:33Z</time>
      </trkpt>
      <trkpt lat="48.71913" lon="-0.59965">
        <ele>156.6</ele>
        <time>2014-08-20T16:31:47Z</time>
      </trkpt>
      <trkpt lat="48.71921" lon="-0.60066">
        <ele>156.4</ele>
        <time>2014-08-20T16:32:03Z</time>
      </trkpt>
      <trkpt lat="48.7193" lon="-0.60085">
        <ele>156.6</ele>
        <time>2014-08-20T16:32:07Z</time>
      </trkpt>
      <trkpt lat="48.71933" lon="-0.60085">
        <ele>156.6</ele>
        <time>2014-08-20T16:32:08Z</time>
      </trkpt>
      <trkpt lat="48.72006" lon="-0.60076">
        <ele>155.6</ele>
        <time>2014-08-20T16:32:23Z</time>
      </trkpt>
      <trkpt lat="48.72097" lon="-0.60057">
        <ele>152.6</ele>
        <time>2014-08-20T16:32:37Z</time>
      </trkpt>
      <trkpt lat="48.72178" lon="-0.60037">
        <ele>149.4</ele>
        <time>2014-08-20T16:32:49Z</time>
      </trkpt>
      <trkpt lat="48.72241" lon="-0.60025">
        <ele>146.2</ele>
        <time>2014-08-20T16:32:58Z</time>
      </trkpt>
      <trkpt lat="48.72351" lon="-0.6001">
        <ele>143</ele>
        <time>2014-08-20T16:33:14Z</time>
      </trkpt>
      <trkpt lat="48.72417" lon="-0.6001">
        <ele>139.8</ele>
        <time>2014-08-20T16:33:23Z</time>
      </trkpt>
      <trkpt lat="48.72424" lon="-0.60011">
        <ele>139.4</ele>
        <time>2014-08-20T16:33:24Z</time>
      </trkpt>
      <trkpt lat="48.72509" lon="-0.60001">
        <ele>137.2</ele>
        <time>2014-08-20T16:33:37Z</time>
      </trkpt>
      <trkpt lat="48.72531" lon="-0.59995">
        <ele>136.4</ele>
        <time>2014-08-20T16:33:41Z</time>
      </trkpt>
      <trkpt lat="48.72575" lon="-0.59979">
        <ele>135.2</ele>
        <time>2014-08-20T16:33:49Z</time>
      </trkpt>
      <trkpt lat="48.72648" lon="-0.5993">
        <ele>131.8</ele>
        <time>2014-08-20T16:34:01Z</time>
      </trkpt>
      <trkpt lat="48.72705" lon="-0.59869">
        <ele>128.8</ele>
        <time>2014-08-20T16:34:12Z</time>
      </trkpt>
      <trkpt lat="48.7271" lon="-0.59863">
        <ele>128.8</ele>
        <time>2014-08-20T16:34:13Z</time>
      </trkpt>
      <trkpt lat="48.72716" lon="-0.59859">
        <ele>128.6</ele>
        <time>2014-08-20T16:34:14Z</time>
      </trkpt>
      <trkpt lat="48.72722" lon="-0.59857">
        <ele>128.6</ele>
        <time>2014-08-20T16:34:15Z</time>
      </trkpt>
      <trkpt lat="48.72728" lon="-0.59858">
        <ele>128.4</ele>
        <time>2014-08-20T16:34:16Z</time>
      </trkpt>
      <trkpt lat="48.72735" lon="-0.59861">
        <ele>128.4</ele>
        <time>2014-08-20T16:34:17Z</time>
      </trkpt>
      <trkpt lat="48.72742" lon="-0.59866">
        <ele>128.2</ele>
        <time>2014-08-20T16:34:18Z</time>
      </trkpt>
      <trkpt lat="48.72748" lon="-0.59872">
        <ele>128</ele>
        <time>2014-08-20T16:34:19Z</time>
      </trkpt>
      <trkpt lat="48.72755" lon="-0.59876">
        <ele>127.2</ele>
        <time>2014-08-20T16:34:20Z</time>
      </trkpt>
      <trkpt lat="48.72761" lon="-0.59879">
        <ele>126.8</ele>
        <time>2014-08-20T16:34:21Z</time>
      </trkpt>
      <trkpt lat="48.72769" lon="-0.59879">
        <ele>126.4</ele>
        <time>2014-08-20T16:34:22Z</time>
      </trkpt>
      <trkpt lat="48.72776" lon="-0.59877">
        <ele>126</ele>
        <time>2014-08-20T16:34:23Z</time>
      </trkpt>
      <trkpt lat="48.72782" lon="-0.59875">
        <ele>125.6</ele>
        <time>2014-08-20T16:34:24Z</time>
      </trkpt>
      <trkpt lat="48.72789" lon="-0.59872">
        <ele>125.4</ele>
        <time>2014-08-20T16:34:25Z</time>
      </trkpt>
      <trkpt lat="48.728" lon="-0.59868">
        <ele>125</ele>
        <time>2014-08-20T16:34:27Z</time>
      </trkpt>
      <trkpt lat="48.72805" lon="-0.59867">
        <ele>124.8</ele>
        <time>2014-08-20T16:34:28Z</time>
      </trkpt>
      <trkpt lat="48.7281" lon="-0.59868">
        <ele>124.8</ele>
        <time>2014-08-20T16:34:29Z</time>
      </trkpt>
      <trkpt lat="48.72815" lon="-0.5987">
        <ele>124.8</ele>
        <time>2014-08-20T16:34:30Z</time>
      </trkpt>
      <trkpt lat="48.72821" lon="-0.59873">
        <ele>124.8</ele>
        <time>2014-08-20T16:34:31Z</time>
      </trkpt>
      <trkpt lat="48.72826" lon="-0.59876">
        <ele>124.6</ele>
        <time>2014-08-20T16:34:32Z</time>
      </trkpt>
      <trkpt lat="48.7283" lon="-0.59881">
        <ele>124.6</ele>
        <time>2014-08-20T16:34:33Z</time>
      </trkpt>
      <trkpt lat="48.72834" lon="-0.59885">
        <ele>124.8</ele>
        <time>2014-08-20T16:34:34Z</time>
      </trkpt>
      <trkpt lat="48.72838" lon="-0.5989">
        <ele>124.8</ele>
        <time>2014-08-20T16:34:35Z</time>
      </trkpt>
      <trkpt lat="48.72842" lon="-0.59894">
        <ele>124.8</ele>
        <time>2014-08-20T16:34:36Z</time>
      </trkpt>
      <trkpt lat="48.72845" lon="-0.59899">
        <ele>125</ele>
        <time>2014-08-20T16:34:37Z</time>
      </trkpt>
      <trkpt lat="48.72849" lon="-0.59903">
        <ele>125.4</ele>
        <time>2014-08-20T16:34:38Z</time>
      </trkpt>
      <trkpt lat="48.72884" lon="-0.59945">
        <ele>128.4</ele>
        <time>2014-08-20T16:34:50Z</time>
      </trkpt>
      <trkpt lat="48.72895" lon="-0.5995">
        <ele>129.2</ele>
        <time>2014-08-20T16:34:54Z</time>
      </trkpt>
      <trkpt lat="48.72898" lon="-0.59948">
        <ele>129.4</ele>
        <time>2014-08-20T16:34:55Z</time>
      </trkpt>
      <trkpt lat="48.72912" lon="-0.59937">
        <ele>130</ele>
        <time>2014-08-20T16:34:59Z</time>
      </trkpt>
      <trkpt lat="48.72976" lon="-0.59877">
        <ele>129.4</ele>
        <time>2014-08-20T16:35:13Z</time>
      </trkpt>
      <trkpt lat="48.73056" lon="-0.59785">
        <ele>128.2</ele>
        <time>2014-08-20T16:35:31Z</time>
      </trkpt>
      <trkpt lat="48.73108" lon="-0.59686">
        <ele>127.2</ele>
        <time>2014-08-20T16:35:49Z</time>
      </trkpt>
      <trkpt lat="48.73144" lon="-0.59626">
        <ele>125.2</ele>
        <time>2014-08-20T16:36:00Z</time>
      </trkpt>
      <trkpt lat="48.73202" lon="-0.59527">
        <ele>125</ele>
        <time>2014-08-20T16:36:16Z</time>
      </trkpt>
      <trkpt lat="48.73268" lon="-0.59452">
        <ele>124.4</ele>
        <time>2014-08-20T16:36:32Z</time>
      </trkpt>
      <trkpt lat="48.73307" lon="-0.59425">
        <ele>125</ele>
        <time>2014-08-20T16:36:44Z</time>
      </trkpt>
      <trkpt lat="48.73312" lon="-0.59425">
        <ele>125.2</ele>
        <time>2014-08-20T16:36:48Z</time>
      </trkpt>
      <trkpt lat="48.73311" lon="-0.59427">
        <ele>125.2</ele>
        <time>2014-08-20T16:36:49Z</time>
      </trkpt>
      <trkpt lat="48.7329" lon="-0.59431">
        <ele>125.2</ele>
        <time>2014-08-20T16:36:57Z</time>
      </trkpt>
      <trkpt lat="48.73287" lon="-0.59427">
        <ele>125.2</ele>
        <time>2014-08-20T16:36:58Z</time>
      </trkpt>
      <trkpt lat="48.73285" lon="-0.59423">
        <ele>125.2</ele>
        <time>2014-08-20T16:36:59Z</time>
      </trkpt>
      <trkpt lat="48.73275" lon="-0.594">
        <ele>125</ele>
        <time>2014-08-20T16:37:03Z</time>
      </trkpt>
      <trkpt lat="48.73272" lon="-0.59394">
        <ele>125</ele>
        <time>2014-08-20T16:37:04Z</time>
      </trkpt>
      <trkpt lat="48.73217" lon="-0.59266">
        <ele>123.4</ele>
        <time>2014-08-20T16:37:20Z</time>
      </trkpt>
      <trkpt lat="48.73158" lon="-0.59163">
        <ele>120.2</ele>
        <time>2014-08-20T16:37:32Z</time>
      </trkpt>
      <trkpt lat="48.73087" lon="-0.59094">
        <ele>118.8</ele>
        <time>2014-08-20T16:37:45Z</time>
      </trkpt>
      <trkpt lat="48.73036" lon="-0.59039">
        <ele>118.8</ele>
        <time>2014-08-20T16:37:56Z</time>
      </trkpt>
      <trkpt lat="48.73032" lon="-0.59032">
        <ele>118.8</ele>
        <time>2014-08-20T16:37:57Z</time>
      </trkpt>
      <trkpt lat="48.73008" lon="-0.58968">
        <ele>119</ele>
        <time>2014-08-20T16:38:06Z</time>
      </trkpt>
      <trkpt lat="48.73007" lon="-0.58961">
        <ele>119</ele>
        <time>2014-08-20T16:38:07Z</time>
      </trkpt>
      <trkpt lat="48.73007" lon="-0.58956">
        <ele>119.2</ele>
        <time>2014-08-20T16:38:08Z</time>
      </trkpt>
      <trkpt lat="48.73007" lon="-0.58951">
        <ele>119.2</ele>
        <time>2014-08-20T16:38:09Z</time>
      </trkpt>
      <trkpt lat="48.73008" lon="-0.58948">
        <ele>119.4</ele>
        <time>2014-08-20T16:38:10Z</time>
      </trkpt>
      <trkpt lat="48.73009" lon="-0.58945">
        <ele>119.6</ele>
        <time>2014-08-20T16:38:11Z</time>
      </trkpt>
      <trkpt lat="48.73011" lon="-0.58944">
        <ele>119.8</ele>
        <time>2014-08-20T16:38:12Z</time>
      </trkpt>
      <trkpt lat="48.73014" lon="-0.58943">
        <ele>120</ele>
        <time>2014-08-20T16:38:13Z</time>
      </trkpt>
      <trkpt lat="48.73017" lon="-0.58942">
        <ele>120</ele>
        <time>2014-08-20T16:38:14Z</time>
      </trkpt>
      <trkpt lat="48.73021" lon="-0.58942">
        <ele>120.2</ele>
        <time>2014-08-20T16:38:15Z</time>
      </trkpt>
      <trkpt lat="48.73025" lon="-0.58942">
        <ele>120.2</ele>
        <time>2014-08-20T16:38:16Z</time>
      </trkpt>
      <trkpt lat="48.73029" lon="-0.58941">
        <ele>120.2</ele>
        <time>2014-08-20T16:38:17Z</time>
      </trkpt>
      <trkpt lat="48.73034" lon="-0.5894">
        <ele>120</ele>
        <time>2014-08-20T16:38:18Z</time>
      </trkpt>
      <trkpt lat="48.731" lon="-0.58917">
        <ele>119.2</ele>
        <time>2014-08-20T16:38:30Z</time>
      </trkpt>
      <trkpt lat="48.73106" lon="-0.58913">
        <ele>119.2</ele>
        <time>2014-08-20T16:38:31Z</time>
      </trkpt>
      <trkpt lat="48.73111" lon="-0.58909">
        <ele>119.2</ele>
        <time>2014-08-20T16:38:32Z</time>
      </trkpt>
      <trkpt lat="48.73196" lon="-0.58813">
        <ele>120.2</ele>
        <time>2014-08-20T16:38:51Z</time>
      </trkpt>
      <trkpt lat="48.73215" lon="-0.58794">
        <ele>120.6</ele>
        <time>2014-08-20T16:38:55Z</time>
      </trkpt>
      <trkpt lat="48.73274" lon="-0.58746">
        <ele>122.6</ele>
        <time>2014-08-20T16:39:09Z</time>
      </trkpt>
      <trkpt lat="48.73304" lon="-0.58705">
        <ele>124.2</ele>
        <time>2014-08-20T16:39:18Z</time>
      </trkpt>
      <trkpt lat="48.73332" lon="-0.58663">
        <ele>125</ele>
        <time>2014-08-20T16:39:26Z</time>
      </trkpt>
      <trkpt lat="48.73395" lon="-0.58574">
        <ele>126.2</ele>
        <time>2014-08-20T16:39:44Z</time>
      </trkpt>
      <trkpt lat="48.73453" lon="-0.58508">
        <ele>127.4</ele>
        <time>2014-08-20T16:39:59Z</time>
      </trkpt>
      <trkpt lat="48.7353" lon="-0.58401">
        <ele>127.2</ele>
        <time>2014-08-20T16:40:19Z</time>
      </trkpt>
      <trkpt lat="48.73586" lon="-0.58365">
        <ele>125.6</ele>
        <time>2014-08-20T16:40:31Z</time>
      </trkpt>
      <trkpt lat="48.73621" lon="-0.58346">
        <ele>124.4</ele>
        <time>2014-08-20T16:40:39Z</time>
      </trkpt>
      <trkpt lat="48.73626" lon="-0.58342">
        <ele>124.2</ele>
        <time>2014-08-20T16:40:40Z</time>
      </trkpt>
      <trkpt lat="48.73629" lon="-0.58338">
        <ele>124.2</ele>
        <time>2014-08-20T16:40:41Z</time>
      </trkpt>
      <trkpt lat="48.73633" lon="-0.58333">
        <ele>124.2</ele>
        <time>2014-08-20T16:40:42Z</time>
      </trkpt>
      <trkpt lat="48.73636" lon="-0.58326">
        <ele>124.2</ele>
        <time>2014-08-20T16:40:43Z</time>
      </trkpt>
      <trkpt lat="48.73638" lon="-0.5832">
        <ele>124</ele>
        <time>2014-08-20T16:40:44Z</time>
      </trkpt>
      <trkpt lat="48.73642" lon="-0.58315">
        <ele>124</ele>
        <time>2014-08-20T16:40:45Z</time>
      </trkpt>
      <trkpt lat="48.73646" lon="-0.58312">
        <ele>123.8</ele>
        <time>2014-08-20T16:40:46Z</time>
      </trkpt>
      <trkpt lat="48.73651" lon="-0.58309">
        <ele>123.6</ele>
        <time>2014-08-20T16:40:47Z</time>
      </trkpt>
      <trkpt lat="48.73656" lon="-0.58308">
        <ele>123.4</ele>
        <time>2014-08-20T16:40:48Z</time>
      </trkpt>
      <trkpt lat="48.73661" lon="-0.58305">
        <ele>123.2</ele>
        <time>2014-08-20T16:40:49Z</time>
      </trkpt>
      <trkpt lat="48.73695" lon="-0.58279">
        <ele>122.6</ele>
        <time>2014-08-20T16:40:59Z</time>
      </trkpt>
      <trkpt lat="48.73761" lon="-0.58203">
        <ele>120.8</ele>
        <time>2014-08-20T16:41:15Z</time>
      </trkpt>
      <trkpt lat="48.73766" lon="-0.58201">
        <ele>120.4</ele>
        <time>2014-08-20T16:41:16Z</time>
      </trkpt>
      <trkpt lat="48.73772" lon="-0.582">
        <ele>120.2</ele>
        <time>2014-08-20T16:41:17Z</time>
      </trkpt>
      <trkpt lat="48.73777" lon="-0.58202">
        <ele>120</ele>
        <time>2014-08-20T16:41:18Z</time>
      </trkpt>
      <trkpt lat="48.73782" lon="-0.58205">
        <ele>119.8</ele>
        <time>2014-08-20T16:41:19Z</time>
      </trkpt>
      <trkpt lat="48.73786" lon="-0.58209">
        <ele>119.6</ele>
        <time>2014-08-20T16:41:20Z</time>
      </trkpt>
      <trkpt lat="48.7379" lon="-0.58214">
        <ele>119.4</ele>
        <time>2014-08-20T16:41:21Z</time>
      </trkpt>
      <trkpt lat="48.73803" lon="-0.58224">
        <ele>119</ele>
        <time>2014-08-20T16:41:24Z</time>
      </trkpt>
      <trkpt lat="48.73807" lon="-0.58226">
        <ele>118.8</ele>
        <time>2014-08-20T16:41:25Z</time>
      </trkpt>
      <trkpt lat="48.73812" lon="-0.58226">
        <ele>118.8</ele>
        <time>2014-08-20T16:41:26Z</time>
      </trkpt>
      <trkpt lat="48.73817" lon="-0.58225">
        <ele>118.6</ele>
        <time>2014-08-20T16:41:27Z</time>
      </trkpt>
      <trkpt lat="48.73822" lon="-0.58224">
        <ele>118.6</ele>
        <time>2014-08-20T16:41:28Z</time>
      </trkpt>
      <trkpt lat="48.73838" lon="-0.58222">
        <ele>117.8</ele>
        <time>2014-08-20T16:41:31Z</time>
      </trkpt>
      <trkpt lat="48.73844" lon="-0.58221">
        <ele>117.6</ele>
        <time>2014-08-20T16:41:32Z</time>
      </trkpt>
      <trkpt lat="48.73851" lon="-0.5822">
        <ele>117.2</ele>
        <time>2014-08-20T16:41:33Z</time>
      </trkpt>
      <trkpt lat="48.73864" lon="-0.58217">
        <ele>116.6</ele>
        <time>2014-08-20T16:41:35Z</time>
      </trkpt>
      <trkpt lat="48.7387" lon="-0.58214">
        <ele>116.2</ele>
        <time>2014-08-20T16:41:36Z</time>
      </trkpt>
      <trkpt lat="48.73876" lon="-0.58209">
        <ele>115.8</ele>
        <time>2014-08-20T16:41:37Z</time>
      </trkpt>
      <trkpt lat="48.73882" lon="-0.58203">
        <ele>115.6</ele>
        <time>2014-08-20T16:41:38Z</time>
      </trkpt>
      <trkpt lat="48.73888" lon="-0.58196">
        <ele>115.2</ele>
        <time>2014-08-20T16:41:39Z</time>
      </trkpt>
      <trkpt lat="48.73954" lon="-0.58124">
        <ele>113.8</ele>
        <time>2014-08-20T16:41:53Z</time>
      </trkpt>
      <trkpt lat="48.74006" lon="-0.58067">
        <ele>116</ele>
        <time>2014-08-20T16:42:09Z</time>
      </trkpt>
      <trkpt lat="48.74052" lon="-0.58012">
        <ele>117.8</ele>
        <time>2014-08-20T16:42:24Z</time>
      </trkpt>
      <trkpt lat="48.74056" lon="-0.58008">
        <ele>117.8</ele>
        <time>2014-08-20T16:42:25Z</time>
      </trkpt>
      <trkpt lat="48.74125" lon="-0.57927">
        <ele>117</ele>
        <time>2014-08-20T16:42:42Z</time>
      </trkpt>
      <trkpt lat="48.74152" lon="-0.57891">
        <ele>116.4</ele>
        <time>2014-08-20T16:42:49Z</time>
      </trkpt>
      <trkpt lat="48.7416" lon="-0.5788">
        <ele>116.2</ele>
        <time>2014-08-20T16:42:51Z</time>
      </trkpt>
      <trkpt lat="48.74164" lon="-0.57875">
        <ele>116.2</ele>
        <time>2014-08-20T16:42:52Z</time>
      </trkpt>
      <trkpt lat="48.74216" lon="-0.57799">
        <ele>113.6</ele>
        <time>2014-08-20T16:43:05Z</time>
      </trkpt>
      <trkpt lat="48.74229" lon="-0.57783">
        <ele>112.6</ele>
        <time>2014-08-20T16:43:10Z</time>
      </trkpt>
      <trkpt lat="48.74231" lon="-0.57784">
        <ele>112.4</ele>
        <time>2014-08-20T16:43:11Z</time>
      </trkpt>
      <trkpt lat="48.74234" lon="-0.57785">
        <ele>112.4</ele>
        <time>2014-08-20T16:43:12Z</time>
      </trkpt>
      <trkpt lat="48.74237" lon="-0.57788">
        <ele>112.2</ele>
        <time>2014-08-20T16:43:13Z</time>
      </trkpt>
      <trkpt lat="48.7424" lon="-0.57792">
        <ele>112</ele>
        <time>2014-08-20T16:43:14Z</time>
      </trkpt>
      <trkpt lat="48.74243" lon="-0.57797">
        <ele>112</ele>
        <time>2014-08-20T16:43:15Z</time>
      </trkpt>
      <trkpt lat="48.74246" lon="-0.57802">
        <ele>111.8</ele>
        <time>2014-08-20T16:43:16Z</time>
      </trkpt>
      <trkpt lat="48.74268" lon="-0.57838">
        <ele>111</ele>
        <time>2014-08-20T16:43:23Z</time>
      </trkpt>
      <trkpt lat="48.74272" lon="-0.57838">
        <ele>111</ele>
        <time>2014-08-20T16:43:24Z</time>
      </trkpt>
      <trkpt lat="48.74275" lon="-0.57835">
        <ele>110.8</ele>
        <time>2014-08-20T16:43:25Z</time>
      </trkpt>
      <trkpt lat="48.74278" lon="-0.5783">
        <ele>110.8</ele>
        <time>2014-08-20T16:43:26Z</time>
      </trkpt>
      <trkpt lat="48.74281" lon="-0.57825">
        <ele>110.8</ele>
        <time>2014-08-20T16:43:27Z</time>
      </trkpt>
      <trkpt lat="48.74316" lon="-0.5775">
        <ele>111</ele>
        <time>2014-08-20T16:43:43Z</time>
      </trkpt>
      <trkpt lat="48.74331" lon="-0.57721">
        <ele>111</ele>
        <time>2014-08-20T16:43:49Z</time>
      </trkpt>
      <trkpt lat="48.74334" lon="-0.57718">
        <ele>111</ele>
        <time>2014-08-20T16:43:50Z</time>
      </trkpt>
      <trkpt lat="48.74338" lon="-0.57715">
        <ele>111</ele>
        <time>2014-08-20T16:43:51Z</time>
      </trkpt>
      <trkpt lat="48.74342" lon="-0.57713">
        <ele>111</ele>
        <time>2014-08-20T16:43:52Z</time>
      </trkpt>
      <trkpt lat="48.74346" lon="-0.57712">
        <ele>111</ele>
        <time>2014-08-20T16:43:53Z</time>
      </trkpt>
      <trkpt lat="48.7435" lon="-0.57712">
        <ele>111</ele>
        <time>2014-08-20T16:43:54Z</time>
      </trkpt>
      <trkpt lat="48.74353" lon="-0.5771">
        <ele>111.2</ele>
        <time>2014-08-20T16:43:55Z</time>
      </trkpt>
      <trkpt lat="48.74356" lon="-0.57706">
        <ele>111.2</ele>
        <time>2014-08-20T16:43:56Z</time>
      </trkpt>
      <trkpt lat="48.74359" lon="-0.57702">
        <ele>111.2</ele>
        <time>2014-08-20T16:43:57Z</time>
      </trkpt>
      <trkpt lat="48.74362" lon="-0.57697">
        <ele>111.2</ele>
        <time>2014-08-20T16:43:58Z</time>
      </trkpt>
      <trkpt lat="48.74399" lon="-0.57624">
        <ele>111.4</ele>
        <time>2014-08-20T16:44:13Z</time>
      </trkpt>
      <trkpt lat="48.74429" lon="-0.57569">
        <ele>112</ele>
        <time>2014-08-20T16:44:26Z</time>
      </trkpt>
      <trkpt lat="48.7444" lon="-0.57553">
        <ele>112.4</ele>
        <time>2014-08-20T16:44:31Z</time>
      </trkpt>
      <trkpt lat="48.74452" lon="-0.5754">
        <ele>112.8</ele>
        <time>2014-08-20T16:44:40Z</time>
      </trkpt>
      <trkpt lat="48.74476" lon="-0.57562">
        <ele>112.8</ele>
        <time>2014-08-20T16:44:49Z</time>
      </trkpt>
      <trkpt lat="48.74538" lon="-0.57628">
        <ele>113.4</ele>
        <time>2014-08-20T16:45:06Z</time>
      </trkpt>
      <trkpt lat="48.746" lon="-0.57672">
        <ele>115.6</ele>
        <time>2014-08-20T16:45:25Z</time>
      </trkpt>
      <trkpt lat="48.74625" lon="-0.57616">
        <ele>117.6</ele>
        <time>2014-08-20T16:45:38Z</time>
      </trkpt>
      <trkpt lat="48.74651" lon="-0.57548">
        <ele>116.6</ele>
        <time>2014-08-20T16:45:50Z</time>
      </trkpt>
      <trkpt lat="48.74663" lon="-0.57506">
        <ele>115.8</ele>
        <time>2014-08-20T16:46:01Z</time>
      </trkpt>
      <trkpt lat="48.74688" lon="-0.5744">
        <ele>114.6</ele>
        <time>2014-08-20T16:46:11Z</time>
      </trkpt>
      <trkpt lat="48.7473" lon="-0.57335">
        <ele>112</ele>
        <time>2014-08-20T16:46:25Z</time>
      </trkpt>
      <trkpt lat="48.74774" lon="-0.57223">
        <ele>109.4</ele>
        <time>2014-08-20T16:46:40Z</time>
      </trkpt>
      <trkpt lat="48.74778" lon="-0.57218">
        <ele>109.4</ele>
        <time>2014-08-20T16:46:41Z</time>
      </trkpt>
      <trkpt lat="48.74781" lon="-0.57214">
        <ele>109.2</ele>
        <time>2014-08-20T16:46:42Z</time>
      </trkpt>
      <trkpt lat="48.74783" lon="-0.5721">
        <ele>109.2</ele>
        <time>2014-08-20T16:46:43Z</time>
      </trkpt>
      <trkpt lat="48.74785" lon="-0.57206">
        <ele>109.2</ele>
        <time>2014-08-20T16:46:44Z</time>
      </trkpt>
      <trkpt lat="48.74786" lon="-0.57203">
        <ele>109</ele>
        <time>2014-08-20T16:46:45Z</time>
      </trkpt>
      <trkpt lat="48.74787" lon="-0.57203">
        <ele>109.2</ele>
        <time>2014-08-20T16:46:49Z</time>
      </trkpt>
      <trkpt lat="48.74806" lon="-0.57214">
        <ele>108</ele>
        <time>2014-08-20T16:47:49Z</time>
      </trkpt>
      <trkpt lat="48.74806" lon="-0.57217">
        <ele>107.8</ele>
        <time>2014-08-20T16:47:54Z</time>
      </trkpt>
    </trkseg>
  </trk>
</gpx>